<?xml version="1.0" encoding="UTF-8" standalone="no" ?>
<gpx xmlns="http://www.topografix.com/GPX/1/1" xmlns:xsi="http://www.w3.org/2001/XMLSchema-instance" xsi:schemaLocation="http://www.topografix.com/GPX/1/1 http://www.topografix.com/GPX/1/1/gpx.xsd" version="1.1" creator="VisuGPX - https://www.visugpx.com">
  <metadata>
    <name>Le Janus </name>
    <desc><![CDATA[Montgenèvre-Le Janus ]]></desc>
  </metadata>
  <trk>
    <name><![CDATA[Janus_06 FEB 2016]]></name>
    <trkseg>
      <trkpt lat="44.92493" lon="6.72032">
        <ele>1852.12</ele>
        <time>2016-02-06T08:41:59Z</time>
      </trkpt>
      <trkpt lat="44.92487" lon="6.72031">
        <ele>1855</ele>
        <time>2016-02-06T08:42:12Z</time>
      </trkpt>
      <trkpt lat="44.92475" lon="6.7203">
        <ele>1857.4</ele>
        <time>2016-02-06T08:42:31Z</time>
      </trkpt>
      <trkpt lat="44.92467" lon="6.72028">
        <ele>1859.33</ele>
        <time>2016-02-06T08:42:45Z</time>
      </trkpt>
      <trkpt lat="44.92465" lon="6.72027">
        <ele>1859.81</ele>
        <time>2016-02-06T08:42:48Z</time>
      </trkpt>
      <trkpt lat="44.92454" lon="6.72026">
        <ele>1861.25</ele>
        <time>2016-02-06T08:43:03Z</time>
      </trkpt>
      <trkpt lat="44.92444" lon="6.72025">
        <ele>1863.17</ele>
        <time>2016-02-06T08:43:18Z</time>
      </trkpt>
      <trkpt lat="44.92436" lon="6.72026">
        <ele>1865.09</ele>
        <time>2016-02-06T08:43:31Z</time>
      </trkpt>
      <trkpt lat="44.92426" lon="6.72028">
        <ele>1866.54</ele>
        <time>2016-02-06T08:43:44Z</time>
      </trkpt>
      <trkpt lat="44.92416" lon="6.72033">
        <ele>1868.46</ele>
        <time>2016-02-06T08:43:59Z</time>
      </trkpt>
      <trkpt lat="44.92406" lon="6.72036">
        <ele>1870.38</ele>
        <time>2016-02-06T08:44:14Z</time>
      </trkpt>
      <trkpt lat="44.92395" lon="6.72035">
        <ele>1872.79</ele>
        <time>2016-02-06T08:44:29Z</time>
      </trkpt>
      <trkpt lat="44.92386" lon="6.72032">
        <ele>1875.19</ele>
        <time>2016-02-06T08:44:43Z</time>
      </trkpt>
      <trkpt lat="44.92383" lon="6.72031">
        <ele>1875.67</ele>
        <time>2016-02-06T08:44:48Z</time>
      </trkpt>
      <trkpt lat="44.92376" lon="6.72026">
        <ele>1876.15</ele>
        <time>2016-02-06T08:45:02Z</time>
      </trkpt>
      <trkpt lat="44.92369" lon="6.72022">
        <ele>1876.63</ele>
        <time>2016-02-06T08:45:14Z</time>
      </trkpt>
      <trkpt lat="44.9237" lon="6.7203">
        <ele>1877.59</ele>
        <time>2016-02-06T08:45:24Z</time>
      </trkpt>
      <trkpt lat="44.92366" lon="6.72036">
        <ele>1879.51</ele>
        <time>2016-02-06T08:45:36Z</time>
      </trkpt>
      <trkpt lat="44.92359" lon="6.72042">
        <ele>1882.4</ele>
        <time>2016-02-06T08:45:50Z</time>
      </trkpt>
      <trkpt lat="44.92352" lon="6.72046">
        <ele>1884.32</ele>
        <time>2016-02-06T08:46:02Z</time>
      </trkpt>
      <trkpt lat="44.92346" lon="6.72051">
        <ele>1884.8</ele>
        <time>2016-02-06T08:46:18Z</time>
      </trkpt>
      <trkpt lat="44.92348" lon="6.72051">
        <ele>1884.32</ele>
        <time>2016-02-06T08:46:38Z</time>
      </trkpt>
      <trkpt lat="44.92347" lon="6.72052">
        <ele>1885.28</ele>
        <time>2016-02-06T08:47:05Z</time>
      </trkpt>
      <trkpt lat="44.92348" lon="6.7205">
        <ele>1886.72</ele>
        <time>2016-02-06T08:47:49Z</time>
      </trkpt>
      <trkpt lat="44.92348" lon="6.72051">
        <ele>1888.17</ele>
        <time>2016-02-06T08:48:33Z</time>
      </trkpt>
      <trkpt lat="44.92349" lon="6.72049">
        <ele>1889.61</ele>
        <time>2016-02-06T08:49:21Z</time>
      </trkpt>
      <trkpt lat="44.92348" lon="6.7205">
        <ele>1891.05</ele>
        <time>2016-02-06T08:50:06Z</time>
      </trkpt>
      <trkpt lat="44.92347" lon="6.7205">
        <ele>1891.05</ele>
        <time>2016-02-06T08:50:25Z</time>
      </trkpt>
      <trkpt lat="44.92346" lon="6.72046">
        <ele>1892.01</ele>
        <time>2016-02-06T08:50:56Z</time>
      </trkpt>
      <trkpt lat="44.92347" lon="6.7206">
        <ele>1892.49</ele>
        <time>2016-02-06T08:51:22Z</time>
      </trkpt>
      <trkpt lat="44.92346" lon="6.7206">
        <ele>1894.9</ele>
        <time>2016-02-06T08:51:57Z</time>
      </trkpt>
      <trkpt lat="44.92345" lon="6.7206">
        <ele>1894.9</ele>
        <time>2016-02-06T08:51:58Z</time>
      </trkpt>
      <trkpt lat="44.92351" lon="6.72049">
        <ele>1894.9</ele>
        <time>2016-02-06T08:52:14Z</time>
      </trkpt>
      <trkpt lat="44.92354" lon="6.7205">
        <ele>1895.38</ele>
        <time>2016-02-06T08:52:28Z</time>
      </trkpt>
      <trkpt lat="44.92355" lon="6.72051">
        <ele>1895.38</ele>
        <time>2016-02-06T08:52:45Z</time>
      </trkpt>
      <trkpt lat="44.9235" lon="6.72059">
        <ele>1897.3</ele>
        <time>2016-02-06T08:52:56Z</time>
      </trkpt>
      <trkpt lat="44.92344" lon="6.72068">
        <ele>1900.66</ele>
        <time>2016-02-06T08:53:11Z</time>
      </trkpt>
      <trkpt lat="44.92341" lon="6.72076">
        <ele>1903.07</ele>
        <time>2016-02-06T08:53:25Z</time>
      </trkpt>
      <trkpt lat="44.92336" lon="6.72087">
        <ele>1905.95</ele>
        <time>2016-02-06T08:53:41Z</time>
      </trkpt>
      <trkpt lat="44.92329" lon="6.72092">
        <ele>1907.87</ele>
        <time>2016-02-06T08:53:54Z</time>
      </trkpt>
      <trkpt lat="44.92326" lon="6.72101">
        <ele>1910.76</ele>
        <time>2016-02-06T08:54:09Z</time>
      </trkpt>
      <trkpt lat="44.9232" lon="6.72108">
        <ele>1913.16</ele>
        <time>2016-02-06T08:54:28Z</time>
      </trkpt>
      <trkpt lat="44.92315" lon="6.7212">
        <ele>1915.08</ele>
        <time>2016-02-06T08:54:42Z</time>
      </trkpt>
      <trkpt lat="44.92312" lon="6.7213">
        <ele>1917.49</ele>
        <time>2016-02-06T08:54:58Z</time>
      </trkpt>
      <trkpt lat="44.92306" lon="6.7214">
        <ele>1919.41</ele>
        <time>2016-02-06T08:55:10Z</time>
      </trkpt>
      <trkpt lat="44.92299" lon="6.72148">
        <ele>1920.37</ele>
        <time>2016-02-06T08:55:22Z</time>
      </trkpt>
      <trkpt lat="44.92293" lon="6.72157">
        <ele>1922.29</ele>
        <time>2016-02-06T08:55:37Z</time>
      </trkpt>
      <trkpt lat="44.92288" lon="6.72166">
        <ele>1924.7</ele>
        <time>2016-02-06T08:55:50Z</time>
      </trkpt>
      <trkpt lat="44.92287" lon="6.72169">
        <ele>1925.18</ele>
        <time>2016-02-06T08:55:54Z</time>
      </trkpt>
      <trkpt lat="44.92279" lon="6.72177">
        <ele>1927.1</ele>
        <time>2016-02-06T08:56:07Z</time>
      </trkpt>
      <trkpt lat="44.92271" lon="6.72183">
        <ele>1928.54</ele>
        <time>2016-02-06T08:56:20Z</time>
      </trkpt>
      <trkpt lat="44.92264" lon="6.7219">
        <ele>1929.98</ele>
        <time>2016-02-06T08:56:32Z</time>
      </trkpt>
      <trkpt lat="44.92256" lon="6.72195">
        <ele>1931.43</ele>
        <time>2016-02-06T08:56:45Z</time>
      </trkpt>
      <trkpt lat="44.92248" lon="6.72203">
        <ele>1932.87</ele>
        <time>2016-02-06T08:56:57Z</time>
      </trkpt>
      <trkpt lat="44.92244" lon="6.72205">
        <ele>1933.35</ele>
        <time>2016-02-06T08:57:03Z</time>
      </trkpt>
      <trkpt lat="44.92236" lon="6.7221">
        <ele>1934.79</ele>
        <time>2016-02-06T08:57:15Z</time>
      </trkpt>
      <trkpt lat="44.92229" lon="6.72217">
        <ele>1936.23</ele>
        <time>2016-02-06T08:57:26Z</time>
      </trkpt>
      <trkpt lat="44.92221" lon="6.72223">
        <ele>1937.67</ele>
        <time>2016-02-06T08:57:37Z</time>
      </trkpt>
      <trkpt lat="44.92212" lon="6.72229">
        <ele>1939.12</ele>
        <time>2016-02-06T08:57:50Z</time>
      </trkpt>
      <trkpt lat="44.92207" lon="6.72233">
        <ele>1940.56</ele>
        <time>2016-02-06T08:58:02Z</time>
      </trkpt>
      <trkpt lat="44.922" lon="6.72239">
        <ele>1942</ele>
        <time>2016-02-06T08:58:14Z</time>
      </trkpt>
      <trkpt lat="44.92193" lon="6.72247">
        <ele>1943.92</ele>
        <time>2016-02-06T08:58:27Z</time>
      </trkpt>
      <trkpt lat="44.92184" lon="6.72254">
        <ele>1944.88</ele>
        <time>2016-02-06T08:58:39Z</time>
      </trkpt>
      <trkpt lat="44.92178" lon="6.72258">
        <ele>1945.85</ele>
        <time>2016-02-06T08:58:47Z</time>
      </trkpt>
      <trkpt lat="44.92167" lon="6.72269">
        <ele>1947.29</ele>
        <time>2016-02-06T08:59:02Z</time>
      </trkpt>
      <trkpt lat="44.92159" lon="6.72275">
        <ele>1949.21</ele>
        <time>2016-02-06T08:59:14Z</time>
      </trkpt>
      <trkpt lat="44.92152" lon="6.72281">
        <ele>1949.69</ele>
        <time>2016-02-06T08:59:23Z</time>
      </trkpt>
      <trkpt lat="44.92141" lon="6.72289">
        <ele>1951.13</ele>
        <time>2016-02-06T08:59:37Z</time>
      </trkpt>
      <trkpt lat="44.92132" lon="6.72297">
        <ele>1953.06</ele>
        <time>2016-02-06T08:59:50Z</time>
      </trkpt>
      <trkpt lat="44.92122" lon="6.72303">
        <ele>1954.5</ele>
        <time>2016-02-06T09:00:02Z</time>
      </trkpt>
      <trkpt lat="44.92111" lon="6.72312">
        <ele>1955.46</ele>
        <time>2016-02-06T09:00:16Z</time>
      </trkpt>
      <trkpt lat="44.92101" lon="6.72317">
        <ele>1956.42</ele>
        <time>2016-02-06T09:00:27Z</time>
      </trkpt>
      <trkpt lat="44.9209" lon="6.72324">
        <ele>1957.38</ele>
        <time>2016-02-06T09:00:40Z</time>
      </trkpt>
      <trkpt lat="44.9208" lon="6.7233">
        <ele>1958.82</ele>
        <time>2016-02-06T09:00:53Z</time>
      </trkpt>
      <trkpt lat="44.92076" lon="6.72333">
        <ele>1959.78</ele>
        <time>2016-02-06T09:00:59Z</time>
      </trkpt>
      <trkpt lat="44.92067" lon="6.72338">
        <ele>1961.23</ele>
        <time>2016-02-06T09:01:11Z</time>
      </trkpt>
      <trkpt lat="44.92057" lon="6.72342">
        <ele>1962.67</ele>
        <time>2016-02-06T09:01:24Z</time>
      </trkpt>
      <trkpt lat="44.92047" lon="6.72344">
        <ele>1963.63</ele>
        <time>2016-02-06T09:01:36Z</time>
      </trkpt>
      <trkpt lat="44.92038" lon="6.72349">
        <ele>1965.55</ele>
        <time>2016-02-06T09:01:49Z</time>
      </trkpt>
      <trkpt lat="44.92027" lon="6.72352">
        <ele>1967.48</ele>
        <time>2016-02-06T09:02:02Z</time>
      </trkpt>
      <trkpt lat="44.92017" lon="6.72355">
        <ele>1968.44</ele>
        <time>2016-02-06T09:02:13Z</time>
      </trkpt>
      <trkpt lat="44.92005" lon="6.7236">
        <ele>1969.4</ele>
        <time>2016-02-06T09:02:27Z</time>
      </trkpt>
      <trkpt lat="44.91993" lon="6.72365">
        <ele>1970.36</ele>
        <time>2016-02-06T09:02:40Z</time>
      </trkpt>
      <trkpt lat="44.91983" lon="6.72371">
        <ele>1971.8</ele>
        <time>2016-02-06T09:02:52Z</time>
      </trkpt>
      <trkpt lat="44.91973" lon="6.72376">
        <ele>1972.76</ele>
        <time>2016-02-06T09:03:04Z</time>
      </trkpt>
      <trkpt lat="44.91965" lon="6.7238">
        <ele>1973.24</ele>
        <time>2016-02-06T09:03:13Z</time>
      </trkpt>
      <trkpt lat="44.91952" lon="6.72386">
        <ele>1975.17</ele>
        <time>2016-02-06T09:03:28Z</time>
      </trkpt>
      <trkpt lat="44.91941" lon="6.72389">
        <ele>1976.13</ele>
        <time>2016-02-06T09:03:40Z</time>
      </trkpt>
      <trkpt lat="44.9193" lon="6.72393">
        <ele>1977.57</ele>
        <time>2016-02-06T09:03:52Z</time>
      </trkpt>
      <trkpt lat="44.9192" lon="6.72396">
        <ele>1978.53</ele>
        <time>2016-02-06T09:04:04Z</time>
      </trkpt>
      <trkpt lat="44.91914" lon="6.72398">
        <ele>1979.49</ele>
        <time>2016-02-06T09:04:11Z</time>
      </trkpt>
      <trkpt lat="44.91899" lon="6.72402">
        <ele>1980.45</ele>
        <time>2016-02-06T09:04:26Z</time>
      </trkpt>
      <trkpt lat="44.91886" lon="6.72406">
        <ele>1981.41</ele>
        <time>2016-02-06T09:04:39Z</time>
      </trkpt>
      <trkpt lat="44.91873" lon="6.72409">
        <ele>1982.86</ele>
        <time>2016-02-06T09:04:53Z</time>
      </trkpt>
      <trkpt lat="44.91866" lon="6.72411">
        <ele>1983.34</ele>
        <time>2016-02-06T09:05:00Z</time>
      </trkpt>
      <trkpt lat="44.91864" lon="6.72412">
        <ele>1983.34</ele>
        <time>2016-02-06T09:05:02Z</time>
      </trkpt>
      <trkpt lat="44.91853" lon="6.72415">
        <ele>1984.78</ele>
        <time>2016-02-06T09:05:15Z</time>
      </trkpt>
      <trkpt lat="44.91841" lon="6.72419">
        <ele>1986.7</ele>
        <time>2016-02-06T09:05:29Z</time>
      </trkpt>
      <trkpt lat="44.91828" lon="6.72421">
        <ele>1988.14</ele>
        <time>2016-02-06T09:05:42Z</time>
      </trkpt>
      <trkpt lat="44.91817" lon="6.72425">
        <ele>1989.1</ele>
        <time>2016-02-06T09:05:55Z</time>
      </trkpt>
      <trkpt lat="44.91802" lon="6.72428">
        <ele>1990.55</ele>
        <time>2016-02-06T09:06:10Z</time>
      </trkpt>
      <trkpt lat="44.91788" lon="6.72429">
        <ele>1991.51</ele>
        <time>2016-02-06T09:06:24Z</time>
      </trkpt>
      <trkpt lat="44.91786" lon="6.72429">
        <ele>1991.99</ele>
        <time>2016-02-06T09:06:27Z</time>
      </trkpt>
      <trkpt lat="44.91784" lon="6.7243">
        <ele>1992.47</ele>
        <time>2016-02-06T09:06:29Z</time>
      </trkpt>
      <trkpt lat="44.91769" lon="6.7243">
        <ele>1993.43</ele>
        <time>2016-02-06T09:06:44Z</time>
      </trkpt>
      <trkpt lat="44.91757" lon="6.72432">
        <ele>1994.39</ele>
        <time>2016-02-06T09:06:57Z</time>
      </trkpt>
      <trkpt lat="44.91743" lon="6.72434">
        <ele>1995.35</ele>
        <time>2016-02-06T09:07:10Z</time>
      </trkpt>
      <trkpt lat="44.91729" lon="6.72434">
        <ele>1996.32</ele>
        <time>2016-02-06T09:07:25Z</time>
      </trkpt>
      <trkpt lat="44.91717" lon="6.72436">
        <ele>1997.28</ele>
        <time>2016-02-06T09:07:39Z</time>
      </trkpt>
      <trkpt lat="44.91707" lon="6.72437">
        <ele>1998.24</ele>
        <time>2016-02-06T09:07:52Z</time>
      </trkpt>
      <trkpt lat="44.91695" lon="6.72438">
        <ele>1999.2</ele>
        <time>2016-02-06T09:08:06Z</time>
      </trkpt>
      <trkpt lat="44.91695" lon="6.72437">
        <ele>1999.2</ele>
        <time>2016-02-06T09:08:07Z</time>
      </trkpt>
      <trkpt lat="44.9169" lon="6.72435">
        <ele>1999.2</ele>
        <time>2016-02-06T09:08:21Z</time>
      </trkpt>
      <trkpt lat="44.9169" lon="6.72438">
        <ele>1998.24</ele>
        <time>2016-02-06T09:08:41Z</time>
      </trkpt>
      <trkpt lat="44.91689" lon="6.72435">
        <ele>1998.72</ele>
        <time>2016-02-06T09:09:03Z</time>
      </trkpt>
      <trkpt lat="44.91692" lon="6.72436">
        <ele>2000.64</ele>
        <time>2016-02-06T09:09:28Z</time>
      </trkpt>
      <trkpt lat="44.91691" lon="6.72436">
        <ele>2000.64</ele>
        <time>2016-02-06T09:09:32Z</time>
      </trkpt>
      <trkpt lat="44.91683" lon="6.7244">
        <ele>2001.12</ele>
        <time>2016-02-06T09:09:41Z</time>
      </trkpt>
      <trkpt lat="44.91673" lon="6.72444">
        <ele>2002.56</ele>
        <time>2016-02-06T09:09:55Z</time>
      </trkpt>
      <trkpt lat="44.91669" lon="6.72446">
        <ele>2003.04</ele>
        <time>2016-02-06T09:10:08Z</time>
      </trkpt>
      <trkpt lat="44.91662" lon="6.72448">
        <ele>2004.01</ele>
        <time>2016-02-06T09:10:20Z</time>
      </trkpt>
      <trkpt lat="44.91653" lon="6.72452">
        <ele>2006.89</ele>
        <time>2016-02-06T09:10:35Z</time>
      </trkpt>
      <trkpt lat="44.91645" lon="6.72451">
        <ele>2009.77</ele>
        <time>2016-02-06T09:10:49Z</time>
      </trkpt>
      <trkpt lat="44.91639" lon="6.72447">
        <ele>2012.66</ele>
        <time>2016-02-06T09:11:03Z</time>
      </trkpt>
      <trkpt lat="44.91635" lon="6.72442">
        <ele>2015.06</ele>
        <time>2016-02-06T09:11:17Z</time>
      </trkpt>
      <trkpt lat="44.9163" lon="6.72437">
        <ele>2016.98</ele>
        <time>2016-02-06T09:11:31Z</time>
      </trkpt>
      <trkpt lat="44.91625" lon="6.72432">
        <ele>2018.91</ele>
        <time>2016-02-06T09:11:44Z</time>
      </trkpt>
      <trkpt lat="44.91619" lon="6.72427">
        <ele>2021.31</ele>
        <time>2016-02-06T09:11:59Z</time>
      </trkpt>
      <trkpt lat="44.91613" lon="6.72423">
        <ele>2023.23</ele>
        <time>2016-02-06T09:12:13Z</time>
      </trkpt>
      <trkpt lat="44.91608" lon="6.72419">
        <ele>2024.67</ele>
        <time>2016-02-06T09:12:25Z</time>
      </trkpt>
      <trkpt lat="44.91601" lon="6.72412">
        <ele>2026.12</ele>
        <time>2016-02-06T09:12:41Z</time>
      </trkpt>
      <trkpt lat="44.91592" lon="6.72405">
        <ele>2028.04</ele>
        <time>2016-02-06T09:12:57Z</time>
      </trkpt>
      <trkpt lat="44.91582" lon="6.72406">
        <ele>2030.44</ele>
        <time>2016-02-06T09:13:14Z</time>
      </trkpt>
      <trkpt lat="44.91583" lon="6.72399">
        <ele>2031.88</ele>
        <time>2016-02-06T09:13:31Z</time>
      </trkpt>
      <trkpt lat="44.91584" lon="6.72399">
        <ele>2031.88</ele>
        <time>2016-02-06T09:13:52Z</time>
      </trkpt>
      <trkpt lat="44.91583" lon="6.72396">
        <ele>2031.88</ele>
        <time>2016-02-06T09:14:13Z</time>
      </trkpt>
      <trkpt lat="44.91584" lon="6.72396">
        <ele>2032.36</ele>
        <time>2016-02-06T09:14:32Z</time>
      </trkpt>
      <trkpt lat="44.91583" lon="6.72393">
        <ele>2032.36</ele>
        <time>2016-02-06T09:14:57Z</time>
      </trkpt>
      <trkpt lat="44.91582" lon="6.72392">
        <ele>2032.84</ele>
        <time>2016-02-06T09:15:22Z</time>
      </trkpt>
      <trkpt lat="44.91581" lon="6.72392">
        <ele>2033.33</ele>
        <time>2016-02-06T09:15:36Z</time>
      </trkpt>
      <trkpt lat="44.91582" lon="6.72393">
        <ele>2033.33</ele>
        <time>2016-02-06T09:16:00Z</time>
      </trkpt>
      <trkpt lat="44.91573" lon="6.72395">
        <ele>2035.25</ele>
        <time>2016-02-06T09:16:13Z</time>
      </trkpt>
      <trkpt lat="44.91567" lon="6.72397">
        <ele>2037.65</ele>
        <time>2016-02-06T09:16:27Z</time>
      </trkpt>
      <trkpt lat="44.91562" lon="6.72397">
        <ele>2039.57</ele>
        <time>2016-02-06T09:16:40Z</time>
      </trkpt>
      <trkpt lat="44.91555" lon="6.72395">
        <ele>2041.98</ele>
        <time>2016-02-06T09:16:53Z</time>
      </trkpt>
      <trkpt lat="44.91551" lon="6.7239">
        <ele>2043.9</ele>
        <time>2016-02-06T09:17:06Z</time>
      </trkpt>
      <trkpt lat="44.91545" lon="6.72384">
        <ele>2046.3</ele>
        <time>2016-02-06T09:17:20Z</time>
      </trkpt>
      <trkpt lat="44.9154" lon="6.72381">
        <ele>2048.23</ele>
        <time>2016-02-06T09:17:33Z</time>
      </trkpt>
      <trkpt lat="44.91535" lon="6.72377">
        <ele>2050.15</ele>
        <time>2016-02-06T09:17:47Z</time>
      </trkpt>
      <trkpt lat="44.91529" lon="6.72368">
        <ele>2052.07</ele>
        <time>2016-02-06T09:18:02Z</time>
      </trkpt>
      <trkpt lat="44.91523" lon="6.72365">
        <ele>2053.51</ele>
        <time>2016-02-06T09:18:15Z</time>
      </trkpt>
      <trkpt lat="44.91516" lon="6.7236">
        <ele>2055.44</ele>
        <time>2016-02-06T09:18:27Z</time>
      </trkpt>
      <trkpt lat="44.91508" lon="6.72357">
        <ele>2057.36</ele>
        <time>2016-02-06T09:18:44Z</time>
      </trkpt>
      <trkpt lat="44.91502" lon="6.72357">
        <ele>2058.8</ele>
        <time>2016-02-06T09:18:57Z</time>
      </trkpt>
      <trkpt lat="44.91495" lon="6.72356">
        <ele>2060.72</ele>
        <time>2016-02-06T09:19:12Z</time>
      </trkpt>
      <trkpt lat="44.91491" lon="6.72354">
        <ele>2062.17</ele>
        <time>2016-02-06T09:19:25Z</time>
      </trkpt>
      <trkpt lat="44.91484" lon="6.72351">
        <ele>2065.05</ele>
        <time>2016-02-06T09:19:38Z</time>
      </trkpt>
      <trkpt lat="44.91478" lon="6.72348">
        <ele>2066.01</ele>
        <time>2016-02-06T09:19:51Z</time>
      </trkpt>
      <trkpt lat="44.91471" lon="6.72347">
        <ele>2066.97</ele>
        <time>2016-02-06T09:20:04Z</time>
      </trkpt>
      <trkpt lat="44.91461" lon="6.72343">
        <ele>2067.45</ele>
        <time>2016-02-06T09:20:19Z</time>
      </trkpt>
      <trkpt lat="44.91456" lon="6.72338">
        <ele>2067.93</ele>
        <time>2016-02-06T09:20:28Z</time>
      </trkpt>
      <trkpt lat="44.9145" lon="6.72329">
        <ele>2069.38</ele>
        <time>2016-02-06T09:20:44Z</time>
      </trkpt>
      <trkpt lat="44.91442" lon="6.72326">
        <ele>2070.34</ele>
        <time>2016-02-06T09:20:58Z</time>
      </trkpt>
      <trkpt lat="44.91437" lon="6.72323">
        <ele>2071.3</ele>
        <time>2016-02-06T09:21:07Z</time>
      </trkpt>
      <trkpt lat="44.91429" lon="6.72315">
        <ele>2072.26</ele>
        <time>2016-02-06T09:21:20Z</time>
      </trkpt>
      <trkpt lat="44.9142" lon="6.72305">
        <ele>2072.74</ele>
        <time>2016-02-06T09:21:36Z</time>
      </trkpt>
      <trkpt lat="44.91412" lon="6.72297">
        <ele>2074.18</ele>
        <time>2016-02-06T09:21:50Z</time>
      </trkpt>
      <trkpt lat="44.91404" lon="6.72289">
        <ele>2074.66</ele>
        <time>2016-02-06T09:22:05Z</time>
      </trkpt>
      <trkpt lat="44.91397" lon="6.72282">
        <ele>2075.14</ele>
        <time>2016-02-06T09:22:19Z</time>
      </trkpt>
      <trkpt lat="44.91389" lon="6.72276">
        <ele>2076.1</ele>
        <time>2016-02-06T09:22:34Z</time>
      </trkpt>
      <trkpt lat="44.91385" lon="6.72268">
        <ele>2077.55</ele>
        <time>2016-02-06T09:22:45Z</time>
      </trkpt>
      <trkpt lat="44.91379" lon="6.72258">
        <ele>2078.99</ele>
        <time>2016-02-06T09:22:58Z</time>
      </trkpt>
      <trkpt lat="44.9138" lon="6.72258">
        <ele>2077.55</ele>
        <time>2016-02-06T09:23:12Z</time>
      </trkpt>
      <trkpt lat="44.9138" lon="6.7226">
        <ele>2078.03</ele>
        <time>2016-02-06T09:23:42Z</time>
      </trkpt>
      <trkpt lat="44.91378" lon="6.7226">
        <ele>2078.51</ele>
        <time>2016-02-06T09:24:12Z</time>
      </trkpt>
      <trkpt lat="44.91378" lon="6.7226">
        <ele>2078.51</ele>
        <time>2016-02-06T09:24:46Z</time>
      </trkpt>
      <trkpt lat="44.91378" lon="6.72257">
        <ele>2079.47</ele>
        <time>2016-02-06T09:25:09Z</time>
      </trkpt>
      <trkpt lat="44.91375" lon="6.72252">
        <ele>2080.91</ele>
        <time>2016-02-06T09:25:27Z</time>
      </trkpt>
      <trkpt lat="44.91366" lon="6.72252">
        <ele>2083.31</ele>
        <time>2016-02-06T09:25:44Z</time>
      </trkpt>
      <trkpt lat="44.91359" lon="6.72244">
        <ele>2085.72</ele>
        <time>2016-02-06T09:26:02Z</time>
      </trkpt>
      <trkpt lat="44.91354" lon="6.72239">
        <ele>2088.12</ele>
        <time>2016-02-06T09:26:16Z</time>
      </trkpt>
      <trkpt lat="44.91349" lon="6.72234">
        <ele>2091</ele>
        <time>2016-02-06T09:26:31Z</time>
      </trkpt>
      <trkpt lat="44.91345" lon="6.72228">
        <ele>2093.41</ele>
        <time>2016-02-06T09:26:45Z</time>
      </trkpt>
      <trkpt lat="44.9134" lon="6.72221">
        <ele>2094.85</ele>
        <time>2016-02-06T09:26:59Z</time>
      </trkpt>
      <trkpt lat="44.91335" lon="6.72215">
        <ele>2095.81</ele>
        <time>2016-02-06T09:27:12Z</time>
      </trkpt>
      <trkpt lat="44.91327" lon="6.72206">
        <ele>2096.29</ele>
        <time>2016-02-06T09:27:25Z</time>
      </trkpt>
      <trkpt lat="44.91321" lon="6.722">
        <ele>2096.77</ele>
        <time>2016-02-06T09:27:37Z</time>
      </trkpt>
      <trkpt lat="44.91312" lon="6.7219">
        <ele>2098.21</ele>
        <time>2016-02-06T09:27:53Z</time>
      </trkpt>
      <trkpt lat="44.91304" lon="6.72183">
        <ele>2099.66</ele>
        <time>2016-02-06T09:28:09Z</time>
      </trkpt>
      <trkpt lat="44.91298" lon="6.72177">
        <ele>2100.62</ele>
        <time>2016-02-06T09:28:22Z</time>
      </trkpt>
      <trkpt lat="44.91291" lon="6.72168">
        <ele>2103.02</ele>
        <time>2016-02-06T09:28:39Z</time>
      </trkpt>
      <trkpt lat="44.91286" lon="6.72163">
        <ele>2104.94</ele>
        <time>2016-02-06T09:28:53Z</time>
      </trkpt>
      <trkpt lat="44.91281" lon="6.72158">
        <ele>2107.35</ele>
        <time>2016-02-06T09:29:08Z</time>
      </trkpt>
      <trkpt lat="44.91276" lon="6.72155">
        <ele>2109.27</ele>
        <time>2016-02-06T09:29:21Z</time>
      </trkpt>
      <trkpt lat="44.91274" lon="6.72152">
        <ele>2111.19</ele>
        <time>2016-02-06T09:29:34Z</time>
      </trkpt>
      <trkpt lat="44.9127" lon="6.72146">
        <ele>2112.63</ele>
        <time>2016-02-06T09:29:49Z</time>
      </trkpt>
      <trkpt lat="44.91267" lon="6.72139">
        <ele>2114.56</ele>
        <time>2016-02-06T09:30:04Z</time>
      </trkpt>
      <trkpt lat="44.91264" lon="6.72138">
        <ele>2116.48</ele>
        <time>2016-02-06T09:30:17Z</time>
      </trkpt>
      <trkpt lat="44.91261" lon="6.72134">
        <ele>2118.4</ele>
        <time>2016-02-06T09:30:31Z</time>
      </trkpt>
      <trkpt lat="44.91256" lon="6.72131">
        <ele>2120.32</ele>
        <time>2016-02-06T09:30:44Z</time>
      </trkpt>
      <trkpt lat="44.91251" lon="6.72129">
        <ele>2122.25</ele>
        <time>2016-02-06T09:30:59Z</time>
      </trkpt>
      <trkpt lat="44.91247" lon="6.72124">
        <ele>2124.17</ele>
        <time>2016-02-06T09:31:13Z</time>
      </trkpt>
      <trkpt lat="44.91243" lon="6.72119">
        <ele>2125.61</ele>
        <time>2016-02-06T09:31:25Z</time>
      </trkpt>
      <trkpt lat="44.91239" lon="6.72114">
        <ele>2127.05</ele>
        <time>2016-02-06T09:31:38Z</time>
      </trkpt>
      <trkpt lat="44.91234" lon="6.7211">
        <ele>2128.98</ele>
        <time>2016-02-06T09:31:51Z</time>
      </trkpt>
      <trkpt lat="44.9123" lon="6.72105">
        <ele>2129.94</ele>
        <time>2016-02-06T09:32:04Z</time>
      </trkpt>
      <trkpt lat="44.91225" lon="6.721">
        <ele>2131.86</ele>
        <time>2016-02-06T09:32:18Z</time>
      </trkpt>
      <trkpt lat="44.91219" lon="6.72093">
        <ele>2133.3</ele>
        <time>2016-02-06T09:32:32Z</time>
      </trkpt>
      <trkpt lat="44.91213" lon="6.72087">
        <ele>2134.74</ele>
        <time>2016-02-06T09:32:46Z</time>
      </trkpt>
      <trkpt lat="44.91208" lon="6.72082">
        <ele>2136.67</ele>
        <time>2016-02-06T09:33:00Z</time>
      </trkpt>
      <trkpt lat="44.91201" lon="6.72076">
        <ele>2138.11</ele>
        <time>2016-02-06T09:33:16Z</time>
      </trkpt>
      <trkpt lat="44.91196" lon="6.72069">
        <ele>2140.03</ele>
        <time>2016-02-06T09:33:30Z</time>
      </trkpt>
      <trkpt lat="44.91192" lon="6.72063">
        <ele>2141.95</ele>
        <time>2016-02-06T09:33:44Z</time>
      </trkpt>
      <trkpt lat="44.91185" lon="6.72055">
        <ele>2143.4</ele>
        <time>2016-02-06T09:33:59Z</time>
      </trkpt>
      <trkpt lat="44.91176" lon="6.72043">
        <ele>2144.84</ele>
        <time>2016-02-06T09:34:16Z</time>
      </trkpt>
      <trkpt lat="44.9117" lon="6.72036">
        <ele>2146.28</ele>
        <time>2016-02-06T09:34:31Z</time>
      </trkpt>
      <trkpt lat="44.91161" lon="6.72029">
        <ele>2147.72</ele>
        <time>2016-02-06T09:34:45Z</time>
      </trkpt>
      <trkpt lat="44.91154" lon="6.72023">
        <ele>2148.2</ele>
        <time>2016-02-06T09:34:59Z</time>
      </trkpt>
      <trkpt lat="44.91146" lon="6.72016">
        <ele>2149.65</ele>
        <time>2016-02-06T09:35:13Z</time>
      </trkpt>
      <trkpt lat="44.91136" lon="6.72008">
        <ele>2151.09</ele>
        <time>2016-02-06T09:35:31Z</time>
      </trkpt>
      <trkpt lat="44.91131" lon="6.72002">
        <ele>2152.53</ele>
        <time>2016-02-06T09:35:42Z</time>
      </trkpt>
      <trkpt lat="44.91125" lon="6.71996">
        <ele>2154.45</ele>
        <time>2016-02-06T09:36:00Z</time>
      </trkpt>
      <trkpt lat="44.91118" lon="6.71993">
        <ele>2154.93</ele>
        <time>2016-02-06T09:36:14Z</time>
      </trkpt>
      <trkpt lat="44.91109" lon="6.71989">
        <ele>2155.89</ele>
        <time>2016-02-06T09:36:31Z</time>
      </trkpt>
      <trkpt lat="44.91099" lon="6.71981">
        <ele>2156.86</ele>
        <time>2016-02-06T09:36:47Z</time>
      </trkpt>
      <trkpt lat="44.91089" lon="6.71973">
        <ele>2158.78</ele>
        <time>2016-02-06T09:37:05Z</time>
      </trkpt>
      <trkpt lat="44.91083" lon="6.71969">
        <ele>2159.74</ele>
        <time>2016-02-06T09:37:18Z</time>
      </trkpt>
      <trkpt lat="44.91077" lon="6.71965">
        <ele>2161.66</ele>
        <time>2016-02-06T09:37:32Z</time>
      </trkpt>
      <trkpt lat="44.91068" lon="6.71961">
        <ele>2162.62</ele>
        <time>2016-02-06T09:37:45Z</time>
      </trkpt>
      <trkpt lat="44.9106" lon="6.71958">
        <ele>2163.58</ele>
        <time>2016-02-06T09:37:57Z</time>
      </trkpt>
      <trkpt lat="44.91054" lon="6.71951">
        <ele>2164.55</ele>
        <time>2016-02-06T09:38:12Z</time>
      </trkpt>
      <trkpt lat="44.91049" lon="6.71947">
        <ele>2166.47</ele>
        <time>2016-02-06T09:38:28Z</time>
      </trkpt>
      <trkpt lat="44.91044" lon="6.71945">
        <ele>2168.39</ele>
        <time>2016-02-06T09:38:41Z</time>
      </trkpt>
      <trkpt lat="44.91036" lon="6.71944">
        <ele>2168.87</ele>
        <time>2016-02-06T09:38:53Z</time>
      </trkpt>
      <trkpt lat="44.91032" lon="6.71938">
        <ele>2171.27</ele>
        <time>2016-02-06T09:39:08Z</time>
      </trkpt>
      <trkpt lat="44.91029" lon="6.71934">
        <ele>2173.2</ele>
        <time>2016-02-06T09:39:22Z</time>
      </trkpt>
      <trkpt lat="44.91025" lon="6.7193">
        <ele>2174.16</ele>
        <time>2016-02-06T09:39:36Z</time>
      </trkpt>
      <trkpt lat="44.91021" lon="6.71926">
        <ele>2175.12</ele>
        <time>2016-02-06T09:39:52Z</time>
      </trkpt>
      <trkpt lat="44.91021" lon="6.71928">
        <ele>2175.12</ele>
        <time>2016-02-06T09:40:17Z</time>
      </trkpt>
      <trkpt lat="44.91021" lon="6.71925">
        <ele>2176.08</ele>
        <time>2016-02-06T09:40:39Z</time>
      </trkpt>
      <trkpt lat="44.91019" lon="6.71925">
        <ele>2175.12</ele>
        <time>2016-02-06T09:40:54Z</time>
      </trkpt>
      <trkpt lat="44.91019" lon="6.71926">
        <ele>2175.6</ele>
        <time>2016-02-06T09:41:19Z</time>
      </trkpt>
      <trkpt lat="44.91018" lon="6.71924">
        <ele>2175.6</ele>
        <time>2016-02-06T09:41:42Z</time>
      </trkpt>
      <trkpt lat="44.91019" lon="6.71923">
        <ele>2176.08</ele>
        <time>2016-02-06T09:42:05Z</time>
      </trkpt>
      <trkpt lat="44.91019" lon="6.71924">
        <ele>2175.6</ele>
        <time>2016-02-06T09:42:28Z</time>
      </trkpt>
      <trkpt lat="44.91017" lon="6.71923">
        <ele>2175.6</ele>
        <time>2016-02-06T09:42:55Z</time>
      </trkpt>
      <trkpt lat="44.91019" lon="6.71925">
        <ele>2176.08</ele>
        <time>2016-02-06T09:43:18Z</time>
      </trkpt>
      <trkpt lat="44.91019" lon="6.71924">
        <ele>2177.04</ele>
        <time>2016-02-06T09:43:38Z</time>
      </trkpt>
      <trkpt lat="44.91022" lon="6.71927">
        <ele>2176.56</ele>
        <time>2016-02-06T09:43:57Z</time>
      </trkpt>
      <trkpt lat="44.9102" lon="6.71925">
        <ele>2176.56</ele>
        <time>2016-02-06T09:44:21Z</time>
      </trkpt>
      <trkpt lat="44.91017" lon="6.71921">
        <ele>2177.52</ele>
        <time>2016-02-06T09:44:34Z</time>
      </trkpt>
      <trkpt lat="44.91016" lon="6.71918">
        <ele>2178.48</ele>
        <time>2016-02-06T09:44:47Z</time>
      </trkpt>
      <trkpt lat="44.91008" lon="6.71912">
        <ele>2179.45</ele>
        <time>2016-02-06T09:45:01Z</time>
      </trkpt>
      <trkpt lat="44.91005" lon="6.71904">
        <ele>2181.85</ele>
        <time>2016-02-06T09:45:17Z</time>
      </trkpt>
      <trkpt lat="44.91001" lon="6.71896">
        <ele>2183.29</ele>
        <time>2016-02-06T09:45:32Z</time>
      </trkpt>
      <trkpt lat="44.90995" lon="6.71892">
        <ele>2185.21</ele>
        <time>2016-02-06T09:45:48Z</time>
      </trkpt>
      <trkpt lat="44.9099" lon="6.71887">
        <ele>2186.66</ele>
        <time>2016-02-06T09:46:02Z</time>
      </trkpt>
      <trkpt lat="44.90989" lon="6.71882">
        <ele>2188.1</ele>
        <time>2016-02-06T09:46:15Z</time>
      </trkpt>
      <trkpt lat="44.90987" lon="6.71876">
        <ele>2190.5</ele>
        <time>2016-02-06T09:46:29Z</time>
      </trkpt>
      <trkpt lat="44.90985" lon="6.71871">
        <ele>2191.94</ele>
        <time>2016-02-06T09:46:41Z</time>
      </trkpt>
      <trkpt lat="44.90983" lon="6.71866">
        <ele>2193.39</ele>
        <time>2016-02-06T09:46:54Z</time>
      </trkpt>
      <trkpt lat="44.9098" lon="6.71861">
        <ele>2195.31</ele>
        <time>2016-02-06T09:47:07Z</time>
      </trkpt>
      <trkpt lat="44.90977" lon="6.71855">
        <ele>2196.75</ele>
        <time>2016-02-06T09:47:22Z</time>
      </trkpt>
      <trkpt lat="44.90972" lon="6.71851">
        <ele>2197.23</ele>
        <time>2016-02-06T09:47:34Z</time>
      </trkpt>
      <trkpt lat="44.90969" lon="6.71846">
        <ele>2199.15</ele>
        <time>2016-02-06T09:47:48Z</time>
      </trkpt>
      <trkpt lat="44.90965" lon="6.7184">
        <ele>2200.11</ele>
        <time>2016-02-06T09:48:02Z</time>
      </trkpt>
      <trkpt lat="44.9097" lon="6.71842">
        <ele>2202.04</ele>
        <time>2016-02-06T09:48:16Z</time>
      </trkpt>
      <trkpt lat="44.90973" lon="6.7184">
        <ele>2203</ele>
        <time>2016-02-06T09:48:22Z</time>
      </trkpt>
      <trkpt lat="44.9097" lon="6.71833">
        <ele>2202.52</ele>
        <time>2016-02-06T09:48:32Z</time>
      </trkpt>
      <trkpt lat="44.9097" lon="6.71832">
        <ele>2203.48</ele>
        <time>2016-02-06T09:48:34Z</time>
      </trkpt>
      <trkpt lat="44.90965" lon="6.71826">
        <ele>2204.44</ele>
        <time>2016-02-06T09:48:48Z</time>
      </trkpt>
      <trkpt lat="44.90959" lon="6.71819">
        <ele>2205.4</ele>
        <time>2016-02-06T09:49:04Z</time>
      </trkpt>
      <trkpt lat="44.90954" lon="6.71812">
        <ele>2206.36</ele>
        <time>2016-02-06T09:49:19Z</time>
      </trkpt>
      <trkpt lat="44.90947" lon="6.71808">
        <ele>2206.84</ele>
        <time>2016-02-06T09:49:33Z</time>
      </trkpt>
      <trkpt lat="44.90943" lon="6.71806">
        <ele>2210.21</ele>
        <time>2016-02-06T09:49:44Z</time>
      </trkpt>
      <trkpt lat="44.9094" lon="6.71802">
        <ele>2210.69</ele>
        <time>2016-02-06T09:49:58Z</time>
      </trkpt>
      <trkpt lat="44.90936" lon="6.71795">
        <ele>2213.09</ele>
        <time>2016-02-06T09:50:12Z</time>
      </trkpt>
      <trkpt lat="44.90932" lon="6.7179">
        <ele>2215.01</ele>
        <time>2016-02-06T09:50:26Z</time>
      </trkpt>
      <trkpt lat="44.90928" lon="6.71782">
        <ele>2216.94</ele>
        <time>2016-02-06T09:50:40Z</time>
      </trkpt>
      <trkpt lat="44.90925" lon="6.71772">
        <ele>2217.42</ele>
        <time>2016-02-06T09:50:56Z</time>
      </trkpt>
      <trkpt lat="44.90921" lon="6.71763">
        <ele>2218.38</ele>
        <time>2016-02-06T09:51:11Z</time>
      </trkpt>
      <trkpt lat="44.90919" lon="6.71754">
        <ele>2219.82</ele>
        <time>2016-02-06T09:51:26Z</time>
      </trkpt>
      <trkpt lat="44.90916" lon="6.71745">
        <ele>2221.74</ele>
        <time>2016-02-06T09:51:40Z</time>
      </trkpt>
      <trkpt lat="44.90914" lon="6.71736">
        <ele>2223.19</ele>
        <time>2016-02-06T09:51:54Z</time>
      </trkpt>
      <trkpt lat="44.90913" lon="6.71728">
        <ele>2225.11</ele>
        <time>2016-02-06T09:52:08Z</time>
      </trkpt>
      <trkpt lat="44.9091" lon="6.7172">
        <ele>2227.03</ele>
        <time>2016-02-06T09:52:21Z</time>
      </trkpt>
      <trkpt lat="44.90907" lon="6.71714">
        <ele>2228.47</ele>
        <time>2016-02-06T09:52:31Z</time>
      </trkpt>
      <trkpt lat="44.90905" lon="6.71704">
        <ele>2229.43</ele>
        <time>2016-02-06T09:52:46Z</time>
      </trkpt>
      <trkpt lat="44.90902" lon="6.71695">
        <ele>2231.36</ele>
        <time>2016-02-06T09:53:02Z</time>
      </trkpt>
      <trkpt lat="44.909" lon="6.71687">
        <ele>2232.8</ele>
        <time>2016-02-06T09:53:15Z</time>
      </trkpt>
      <trkpt lat="44.90899" lon="6.71678">
        <ele>2234.72</ele>
        <time>2016-02-06T09:53:27Z</time>
      </trkpt>
      <trkpt lat="44.90896" lon="6.71666">
        <ele>2236.64</ele>
        <time>2016-02-06T09:53:43Z</time>
      </trkpt>
      <trkpt lat="44.90896" lon="6.71659">
        <ele>2238.09</ele>
        <time>2016-02-06T09:53:59Z</time>
      </trkpt>
      <trkpt lat="44.90893" lon="6.71657">
        <ele>2238.57</ele>
        <time>2016-02-06T09:54:16Z</time>
      </trkpt>
      <trkpt lat="44.90891" lon="6.71652">
        <ele>2239.05</ele>
        <time>2016-02-06T09:54:30Z</time>
      </trkpt>
      <trkpt lat="44.90889" lon="6.7165">
        <ele>2240.01</ele>
        <time>2016-02-06T09:54:42Z</time>
      </trkpt>
      <trkpt lat="44.90888" lon="6.71645">
        <ele>2239.05</ele>
        <time>2016-02-06T09:54:58Z</time>
      </trkpt>
      <trkpt lat="44.90886" lon="6.71638">
        <ele>2240.97</ele>
        <time>2016-02-06T09:55:10Z</time>
      </trkpt>
      <trkpt lat="44.90879" lon="6.7163">
        <ele>2239.53</ele>
        <time>2016-02-06T09:55:22Z</time>
      </trkpt>
      <trkpt lat="44.90873" lon="6.71619">
        <ele>2241.45</ele>
        <time>2016-02-06T09:55:38Z</time>
      </trkpt>
      <trkpt lat="44.90869" lon="6.71611">
        <ele>2243.85</ele>
        <time>2016-02-06T09:55:52Z</time>
      </trkpt>
      <trkpt lat="44.9086" lon="6.71599">
        <ele>2243.37</ele>
        <time>2016-02-06T09:56:08Z</time>
      </trkpt>
      <trkpt lat="44.90854" lon="6.71588">
        <ele>2243.85</ele>
        <time>2016-02-06T09:56:22Z</time>
      </trkpt>
      <trkpt lat="44.90849" lon="6.71579">
        <ele>2243.85</ele>
        <time>2016-02-06T09:56:32Z</time>
      </trkpt>
      <trkpt lat="44.90843" lon="6.71567">
        <ele>2243.85</ele>
        <time>2016-02-06T09:56:47Z</time>
      </trkpt>
      <trkpt lat="44.90837" lon="6.71557">
        <ele>2243.85</ele>
        <time>2016-02-06T09:56:59Z</time>
      </trkpt>
      <trkpt lat="44.9083" lon="6.71547">
        <ele>2244.82</ele>
        <time>2016-02-06T09:57:12Z</time>
      </trkpt>
      <trkpt lat="44.90821" lon="6.71532">
        <ele>2244.82</ele>
        <time>2016-02-06T09:57:28Z</time>
      </trkpt>
      <trkpt lat="44.90818" lon="6.71527">
        <ele>2245.3</ele>
        <time>2016-02-06T09:57:35Z</time>
      </trkpt>
      <trkpt lat="44.90811" lon="6.71514">
        <ele>2246.26</ele>
        <time>2016-02-06T09:57:50Z</time>
      </trkpt>
      <trkpt lat="44.90807" lon="6.71503">
        <ele>2248.66</ele>
        <time>2016-02-06T09:58:05Z</time>
      </trkpt>
      <trkpt lat="44.90802" lon="6.71492">
        <ele>2250.1</ele>
        <time>2016-02-06T09:58:21Z</time>
      </trkpt>
      <trkpt lat="44.90798" lon="6.71483">
        <ele>2251.06</ele>
        <time>2016-02-06T09:58:35Z</time>
      </trkpt>
      <trkpt lat="44.90795" lon="6.71474">
        <ele>2252.99</ele>
        <time>2016-02-06T09:58:49Z</time>
      </trkpt>
      <trkpt lat="44.90789" lon="6.7146">
        <ele>2253.47</ele>
        <time>2016-02-06T09:59:06Z</time>
      </trkpt>
      <trkpt lat="44.90785" lon="6.71451">
        <ele>2255.39</ele>
        <time>2016-02-06T09:59:20Z</time>
      </trkpt>
      <trkpt lat="44.90778" lon="6.71441">
        <ele>2254.91</ele>
        <time>2016-02-06T09:59:35Z</time>
      </trkpt>
      <trkpt lat="44.90768" lon="6.71434">
        <ele>2255.39</ele>
        <time>2016-02-06T09:59:49Z</time>
      </trkpt>
      <trkpt lat="44.90761" lon="6.71427">
        <ele>2257.31</ele>
        <time>2016-02-06T10:00:01Z</time>
      </trkpt>
      <trkpt lat="44.90761" lon="6.71427">
        <ele>2257.31</ele>
        <time>2016-02-06T10:00:02Z</time>
      </trkpt>
      <trkpt lat="44.90752" lon="6.71416">
        <ele>2256.83</ele>
        <time>2016-02-06T10:00:17Z</time>
      </trkpt>
      <trkpt lat="44.90747" lon="6.71406">
        <ele>2256.83</ele>
        <time>2016-02-06T10:00:29Z</time>
      </trkpt>
      <trkpt lat="44.90743" lon="6.71394">
        <ele>2258.27</ele>
        <time>2016-02-06T10:00:45Z</time>
      </trkpt>
      <trkpt lat="44.90738" lon="6.71382">
        <ele>2260.2</ele>
        <time>2016-02-06T10:01:01Z</time>
      </trkpt>
      <trkpt lat="44.90735" lon="6.71372">
        <ele>2261.16</ele>
        <time>2016-02-06T10:01:16Z</time>
      </trkpt>
      <trkpt lat="44.90731" lon="6.71361">
        <ele>2263.08</ele>
        <time>2016-02-06T10:01:33Z</time>
      </trkpt>
      <trkpt lat="44.90728" lon="6.71347">
        <ele>2264.04</ele>
        <time>2016-02-06T10:01:50Z</time>
      </trkpt>
      <trkpt lat="44.90726" lon="6.71337">
        <ele>2266.93</ele>
        <time>2016-02-06T10:02:07Z</time>
      </trkpt>
      <trkpt lat="44.90724" lon="6.71328">
        <ele>2268.37</ele>
        <time>2016-02-06T10:02:23Z</time>
      </trkpt>
      <trkpt lat="44.90719" lon="6.71316">
        <ele>2270.29</ele>
        <time>2016-02-06T10:02:39Z</time>
      </trkpt>
      <trkpt lat="44.90717" lon="6.71307">
        <ele>2270.77</ele>
        <time>2016-02-06T10:02:56Z</time>
      </trkpt>
      <trkpt lat="44.90713" lon="6.71294">
        <ele>2271.73</ele>
        <time>2016-02-06T10:03:12Z</time>
      </trkpt>
      <trkpt lat="44.90708" lon="6.71282">
        <ele>2273.66</ele>
        <time>2016-02-06T10:03:28Z</time>
      </trkpt>
      <trkpt lat="44.90708" lon="6.71274">
        <ele>2275.58</ele>
        <time>2016-02-06T10:03:42Z</time>
      </trkpt>
      <trkpt lat="44.90704" lon="6.71264">
        <ele>2277.02</ele>
        <time>2016-02-06T10:03:58Z</time>
      </trkpt>
      <trkpt lat="44.90705" lon="6.71252">
        <ele>2278.94</ele>
        <time>2016-02-06T10:04:16Z</time>
      </trkpt>
      <trkpt lat="44.90697" lon="6.71244">
        <ele>2280.38</ele>
        <time>2016-02-06T10:04:30Z</time>
      </trkpt>
      <trkpt lat="44.90692" lon="6.71237">
        <ele>2281.35</ele>
        <time>2016-02-06T10:04:43Z</time>
      </trkpt>
      <trkpt lat="44.90686" lon="6.71227">
        <ele>2282.31</ele>
        <time>2016-02-06T10:04:57Z</time>
      </trkpt>
      <trkpt lat="44.90683" lon="6.7122">
        <ele>2283.75</ele>
        <time>2016-02-06T10:05:14Z</time>
      </trkpt>
      <trkpt lat="44.90679" lon="6.71212">
        <ele>2285.67</ele>
        <time>2016-02-06T10:05:31Z</time>
      </trkpt>
      <trkpt lat="44.90675" lon="6.71201">
        <ele>2287.11</ele>
        <time>2016-02-06T10:05:47Z</time>
      </trkpt>
      <trkpt lat="44.90671" lon="6.71194">
        <ele>2288.08</ele>
        <time>2016-02-06T10:05:59Z</time>
      </trkpt>
      <trkpt lat="44.90667" lon="6.71186">
        <ele>2289.04</ele>
        <time>2016-02-06T10:06:12Z</time>
      </trkpt>
      <trkpt lat="44.90665" lon="6.71179">
        <ele>2290.48</ele>
        <time>2016-02-06T10:06:26Z</time>
      </trkpt>
      <trkpt lat="44.90658" lon="6.71166">
        <ele>2291.92</ele>
        <time>2016-02-06T10:06:42Z</time>
      </trkpt>
      <trkpt lat="44.90652" lon="6.71157">
        <ele>2293.84</ele>
        <time>2016-02-06T10:07:00Z</time>
      </trkpt>
      <trkpt lat="44.90651" lon="6.71148">
        <ele>2295.28</ele>
        <time>2016-02-06T10:07:16Z</time>
      </trkpt>
      <trkpt lat="44.90648" lon="6.71139">
        <ele>2296.73</ele>
        <time>2016-02-06T10:07:32Z</time>
      </trkpt>
      <trkpt lat="44.90646" lon="6.7113">
        <ele>2298.65</ele>
        <time>2016-02-06T10:07:47Z</time>
      </trkpt>
      <trkpt lat="44.90647" lon="6.7112">
        <ele>2300.57</ele>
        <time>2016-02-06T10:08:01Z</time>
      </trkpt>
      <trkpt lat="44.90642" lon="6.71111">
        <ele>2302.98</ele>
        <time>2016-02-06T10:08:18Z</time>
      </trkpt>
      <trkpt lat="44.90638" lon="6.71104">
        <ele>2304.42</ele>
        <time>2016-02-06T10:08:33Z</time>
      </trkpt>
      <trkpt lat="44.90636" lon="6.71098">
        <ele>2306.34</ele>
        <time>2016-02-06T10:08:47Z</time>
      </trkpt>
      <trkpt lat="44.90631" lon="6.71093">
        <ele>2307.78</ele>
        <time>2016-02-06T10:09:01Z</time>
      </trkpt>
      <trkpt lat="44.90626" lon="6.71088">
        <ele>2309.7</ele>
        <time>2016-02-06T10:09:18Z</time>
      </trkpt>
      <trkpt lat="44.90623" lon="6.71082">
        <ele>2312.11</ele>
        <time>2016-02-06T10:09:32Z</time>
      </trkpt>
      <trkpt lat="44.9062" lon="6.71075">
        <ele>2312.59</ele>
        <time>2016-02-06T10:09:47Z</time>
      </trkpt>
      <trkpt lat="44.90617" lon="6.71066">
        <ele>2314.99</ele>
        <time>2016-02-06T10:10:03Z</time>
      </trkpt>
      <trkpt lat="44.90616" lon="6.71061">
        <ele>2316.43</ele>
        <time>2016-02-06T10:10:17Z</time>
      </trkpt>
      <trkpt lat="44.90611" lon="6.71055">
        <ele>2318.84</ele>
        <time>2016-02-06T10:10:33Z</time>
      </trkpt>
      <trkpt lat="44.90608" lon="6.71049">
        <ele>2320.76</ele>
        <time>2016-02-06T10:10:46Z</time>
      </trkpt>
      <trkpt lat="44.90608" lon="6.71042">
        <ele>2322.68</ele>
        <time>2016-02-06T10:11:01Z</time>
      </trkpt>
      <trkpt lat="44.90604" lon="6.71035">
        <ele>2324.61</ele>
        <time>2016-02-06T10:11:14Z</time>
      </trkpt>
      <trkpt lat="44.90604" lon="6.71028">
        <ele>2326.05</ele>
        <time>2016-02-06T10:11:29Z</time>
      </trkpt>
      <trkpt lat="44.90603" lon="6.71027">
        <ele>2326.05</ele>
        <time>2016-02-06T10:11:41Z</time>
      </trkpt>
      <trkpt lat="44.90597" lon="6.71023">
        <ele>2326.53</ele>
        <time>2016-02-06T10:11:56Z</time>
      </trkpt>
      <trkpt lat="44.90596" lon="6.71016">
        <ele>2327.97</ele>
        <time>2016-02-06T10:12:11Z</time>
      </trkpt>
      <trkpt lat="44.90594" lon="6.71011">
        <ele>2329.89</ele>
        <time>2016-02-06T10:12:23Z</time>
      </trkpt>
      <trkpt lat="44.90593" lon="6.71">
        <ele>2330.85</ele>
        <time>2016-02-06T10:12:39Z</time>
      </trkpt>
      <trkpt lat="44.90592" lon="6.70989">
        <ele>2332.3</ele>
        <time>2016-02-06T10:12:57Z</time>
      </trkpt>
      <trkpt lat="44.9059" lon="6.70979">
        <ele>2333.26</ele>
        <time>2016-02-06T10:13:12Z</time>
      </trkpt>
      <trkpt lat="44.90589" lon="6.7097">
        <ele>2335.18</ele>
        <time>2016-02-06T10:13:27Z</time>
      </trkpt>
      <trkpt lat="44.90586" lon="6.70964">
        <ele>2337.1</ele>
        <time>2016-02-06T10:13:40Z</time>
      </trkpt>
      <trkpt lat="44.90583" lon="6.70955">
        <ele>2339.02</ele>
        <time>2016-02-06T10:13:57Z</time>
      </trkpt>
      <trkpt lat="44.90582" lon="6.70947">
        <ele>2339.99</ele>
        <time>2016-02-06T10:14:12Z</time>
      </trkpt>
      <trkpt lat="44.9058" lon="6.70941">
        <ele>2343.35</ele>
        <time>2016-02-06T10:14:23Z</time>
      </trkpt>
      <trkpt lat="44.90577" lon="6.70936">
        <ele>2341.91</ele>
        <time>2016-02-06T10:14:37Z</time>
      </trkpt>
      <trkpt lat="44.90571" lon="6.70934">
        <ele>2344.31</ele>
        <time>2016-02-06T10:14:52Z</time>
      </trkpt>
      <trkpt lat="44.90568" lon="6.70929">
        <ele>2345.27</ele>
        <time>2016-02-06T10:15:07Z</time>
      </trkpt>
      <trkpt lat="44.90563" lon="6.70923">
        <ele>2346.72</ele>
        <time>2016-02-06T10:15:22Z</time>
      </trkpt>
      <trkpt lat="44.90558" lon="6.70916">
        <ele>2348.64</ele>
        <time>2016-02-06T10:15:36Z</time>
      </trkpt>
      <trkpt lat="44.90555" lon="6.70912">
        <ele>2350.08</ele>
        <time>2016-02-06T10:15:49Z</time>
      </trkpt>
      <trkpt lat="44.90552" lon="6.70907">
        <ele>2352</ele>
        <time>2016-02-06T10:16:02Z</time>
      </trkpt>
      <trkpt lat="44.90548" lon="6.70903">
        <ele>2354.89</ele>
        <time>2016-02-06T10:16:15Z</time>
      </trkpt>
      <trkpt lat="44.90544" lon="6.70899">
        <ele>2354.41</ele>
        <time>2016-02-06T10:16:27Z</time>
      </trkpt>
      <trkpt lat="44.90538" lon="6.70895">
        <ele>2354.89</ele>
        <time>2016-02-06T10:16:41Z</time>
      </trkpt>
      <trkpt lat="44.90531" lon="6.70888">
        <ele>2356.33</ele>
        <time>2016-02-06T10:16:57Z</time>
      </trkpt>
      <trkpt lat="44.90524" lon="6.70882">
        <ele>2358.25</ele>
        <time>2016-02-06T10:17:13Z</time>
      </trkpt>
      <trkpt lat="44.90517" lon="6.70876">
        <ele>2359.69</ele>
        <time>2016-02-06T10:17:29Z</time>
      </trkpt>
      <trkpt lat="44.90513" lon="6.7087">
        <ele>2361.62</ele>
        <time>2016-02-06T10:17:44Z</time>
      </trkpt>
      <trkpt lat="44.9051" lon="6.70864">
        <ele>2362.1</ele>
        <time>2016-02-06T10:17:58Z</time>
      </trkpt>
      <trkpt lat="44.90509" lon="6.70862">
        <ele>2364.02</ele>
        <time>2016-02-06T10:18:11Z</time>
      </trkpt>
      <trkpt lat="44.90507" lon="6.70856">
        <ele>2365.94</ele>
        <time>2016-02-06T10:18:26Z</time>
      </trkpt>
      <trkpt lat="44.90504" lon="6.7085">
        <ele>2366.9</ele>
        <time>2016-02-06T10:18:40Z</time>
      </trkpt>
      <trkpt lat="44.90502" lon="6.70846">
        <ele>2368.35</ele>
        <time>2016-02-06T10:18:54Z</time>
      </trkpt>
      <trkpt lat="44.905" lon="6.7084">
        <ele>2371.23</ele>
        <time>2016-02-06T10:19:09Z</time>
      </trkpt>
      <trkpt lat="44.90497" lon="6.70835">
        <ele>2372.67</ele>
        <time>2016-02-06T10:19:22Z</time>
      </trkpt>
      <trkpt lat="44.90495" lon="6.70831">
        <ele>2373.15</ele>
        <time>2016-02-06T10:19:40Z</time>
      </trkpt>
      <trkpt lat="44.9049" lon="6.70826">
        <ele>2374.59</ele>
        <time>2016-02-06T10:19:54Z</time>
      </trkpt>
      <trkpt lat="44.90484" lon="6.70821">
        <ele>2375.55</ele>
        <time>2016-02-06T10:20:10Z</time>
      </trkpt>
      <trkpt lat="44.90478" lon="6.70809">
        <ele>2378.44</ele>
        <time>2016-02-06T10:20:26Z</time>
      </trkpt>
      <trkpt lat="44.90474" lon="6.70804">
        <ele>2377.96</ele>
        <time>2016-02-06T10:20:41Z</time>
      </trkpt>
      <trkpt lat="44.90473" lon="6.70803">
        <ele>2376.52</ele>
        <time>2016-02-06T10:20:57Z</time>
      </trkpt>
      <trkpt lat="44.90469" lon="6.70797">
        <ele>2377.48</ele>
        <time>2016-02-06T10:21:09Z</time>
      </trkpt>
      <trkpt lat="44.90469" lon="6.70797">
        <ele>2378.44</ele>
        <time>2016-02-06T10:21:26Z</time>
      </trkpt>
      <trkpt lat="44.90469" lon="6.70797">
        <ele>2378.92</ele>
        <time>2016-02-06T10:21:41Z</time>
      </trkpt>
      <trkpt lat="44.90466" lon="6.70786">
        <ele>2379.88</ele>
        <time>2016-02-06T10:21:53Z</time>
      </trkpt>
      <trkpt lat="44.90465" lon="6.70778">
        <ele>2378.92</ele>
        <time>2016-02-06T10:22:07Z</time>
      </trkpt>
      <trkpt lat="44.90464" lon="6.70773">
        <ele>2378.92</ele>
        <time>2016-02-06T10:22:21Z</time>
      </trkpt>
      <trkpt lat="44.90466" lon="6.70776">
        <ele>2378.92</ele>
        <time>2016-02-06T10:22:38Z</time>
      </trkpt>
      <trkpt lat="44.90465" lon="6.70773">
        <ele>2377.48</ele>
        <time>2016-02-06T10:22:58Z</time>
      </trkpt>
      <trkpt lat="44.90464" lon="6.70777">
        <ele>2378.92</ele>
        <time>2016-02-06T10:23:17Z</time>
      </trkpt>
      <trkpt lat="44.90464" lon="6.70779">
        <ele>2380.84</ele>
        <time>2016-02-06T10:23:19Z</time>
      </trkpt>
      <trkpt lat="44.90462" lon="6.70782">
        <ele>2379.88</ele>
        <time>2016-02-06T10:23:33Z</time>
      </trkpt>
      <trkpt lat="44.90465" lon="6.7078">
        <ele>2379.88</ele>
        <time>2016-02-06T10:23:51Z</time>
      </trkpt>
      <trkpt lat="44.90463" lon="6.70778">
        <ele>2379.88</ele>
        <time>2016-02-06T10:24:15Z</time>
      </trkpt>
      <trkpt lat="44.90464" lon="6.70778">
        <ele>2381.32</ele>
        <time>2016-02-06T10:24:28Z</time>
      </trkpt>
      <trkpt lat="44.90465" lon="6.70778">
        <ele>2379.88</ele>
        <time>2016-02-06T10:24:43Z</time>
      </trkpt>
      <trkpt lat="44.90464" lon="6.70776">
        <ele>2377.96</ele>
        <time>2016-02-06T10:25:01Z</time>
      </trkpt>
      <trkpt lat="44.90466" lon="6.70779">
        <ele>2378.44</ele>
        <time>2016-02-06T10:25:31Z</time>
      </trkpt>
      <trkpt lat="44.90466" lon="6.70779">
        <ele>2378.44</ele>
        <time>2016-02-06T10:25:58Z</time>
      </trkpt>
      <trkpt lat="44.90466" lon="6.70779">
        <ele>2377.48</ele>
        <time>2016-02-06T10:26:24Z</time>
      </trkpt>
      <trkpt lat="44.90466" lon="6.70779">
        <ele>2377.96</ele>
        <time>2016-02-06T10:26:56Z</time>
      </trkpt>
      <trkpt lat="44.90465" lon="6.70776">
        <ele>2377.48</ele>
        <time>2016-02-06T10:27:36Z</time>
      </trkpt>
      <trkpt lat="44.90463" lon="6.70776">
        <ele>2378.44</ele>
        <time>2016-02-06T10:28:15Z</time>
      </trkpt>
      <trkpt lat="44.90467" lon="6.70779">
        <ele>2378.92</ele>
        <time>2016-02-06T10:28:36Z</time>
      </trkpt>
      <trkpt lat="44.90467" lon="6.70778">
        <ele>2379.4</ele>
        <time>2016-02-06T10:28:53Z</time>
      </trkpt>
      <trkpt lat="44.90467" lon="6.70778">
        <ele>2379.4</ele>
        <time>2016-02-06T10:29:13Z</time>
      </trkpt>
      <trkpt lat="44.90468" lon="6.70768">
        <ele>2380.84</ele>
        <time>2016-02-06T10:29:26Z</time>
      </trkpt>
      <trkpt lat="44.90472" lon="6.70757">
        <ele>2381.8</ele>
        <time>2016-02-06T10:29:40Z</time>
      </trkpt>
      <trkpt lat="44.90473" lon="6.70749">
        <ele>2382.76</ele>
        <time>2016-02-06T10:29:55Z</time>
      </trkpt>
      <trkpt lat="44.90471" lon="6.70735">
        <ele>2381.8</ele>
        <time>2016-02-06T10:30:12Z</time>
      </trkpt>
      <trkpt lat="44.90472" lon="6.70736">
        <ele>2381.8</ele>
        <time>2016-02-06T10:30:27Z</time>
      </trkpt>
      <trkpt lat="44.90472" lon="6.70736">
        <ele>2383.25</ele>
        <time>2016-02-06T10:30:41Z</time>
      </trkpt>
      <trkpt lat="44.90473" lon="6.70738">
        <ele>2382.76</ele>
        <time>2016-02-06T10:30:54Z</time>
      </trkpt>
      <trkpt lat="44.90475" lon="6.70737">
        <ele>2382.28</ele>
        <time>2016-02-06T10:31:06Z</time>
      </trkpt>
      <trkpt lat="44.90472" lon="6.70737">
        <ele>2383.25</ele>
        <time>2016-02-06T10:31:28Z</time>
      </trkpt>
      <trkpt lat="44.90473" lon="6.70737">
        <ele>2380.84</ele>
        <time>2016-02-06T10:31:43Z</time>
      </trkpt>
      <trkpt lat="44.90472" lon="6.70736">
        <ele>2381.32</ele>
        <time>2016-02-06T10:32:01Z</time>
      </trkpt>
      <trkpt lat="44.90472" lon="6.70735">
        <ele>2382.76</ele>
        <time>2016-02-06T10:32:20Z</time>
      </trkpt>
      <trkpt lat="44.90472" lon="6.70736">
        <ele>2383.25</ele>
        <time>2016-02-06T10:32:29Z</time>
      </trkpt>
      <trkpt lat="44.90472" lon="6.70736">
        <ele>2382.76</ele>
        <time>2016-02-06T10:32:47Z</time>
      </trkpt>
      <trkpt lat="44.9047" lon="6.70735">
        <ele>2381.8</ele>
        <time>2016-02-06T10:33:10Z</time>
      </trkpt>
      <trkpt lat="44.90467" lon="6.7072">
        <ele>2382.28</ele>
        <time>2016-02-06T10:33:23Z</time>
      </trkpt>
      <trkpt lat="44.90465" lon="6.70713">
        <ele>2384.21</ele>
        <time>2016-02-06T10:33:31Z</time>
      </trkpt>
      <trkpt lat="44.90463" lon="6.70704">
        <ele>2386.13</ele>
        <time>2016-02-06T10:33:45Z</time>
      </trkpt>
      <trkpt lat="44.90463" lon="6.70702">
        <ele>2386.61</ele>
        <time>2016-02-06T10:33:48Z</time>
      </trkpt>
      <trkpt lat="44.90461" lon="6.70688">
        <ele>2387.09</ele>
        <time>2016-02-06T10:34:02Z</time>
      </trkpt>
      <trkpt lat="44.90457" lon="6.70676">
        <ele>2388.05</ele>
        <time>2016-02-06T10:34:17Z</time>
      </trkpt>
      <trkpt lat="44.90455" lon="6.70669">
        <ele>2389.49</ele>
        <time>2016-02-06T10:34:33Z</time>
      </trkpt>
      <trkpt lat="44.90454" lon="6.7066">
        <ele>2389.49</ele>
        <time>2016-02-06T10:34:47Z</time>
      </trkpt>
      <trkpt lat="44.90454" lon="6.70652">
        <ele>2389.97</ele>
        <time>2016-02-06T10:35:01Z</time>
      </trkpt>
      <trkpt lat="44.90456" lon="6.70641">
        <ele>2392.86</ele>
        <time>2016-02-06T10:35:20Z</time>
      </trkpt>
      <trkpt lat="44.90458" lon="6.70631">
        <ele>2394.3</ele>
        <time>2016-02-06T10:35:33Z</time>
      </trkpt>
      <trkpt lat="44.90463" lon="6.70623">
        <ele>2395.26</ele>
        <time>2016-02-06T10:35:48Z</time>
      </trkpt>
      <trkpt lat="44.90462" lon="6.70623">
        <ele>2394.78</ele>
        <time>2016-02-06T10:36:09Z</time>
      </trkpt>
      <trkpt lat="44.90462" lon="6.70624">
        <ele>2394.78</ele>
        <time>2016-02-06T10:36:34Z</time>
      </trkpt>
      <trkpt lat="44.90462" lon="6.70623">
        <ele>2395.74</ele>
        <time>2016-02-06T10:36:57Z</time>
      </trkpt>
      <trkpt lat="44.90463" lon="6.70624">
        <ele>2395.74</ele>
        <time>2016-02-06T10:37:19Z</time>
      </trkpt>
      <trkpt lat="44.90465" lon="6.70624">
        <ele>2396.7</ele>
        <time>2016-02-06T10:37:32Z</time>
      </trkpt>
      <trkpt lat="44.90469" lon="6.7062">
        <ele>2396.7</ele>
        <time>2016-02-06T10:37:46Z</time>
      </trkpt>
      <trkpt lat="44.90477" lon="6.70615">
        <ele>2397.67</ele>
        <time>2016-02-06T10:37:59Z</time>
      </trkpt>
      <trkpt lat="44.90488" lon="6.70612">
        <ele>2398.15</ele>
        <time>2016-02-06T10:38:14Z</time>
      </trkpt>
      <trkpt lat="44.90486" lon="6.70619">
        <ele>2398.63</ele>
        <time>2016-02-06T10:38:27Z</time>
      </trkpt>
      <trkpt lat="44.9048" lon="6.70625">
        <ele>2401.03</ele>
        <time>2016-02-06T10:38:43Z</time>
      </trkpt>
      <trkpt lat="44.90474" lon="6.70629">
        <ele>2401.99</ele>
        <time>2016-02-06T10:38:57Z</time>
      </trkpt>
      <trkpt lat="44.90468" lon="6.70637">
        <ele>2401.99</ele>
        <time>2016-02-06T10:39:12Z</time>
      </trkpt>
      <trkpt lat="44.90468" lon="6.70638">
        <ele>2402.95</ele>
        <time>2016-02-06T10:39:14Z</time>
      </trkpt>
      <trkpt lat="44.90468" lon="6.70639">
        <ele>2400.55</ele>
        <time>2016-02-06T10:39:17Z</time>
      </trkpt>
      <trkpt lat="44.90468" lon="6.7064">
        <ele>2403.91</ele>
        <time>2016-02-06T10:39:20Z</time>
      </trkpt>
      <trkpt lat="44.90468" lon="6.70641">
        <ele>2406.32</ele>
        <time>2016-02-06T10:39:22Z</time>
      </trkpt>
      <trkpt lat="44.90468" lon="6.70641">
        <ele>2403.91</ele>
        <time>2016-02-06T10:39:24Z</time>
      </trkpt>
      <trkpt lat="44.90468" lon="6.70642">
        <ele>2400.07</ele>
        <time>2016-02-06T10:39:29Z</time>
      </trkpt>
      <trkpt lat="44.90468" lon="6.70643">
        <ele>2400.07</ele>
        <time>2016-02-06T10:39:30Z</time>
      </trkpt>
      <trkpt lat="44.90467" lon="6.70649">
        <ele>2403.43</ele>
        <time>2016-02-06T10:39:41Z</time>
      </trkpt>
      <trkpt lat="44.9047" lon="6.70659">
        <ele>2403.43</ele>
        <time>2016-02-06T10:39:54Z</time>
      </trkpt>
      <trkpt lat="44.90471" lon="6.70666">
        <ele>2404.39</ele>
        <time>2016-02-06T10:40:07Z</time>
      </trkpt>
      <trkpt lat="44.90475" lon="6.70673">
        <ele>2406.32</ele>
        <time>2016-02-06T10:40:21Z</time>
      </trkpt>
      <trkpt lat="44.90481" lon="6.7068">
        <ele>2405.84</ele>
        <time>2016-02-06T10:40:36Z</time>
      </trkpt>
      <trkpt lat="44.90488" lon="6.70688">
        <ele>2406.32</ele>
        <time>2016-02-06T10:40:51Z</time>
      </trkpt>
      <trkpt lat="44.90494" lon="6.70698">
        <ele>2408.24</ele>
        <time>2016-02-06T10:41:07Z</time>
      </trkpt>
      <trkpt lat="44.905" lon="6.70708">
        <ele>2409.2</ele>
        <time>2016-02-06T10:41:21Z</time>
      </trkpt>
      <trkpt lat="44.90506" lon="6.70715">
        <ele>2411.12</ele>
        <time>2016-02-06T10:41:34Z</time>
      </trkpt>
      <trkpt lat="44.9051" lon="6.70722">
        <ele>2412.57</ele>
        <time>2016-02-06T10:41:46Z</time>
      </trkpt>
      <trkpt lat="44.90517" lon="6.70729">
        <ele>2414.01</ele>
        <time>2016-02-06T10:42:00Z</time>
      </trkpt>
      <trkpt lat="44.90522" lon="6.70738">
        <ele>2414.01</ele>
        <time>2016-02-06T10:42:14Z</time>
      </trkpt>
      <trkpt lat="44.90528" lon="6.70749">
        <ele>2414.97</ele>
        <time>2016-02-06T10:42:30Z</time>
      </trkpt>
      <trkpt lat="44.90537" lon="6.70756">
        <ele>2416.41</ele>
        <time>2016-02-06T10:42:47Z</time>
      </trkpt>
      <trkpt lat="44.90546" lon="6.7076">
        <ele>2417.85</ele>
        <time>2016-02-06T10:43:02Z</time>
      </trkpt>
      <trkpt lat="44.90552" lon="6.70765">
        <ele>2418.81</ele>
        <time>2016-02-06T10:43:17Z</time>
      </trkpt>
      <trkpt lat="44.90563" lon="6.70768">
        <ele>2421.22</ele>
        <time>2016-02-06T10:43:34Z</time>
      </trkpt>
      <trkpt lat="44.90569" lon="6.7077">
        <ele>2421.7</ele>
        <time>2016-02-06T10:43:50Z</time>
      </trkpt>
      <trkpt lat="44.90576" lon="6.7077">
        <ele>2422.66</ele>
        <time>2016-02-06T10:44:04Z</time>
      </trkpt>
      <trkpt lat="44.90583" lon="6.70771">
        <ele>2424.1</ele>
        <time>2016-02-06T10:44:19Z</time>
      </trkpt>
      <trkpt lat="44.90592" lon="6.70772">
        <ele>2427.47</ele>
        <time>2016-02-06T10:44:35Z</time>
      </trkpt>
      <trkpt lat="44.90601" lon="6.70771">
        <ele>2426.5</ele>
        <time>2016-02-06T10:44:53Z</time>
      </trkpt>
      <trkpt lat="44.90606" lon="6.70769">
        <ele>2427.47</ele>
        <time>2016-02-06T10:45:08Z</time>
      </trkpt>
      <trkpt lat="44.9061" lon="6.70769">
        <ele>2427.95</ele>
        <time>2016-02-06T10:45:26Z</time>
      </trkpt>
      <trkpt lat="44.90614" lon="6.70769">
        <ele>2427.47</ele>
        <time>2016-02-06T10:45:41Z</time>
      </trkpt>
      <trkpt lat="44.90616" lon="6.70766">
        <ele>2427.95</ele>
        <time>2016-02-06T10:46:05Z</time>
      </trkpt>
      <trkpt lat="44.90615" lon="6.70766">
        <ele>2428.43</ele>
        <time>2016-02-06T10:46:15Z</time>
      </trkpt>
      <trkpt lat="44.90618" lon="6.70764">
        <ele>2428.91</ele>
        <time>2016-02-06T10:46:30Z</time>
      </trkpt>
      <trkpt lat="44.90618" lon="6.70763">
        <ele>2428.43</ele>
        <time>2016-02-06T10:46:52Z</time>
      </trkpt>
      <trkpt lat="44.9062" lon="6.70766">
        <ele>2427.95</ele>
        <time>2016-02-06T10:47:05Z</time>
      </trkpt>
      <trkpt lat="44.90626" lon="6.70766">
        <ele>2429.39</ele>
        <time>2016-02-06T10:47:17Z</time>
      </trkpt>
      <trkpt lat="44.90632" lon="6.70768">
        <ele>2429.39</ele>
        <time>2016-02-06T10:47:32Z</time>
      </trkpt>
      <trkpt lat="44.90643" lon="6.70774">
        <ele>2431.31</ele>
        <time>2016-02-06T10:47:49Z</time>
      </trkpt>
      <trkpt lat="44.9065" lon="6.7078">
        <ele>2433.23</ele>
        <time>2016-02-06T10:48:03Z</time>
      </trkpt>
      <trkpt lat="44.90659" lon="6.70786">
        <ele>2433.71</ele>
        <time>2016-02-06T10:48:19Z</time>
      </trkpt>
      <trkpt lat="44.90664" lon="6.70789">
        <ele>2434.68</ele>
        <time>2016-02-06T10:48:33Z</time>
      </trkpt>
      <trkpt lat="44.90669" lon="6.70794">
        <ele>2436.6</ele>
        <time>2016-02-06T10:48:46Z</time>
      </trkpt>
      <trkpt lat="44.90672" lon="6.70796">
        <ele>2437.56</ele>
        <time>2016-02-06T10:48:52Z</time>
      </trkpt>
      <trkpt lat="44.90678" lon="6.70808">
        <ele>2437.56</ele>
        <time>2016-02-06T10:49:09Z</time>
      </trkpt>
      <trkpt lat="44.90683" lon="6.70815">
        <ele>2439</ele>
        <time>2016-02-06T10:49:22Z</time>
      </trkpt>
      <trkpt lat="44.90687" lon="6.70822">
        <ele>2439.96</ele>
        <time>2016-02-06T10:49:36Z</time>
      </trkpt>
      <trkpt lat="44.90693" lon="6.70832">
        <ele>2440.92</ele>
        <time>2016-02-06T10:49:52Z</time>
      </trkpt>
      <trkpt lat="44.907" lon="6.70838">
        <ele>2442.37</ele>
        <time>2016-02-06T10:50:10Z</time>
      </trkpt>
      <trkpt lat="44.90709" lon="6.70846">
        <ele>2443.33</ele>
        <time>2016-02-06T10:50:28Z</time>
      </trkpt>
      <trkpt lat="44.90719" lon="6.7085">
        <ele>2444.29</ele>
        <time>2016-02-06T10:50:46Z</time>
      </trkpt>
      <trkpt lat="44.90728" lon="6.70852">
        <ele>2445.73</ele>
        <time>2016-02-06T10:51:02Z</time>
      </trkpt>
      <trkpt lat="44.90729" lon="6.70852">
        <ele>2444.77</ele>
        <time>2016-02-06T10:51:09Z</time>
      </trkpt>
      <trkpt lat="44.9073" lon="6.70853">
        <ele>2446.21</ele>
        <time>2016-02-06T10:51:11Z</time>
      </trkpt>
      <trkpt lat="44.90737" lon="6.70854">
        <ele>2445.73</ele>
        <time>2016-02-06T10:51:22Z</time>
      </trkpt>
      <trkpt lat="44.90744" lon="6.70855">
        <ele>2445.73</ele>
        <time>2016-02-06T10:51:33Z</time>
      </trkpt>
      <trkpt lat="44.9075" lon="6.70858">
        <ele>2447.17</ele>
        <time>2016-02-06T10:51:46Z</time>
      </trkpt>
      <trkpt lat="44.90757" lon="6.70862">
        <ele>2447.17</ele>
        <time>2016-02-06T10:51:57Z</time>
      </trkpt>
      <trkpt lat="44.90764" lon="6.70866">
        <ele>2448.13</ele>
        <time>2016-02-06T10:52:09Z</time>
      </trkpt>
      <trkpt lat="44.90768" lon="6.70872">
        <ele>2449.1</ele>
        <time>2016-02-06T10:52:21Z</time>
      </trkpt>
      <trkpt lat="44.90776" lon="6.70876">
        <ele>2450.54</ele>
        <time>2016-02-06T10:52:33Z</time>
      </trkpt>
      <trkpt lat="44.90785" lon="6.7088">
        <ele>2451.02</ele>
        <time>2016-02-06T10:52:46Z</time>
      </trkpt>
      <trkpt lat="44.90795" lon="6.70882">
        <ele>2451.98</ele>
        <time>2016-02-06T10:53:01Z</time>
      </trkpt>
      <trkpt lat="44.90803" lon="6.70884">
        <ele>2451.98</ele>
        <time>2016-02-06T10:53:15Z</time>
      </trkpt>
      <trkpt lat="44.90809" lon="6.7089">
        <ele>2451.98</ele>
        <time>2016-02-06T10:53:29Z</time>
      </trkpt>
      <trkpt lat="44.90816" lon="6.70902">
        <ele>2453.42</ele>
        <time>2016-02-06T10:53:47Z</time>
      </trkpt>
      <trkpt lat="44.90818" lon="6.70902">
        <ele>2453.9</ele>
        <time>2016-02-06T10:54:02Z</time>
      </trkpt>
      <trkpt lat="44.90821" lon="6.70907">
        <ele>2453.42</ele>
        <time>2016-02-06T10:54:14Z</time>
      </trkpt>
      <trkpt lat="44.90828" lon="6.70914">
        <ele>2454.38</ele>
        <time>2016-02-06T10:54:27Z</time>
      </trkpt>
      <trkpt lat="44.90831" lon="6.70919">
        <ele>2454.38</ele>
        <time>2016-02-06T10:54:35Z</time>
      </trkpt>
      <trkpt lat="44.90833" lon="6.70931">
        <ele>2454.38</ele>
        <time>2016-02-06T10:54:46Z</time>
      </trkpt>
      <trkpt lat="44.90835" lon="6.7094">
        <ele>2455.82</ele>
        <time>2016-02-06T10:54:58Z</time>
      </trkpt>
      <trkpt lat="44.90838" lon="6.70951">
        <ele>2455.82</ele>
        <time>2016-02-06T10:55:14Z</time>
      </trkpt>
      <trkpt lat="44.90842" lon="6.70961">
        <ele>2457.75</ele>
        <time>2016-02-06T10:55:28Z</time>
      </trkpt>
      <trkpt lat="44.90848" lon="6.70964">
        <ele>2458.23</ele>
        <time>2016-02-06T10:55:40Z</time>
      </trkpt>
      <trkpt lat="44.90857" lon="6.70968">
        <ele>2459.67</ele>
        <time>2016-02-06T10:55:58Z</time>
      </trkpt>
      <trkpt lat="44.90863" lon="6.70975">
        <ele>2460.15</ele>
        <time>2016-02-06T10:56:10Z</time>
      </trkpt>
      <trkpt lat="44.90869" lon="6.70982">
        <ele>2461.59</ele>
        <time>2016-02-06T10:56:25Z</time>
      </trkpt>
      <trkpt lat="44.90874" lon="6.70988">
        <ele>2462.07</ele>
        <time>2016-02-06T10:56:39Z</time>
      </trkpt>
      <trkpt lat="44.90878" lon="6.70993">
        <ele>2463.04</ele>
        <time>2016-02-06T10:56:51Z</time>
      </trkpt>
      <trkpt lat="44.90883" lon="6.70998">
        <ele>2462.55</ele>
        <time>2016-02-06T10:57:04Z</time>
      </trkpt>
      <trkpt lat="44.90884" lon="6.71006">
        <ele>2464.48</ele>
        <time>2016-02-06T10:57:19Z</time>
      </trkpt>
      <trkpt lat="44.9089" lon="6.71012">
        <ele>2464.48</ele>
        <time>2016-02-06T10:57:31Z</time>
      </trkpt>
      <trkpt lat="44.90898" lon="6.71012">
        <ele>2465.44</ele>
        <time>2016-02-06T10:57:46Z</time>
      </trkpt>
      <trkpt lat="44.90905" lon="6.71013">
        <ele>2467.36</ele>
        <time>2016-02-06T10:58:01Z</time>
      </trkpt>
      <trkpt lat="44.90914" lon="6.71023">
        <ele>2467.36</ele>
        <time>2016-02-06T10:58:19Z</time>
      </trkpt>
      <trkpt lat="44.90918" lon="6.7103">
        <ele>2469.76</ele>
        <time>2016-02-06T10:58:31Z</time>
      </trkpt>
      <trkpt lat="44.9092" lon="6.71035">
        <ele>2470.24</ele>
        <time>2016-02-06T10:58:42Z</time>
      </trkpt>
      <trkpt lat="44.90925" lon="6.71042">
        <ele>2470.73</ele>
        <time>2016-02-06T10:58:55Z</time>
      </trkpt>
      <trkpt lat="44.90929" lon="6.71046">
        <ele>2472.17</ele>
        <time>2016-02-06T10:59:09Z</time>
      </trkpt>
      <trkpt lat="44.90935" lon="6.71051">
        <ele>2473.13</ele>
        <time>2016-02-06T10:59:25Z</time>
      </trkpt>
      <trkpt lat="44.9094" lon="6.71055">
        <ele>2474.57</ele>
        <time>2016-02-06T10:59:40Z</time>
      </trkpt>
      <trkpt lat="44.90947" lon="6.71057">
        <ele>2475.53</ele>
        <time>2016-02-06T10:59:54Z</time>
      </trkpt>
      <trkpt lat="44.90954" lon="6.71061">
        <ele>2477.45</ele>
        <time>2016-02-06T11:00:07Z</time>
      </trkpt>
      <trkpt lat="44.90959" lon="6.71064">
        <ele>2478.42</ele>
        <time>2016-02-06T11:00:22Z</time>
      </trkpt>
      <trkpt lat="44.90966" lon="6.71071">
        <ele>2480.82</ele>
        <time>2016-02-06T11:00:36Z</time>
      </trkpt>
      <trkpt lat="44.90967" lon="6.71072">
        <ele>2481.3</ele>
        <time>2016-02-06T11:00:37Z</time>
      </trkpt>
      <trkpt lat="44.90971" lon="6.71077">
        <ele>2481.3</ele>
        <time>2016-02-06T11:00:52Z</time>
      </trkpt>
      <trkpt lat="44.90975" lon="6.71085">
        <ele>2481.78</ele>
        <time>2016-02-06T11:01:05Z</time>
      </trkpt>
      <trkpt lat="44.90979" lon="6.7109">
        <ele>2482.26</ele>
        <time>2016-02-06T11:01:17Z</time>
      </trkpt>
      <trkpt lat="44.90981" lon="6.71095">
        <ele>2482.74</ele>
        <time>2016-02-06T11:01:28Z</time>
      </trkpt>
      <trkpt lat="44.90983" lon="6.71099">
        <ele>2482.74</ele>
        <time>2016-02-06T11:01:39Z</time>
      </trkpt>
      <trkpt lat="44.90984" lon="6.71104">
        <ele>2484.18</ele>
        <time>2016-02-06T11:01:57Z</time>
      </trkpt>
      <trkpt lat="44.90984" lon="6.71103">
        <ele>2480.82</ele>
        <time>2016-02-06T11:02:04Z</time>
      </trkpt>
      <trkpt lat="44.90984" lon="6.71103">
        <ele>2481.78</ele>
        <time>2016-02-06T11:02:05Z</time>
      </trkpt>
      <trkpt lat="44.90985" lon="6.71104">
        <ele>2484.66</ele>
        <time>2016-02-06T11:02:08Z</time>
      </trkpt>
      <trkpt lat="44.90986" lon="6.71106">
        <ele>2481.78</ele>
        <time>2016-02-06T11:02:13Z</time>
      </trkpt>
      <trkpt lat="44.90985" lon="6.71106">
        <ele>2482.26</ele>
        <time>2016-02-06T11:02:14Z</time>
      </trkpt>
      <trkpt lat="44.90988" lon="6.71115">
        <ele>2484.66</ele>
        <time>2016-02-06T11:02:27Z</time>
      </trkpt>
      <trkpt lat="44.90992" lon="6.71127">
        <ele>2485.63</ele>
        <time>2016-02-06T11:02:42Z</time>
      </trkpt>
      <trkpt lat="44.90997" lon="6.71139">
        <ele>2485.63</ele>
        <time>2016-02-06T11:02:56Z</time>
      </trkpt>
      <trkpt lat="44.91004" lon="6.7115">
        <ele>2487.55</ele>
        <time>2016-02-06T11:03:14Z</time>
      </trkpt>
      <trkpt lat="44.91011" lon="6.71157">
        <ele>2488.51</ele>
        <time>2016-02-06T11:03:26Z</time>
      </trkpt>
      <trkpt lat="44.91019" lon="6.71164">
        <ele>2489.47</ele>
        <time>2016-02-06T11:03:44Z</time>
      </trkpt>
      <trkpt lat="44.91026" lon="6.7117">
        <ele>2490.91</ele>
        <time>2016-02-06T11:04:00Z</time>
      </trkpt>
      <trkpt lat="44.91034" lon="6.71174">
        <ele>2492.36</ele>
        <time>2016-02-06T11:04:15Z</time>
      </trkpt>
      <trkpt lat="44.91042" lon="6.7118">
        <ele>2493.8</ele>
        <time>2016-02-06T11:04:31Z</time>
      </trkpt>
      <trkpt lat="44.91047" lon="6.71185">
        <ele>2495.24</ele>
        <time>2016-02-06T11:04:45Z</time>
      </trkpt>
      <trkpt lat="44.91053" lon="6.7119">
        <ele>2495.24</ele>
        <time>2016-02-06T11:04:59Z</time>
      </trkpt>
      <trkpt lat="44.9106" lon="6.71194">
        <ele>2497.16</ele>
        <time>2016-02-06T11:05:13Z</time>
      </trkpt>
      <trkpt lat="44.91068" lon="6.71199">
        <ele>2498.6</ele>
        <time>2016-02-06T11:05:30Z</time>
      </trkpt>
      <trkpt lat="44.91075" lon="6.71203">
        <ele>2499.57</ele>
        <time>2016-02-06T11:05:43Z</time>
      </trkpt>
      <trkpt lat="44.91083" lon="6.71205">
        <ele>2500.53</ele>
        <time>2016-02-06T11:05:58Z</time>
      </trkpt>
      <trkpt lat="44.91089" lon="6.71207">
        <ele>2501.49</ele>
        <time>2016-02-06T11:06:11Z</time>
      </trkpt>
      <trkpt lat="44.91095" lon="6.71203">
        <ele>2501.97</ele>
        <time>2016-02-06T11:06:23Z</time>
      </trkpt>
      <trkpt lat="44.91091" lon="6.71198">
        <ele>2501.97</ele>
        <time>2016-02-06T11:06:37Z</time>
      </trkpt>
      <trkpt lat="44.91091" lon="6.71197">
        <ele>2505.33</ele>
        <time>2016-02-06T11:06:41Z</time>
      </trkpt>
      <trkpt lat="44.91091" lon="6.71197">
        <ele>2501.97</ele>
        <time>2016-02-06T11:06:46Z</time>
      </trkpt>
      <trkpt lat="44.91091" lon="6.71198">
        <ele>2501.97</ele>
        <time>2016-02-06T11:06:50Z</time>
      </trkpt>
      <trkpt lat="44.91086" lon="6.71193">
        <ele>2504.37</ele>
        <time>2016-02-06T11:07:12Z</time>
      </trkpt>
      <trkpt lat="44.91077" lon="6.71185">
        <ele>2506.77</ele>
        <time>2016-02-06T11:07:33Z</time>
      </trkpt>
      <trkpt lat="44.91075" lon="6.71181">
        <ele>2507.74</ele>
        <time>2016-02-06T11:07:44Z</time>
      </trkpt>
      <trkpt lat="44.91074" lon="6.71179">
        <ele>2508.7</ele>
        <time>2016-02-06T11:07:51Z</time>
      </trkpt>
      <trkpt lat="44.91068" lon="6.71169">
        <ele>2507.26</ele>
        <time>2016-02-06T11:08:08Z</time>
      </trkpt>
      <trkpt lat="44.91062" lon="6.7116">
        <ele>2510.14</ele>
        <time>2016-02-06T11:08:23Z</time>
      </trkpt>
      <trkpt lat="44.91056" lon="6.71152">
        <ele>2513.02</ele>
        <time>2016-02-06T11:08:42Z</time>
      </trkpt>
      <trkpt lat="44.91054" lon="6.71145">
        <ele>2513.98</ele>
        <time>2016-02-06T11:08:57Z</time>
      </trkpt>
      <trkpt lat="44.91051" lon="6.71139">
        <ele>2513.02</ele>
        <time>2016-02-06T11:09:13Z</time>
      </trkpt>
      <trkpt lat="44.91047" lon="6.7113">
        <ele>2513.98</ele>
        <time>2016-02-06T11:09:25Z</time>
      </trkpt>
      <trkpt lat="44.91045" lon="6.7112">
        <ele>2516.87</ele>
        <time>2016-02-06T11:09:41Z</time>
      </trkpt>
      <trkpt lat="44.91042" lon="6.7111">
        <ele>2517.83</ele>
        <time>2016-02-06T11:10:00Z</time>
      </trkpt>
      <trkpt lat="44.91042" lon="6.71103">
        <ele>2521.68</ele>
        <time>2016-02-06T11:10:14Z</time>
      </trkpt>
      <trkpt lat="44.91042" lon="6.71102">
        <ele>2520.71</ele>
        <time>2016-02-06T11:10:15Z</time>
      </trkpt>
      <trkpt lat="44.91042" lon="6.711">
        <ele>2521.68</ele>
        <time>2016-02-06T11:10:19Z</time>
      </trkpt>
      <trkpt lat="44.91042" lon="6.71098">
        <ele>2519.75</ele>
        <time>2016-02-06T11:10:22Z</time>
      </trkpt>
      <trkpt lat="44.91042" lon="6.71092">
        <ele>2521.68</ele>
        <time>2016-02-06T11:10:35Z</time>
      </trkpt>
      <trkpt lat="44.91042" lon="6.71087">
        <ele>2522.16</ele>
        <time>2016-02-06T11:10:46Z</time>
      </trkpt>
      <trkpt lat="44.91041" lon="6.71082">
        <ele>2524.08</ele>
        <time>2016-02-06T11:10:58Z</time>
      </trkpt>
      <trkpt lat="44.91042" lon="6.71078">
        <ele>2525.52</ele>
        <time>2016-02-06T11:11:08Z</time>
      </trkpt>
      <trkpt lat="44.91043" lon="6.71081">
        <ele>2525.52</ele>
        <time>2016-02-06T11:11:20Z</time>
      </trkpt>
      <trkpt lat="44.91047" lon="6.71082">
        <ele>2526.96</ele>
        <time>2016-02-06T11:11:41Z</time>
      </trkpt>
      <trkpt lat="44.91052" lon="6.71084">
        <ele>2528.89</ele>
        <time>2016-02-06T11:11:54Z</time>
      </trkpt>
      <trkpt lat="44.91057" lon="6.71081">
        <ele>2530.33</ele>
        <time>2016-02-06T11:12:07Z</time>
      </trkpt>
      <trkpt lat="44.91062" lon="6.71079">
        <ele>2529.85</ele>
        <time>2016-02-06T11:12:20Z</time>
      </trkpt>
      <trkpt lat="44.91063" lon="6.71077">
        <ele>2530.33</ele>
        <time>2016-02-06T11:12:32Z</time>
      </trkpt>
      <trkpt lat="44.91065" lon="6.71075">
        <ele>2530.33</ele>
        <time>2016-02-06T11:12:49Z</time>
      </trkpt>
      <trkpt lat="44.91063" lon="6.71075">
        <ele>2531.29</ele>
        <time>2016-02-06T11:12:51Z</time>
      </trkpt>
      <trkpt lat="44.91059" lon="6.71071">
        <ele>2532.73</ele>
        <time>2016-02-06T11:13:03Z</time>
      </trkpt>
      <trkpt lat="44.91059" lon="6.71066">
        <ele>2534.65</ele>
        <time>2016-02-06T11:13:15Z</time>
      </trkpt>
      <trkpt lat="44.9106" lon="6.71064">
        <ele>2535.13</ele>
        <time>2016-02-06T11:13:26Z</time>
      </trkpt>
      <trkpt lat="44.9106" lon="6.71058">
        <ele>2536.1</ele>
        <time>2016-02-06T11:13:39Z</time>
      </trkpt>
      <trkpt lat="44.91063" lon="6.71054">
        <ele>2537.54</ele>
        <time>2016-02-06T11:13:52Z</time>
      </trkpt>
      <trkpt lat="44.91063" lon="6.71052">
        <ele>2538.02</ele>
        <time>2016-02-06T11:14:12Z</time>
      </trkpt>
      <trkpt lat="44.91063" lon="6.71058">
        <ele>2536.1</ele>
        <time>2016-02-06T11:14:25Z</time>
      </trkpt>
      <trkpt lat="44.91062" lon="6.7106">
        <ele>2534.65</ele>
        <time>2016-02-06T11:14:28Z</time>
      </trkpt>
      <trkpt lat="44.91062" lon="6.71061">
        <ele>2533.21</ele>
        <time>2016-02-06T11:14:30Z</time>
      </trkpt>
      <trkpt lat="44.91062" lon="6.71061">
        <ele>2534.65</ele>
        <time>2016-02-06T11:14:33Z</time>
      </trkpt>
      <trkpt lat="44.91061" lon="6.71061">
        <ele>2533.69</ele>
        <time>2016-02-06T11:14:39Z</time>
      </trkpt>
      <trkpt lat="44.91061" lon="6.7106">
        <ele>2537.06</ele>
        <time>2016-02-06T11:14:56Z</time>
      </trkpt>
      <trkpt lat="44.91059" lon="6.71059">
        <ele>2537.06</ele>
        <time>2016-02-06T11:15:13Z</time>
      </trkpt>
      <trkpt lat="44.91064" lon="6.71049">
        <ele>2538.02</ele>
        <time>2016-02-06T11:15:26Z</time>
      </trkpt>
      <trkpt lat="44.91071" lon="6.71046">
        <ele>2538.5</ele>
        <time>2016-02-06T11:15:40Z</time>
      </trkpt>
      <trkpt lat="44.91071" lon="6.71048">
        <ele>2538.5</ele>
        <time>2016-02-06T11:15:53Z</time>
      </trkpt>
      <trkpt lat="44.91069" lon="6.71045">
        <ele>2538.98</ele>
        <time>2016-02-06T11:16:09Z</time>
      </trkpt>
      <trkpt lat="44.9107" lon="6.71046">
        <ele>2538.98</ele>
        <time>2016-02-06T11:16:25Z</time>
      </trkpt>
      <trkpt lat="44.91071" lon="6.71046">
        <ele>2538.5</ele>
        <time>2016-02-06T11:16:51Z</time>
      </trkpt>
      <trkpt lat="44.91069" lon="6.71043">
        <ele>2539.94</ele>
        <time>2016-02-06T11:17:10Z</time>
      </trkpt>
      <trkpt lat="44.91069" lon="6.71044">
        <ele>2539.94</ele>
        <time>2016-02-06T11:17:38Z</time>
      </trkpt>
      <trkpt lat="44.91069" lon="6.71042">
        <ele>2542.34</ele>
        <time>2016-02-06T11:17:49Z</time>
      </trkpt>
      <trkpt lat="44.91069" lon="6.71042">
        <ele>2541.86</ele>
        <time>2016-02-06T11:17:57Z</time>
      </trkpt>
      <trkpt lat="44.91068" lon="6.71042">
        <ele>2537.06</ele>
        <time>2016-02-06T11:18:00Z</time>
      </trkpt>
      <trkpt lat="44.91069" lon="6.71042">
        <ele>2538.02</ele>
        <time>2016-02-06T11:18:01Z</time>
      </trkpt>
      <trkpt lat="44.91069" lon="6.71042">
        <ele>2533.69</ele>
        <time>2016-02-06T11:18:05Z</time>
      </trkpt>
      <trkpt lat="44.91069" lon="6.71042">
        <ele>2537.54</ele>
        <time>2016-02-06T11:18:06Z</time>
      </trkpt>
      <trkpt lat="44.91069" lon="6.71041">
        <ele>2540.9</ele>
        <time>2016-02-06T11:18:07Z</time>
      </trkpt>
      <trkpt lat="44.91069" lon="6.71041">
        <ele>2538.98</ele>
        <time>2016-02-06T11:18:08Z</time>
      </trkpt>
      <trkpt lat="44.91069" lon="6.71041">
        <ele>2535.61</ele>
        <time>2016-02-06T11:18:09Z</time>
      </trkpt>
      <trkpt lat="44.91069" lon="6.71041">
        <ele>2535.61</ele>
        <time>2016-02-06T11:18:10Z</time>
      </trkpt>
      <trkpt lat="44.91069" lon="6.71041">
        <ele>2537.06</ele>
        <time>2016-02-06T11:18:15Z</time>
      </trkpt>
      <trkpt lat="44.91069" lon="6.71042">
        <ele>2537.54</ele>
        <time>2016-02-06T11:18:28Z</time>
      </trkpt>
      <trkpt lat="44.91069" lon="6.71043">
        <ele>2542.34</ele>
        <time>2016-02-06T11:18:43Z</time>
      </trkpt>
      <trkpt lat="44.91069" lon="6.71043">
        <ele>2541.86</ele>
        <time>2016-02-06T11:18:44Z</time>
      </trkpt>
      <trkpt lat="44.91067" lon="6.7104">
        <ele>2541.38</ele>
        <time>2016-02-06T11:18:55Z</time>
      </trkpt>
      <trkpt lat="44.91064" lon="6.71036">
        <ele>2539.94</ele>
        <time>2016-02-06T11:19:12Z</time>
      </trkpt>
      <trkpt lat="44.91062" lon="6.71033">
        <ele>2541.86</ele>
        <time>2016-02-06T11:19:27Z</time>
      </trkpt>
      <trkpt lat="44.9106" lon="6.7103">
        <ele>2545.23</ele>
        <time>2016-02-06T11:19:36Z</time>
      </trkpt>
      <trkpt lat="44.91062" lon="6.71031">
        <ele>2548.59</ele>
        <time>2016-02-06T11:19:40Z</time>
      </trkpt>
      <trkpt lat="44.91063" lon="6.71031">
        <ele>2545.71</ele>
        <time>2016-02-06T11:19:45Z</time>
      </trkpt>
      <trkpt lat="44.91063" lon="6.71031">
        <ele>2543.79</ele>
        <time>2016-02-06T11:19:48Z</time>
      </trkpt>
      <trkpt lat="44.91062" lon="6.71032">
        <ele>2546.67</ele>
        <time>2016-02-06T11:19:50Z</time>
      </trkpt>
      <trkpt lat="44.91062" lon="6.71032">
        <ele>2546.67</ele>
        <time>2016-02-06T11:19:51Z</time>
      </trkpt>
      <trkpt lat="44.91062" lon="6.71031">
        <ele>2543.31</ele>
        <time>2016-02-06T11:19:58Z</time>
      </trkpt>
      <trkpt lat="44.91061" lon="6.7103">
        <ele>2543.79</ele>
        <time>2016-02-06T11:20:15Z</time>
      </trkpt>
      <trkpt lat="44.91061" lon="6.7103">
        <ele>2545.23</ele>
        <time>2016-02-06T11:20:27Z</time>
      </trkpt>
      <trkpt lat="44.91061" lon="6.71029">
        <ele>2545.23</ele>
        <time>2016-02-06T11:20:31Z</time>
      </trkpt>
      <trkpt lat="44.91061" lon="6.71029">
        <ele>2546.67</ele>
        <time>2016-02-06T11:20:34Z</time>
      </trkpt>
      <trkpt lat="44.91066" lon="6.71033">
        <ele>2545.23</ele>
        <time>2016-02-06T11:20:51Z</time>
      </trkpt>
      <trkpt lat="44.91063" lon="6.71031">
        <ele>2542.82</ele>
        <time>2016-02-06T11:21:01Z</time>
      </trkpt>
      <trkpt lat="44.91062" lon="6.71032">
        <ele>2545.23</ele>
        <time>2016-02-06T11:21:07Z</time>
      </trkpt>
      <trkpt lat="44.91062" lon="6.7103">
        <ele>2544.75</ele>
        <time>2016-02-06T11:21:28Z</time>
      </trkpt>
      <trkpt lat="44.91062" lon="6.71031">
        <ele>2547.15</ele>
        <time>2016-02-06T11:21:32Z</time>
      </trkpt>
      <trkpt lat="44.91062" lon="6.71032">
        <ele>2543.79</ele>
        <time>2016-02-06T11:21:47Z</time>
      </trkpt>
      <trkpt lat="44.91062" lon="6.71033">
        <ele>2541.38</ele>
        <time>2016-02-06T11:21:50Z</time>
      </trkpt>
      <trkpt lat="44.91062" lon="6.71034">
        <ele>2537.54</ele>
        <time>2016-02-06T11:21:56Z</time>
      </trkpt>
      <trkpt lat="44.91062" lon="6.71034">
        <ele>2538.5</ele>
        <time>2016-02-06T11:21:57Z</time>
      </trkpt>
      <trkpt lat="44.91061" lon="6.71033">
        <ele>2541.86</ele>
        <time>2016-02-06T11:22:08Z</time>
      </trkpt>
      <trkpt lat="44.91061" lon="6.71032">
        <ele>2544.27</ele>
        <time>2016-02-06T11:22:17Z</time>
      </trkpt>
      <trkpt lat="44.9106" lon="6.71031">
        <ele>2541.38</ele>
        <time>2016-02-06T11:22:22Z</time>
      </trkpt>
      <trkpt lat="44.9106" lon="6.7103">
        <ele>2545.23</ele>
        <time>2016-02-06T11:22:31Z</time>
      </trkpt>
      <trkpt lat="44.91059" lon="6.71028">
        <ele>2546.19</ele>
        <time>2016-02-06T11:22:33Z</time>
      </trkpt>
      <trkpt lat="44.91057" lon="6.71027">
        <ele>2542.82</ele>
        <time>2016-02-06T11:22:37Z</time>
      </trkpt>
      <trkpt lat="44.91057" lon="6.71027">
        <ele>2541.86</ele>
        <time>2016-02-06T11:22:39Z</time>
      </trkpt>
      <trkpt lat="44.91057" lon="6.7103">
        <ele>2543.31</ele>
        <time>2016-02-06T11:22:53Z</time>
      </trkpt>
      <trkpt lat="44.91059" lon="6.71034">
        <ele>2541.86</ele>
        <time>2016-02-06T11:23:07Z</time>
      </trkpt>
      <trkpt lat="44.91061" lon="6.71038">
        <ele>2540.42</ele>
        <time>2016-02-06T11:23:12Z</time>
      </trkpt>
      <trkpt lat="44.91063" lon="6.71045">
        <ele>2537.06</ele>
        <time>2016-02-06T11:23:19Z</time>
      </trkpt>
      <trkpt lat="44.91063" lon="6.71046">
        <ele>2541.38</ele>
        <time>2016-02-06T11:23:22Z</time>
      </trkpt>
      <trkpt lat="44.91063" lon="6.71047">
        <ele>2538.02</ele>
        <time>2016-02-06T11:23:24Z</time>
      </trkpt>
      <trkpt lat="44.91063" lon="6.71048">
        <ele>2538.02</ele>
        <time>2016-02-06T11:23:25Z</time>
      </trkpt>
      <trkpt lat="44.91066" lon="6.71053">
        <ele>2539.46</ele>
        <time>2016-02-06T11:23:38Z</time>
      </trkpt>
      <trkpt lat="44.91072" lon="6.71058">
        <ele>2540.9</ele>
        <time>2016-02-06T11:23:52Z</time>
      </trkpt>
      <trkpt lat="44.91077" lon="6.71064">
        <ele>2540.42</ele>
        <time>2016-02-06T11:24:04Z</time>
      </trkpt>
      <trkpt lat="44.91083" lon="6.71072">
        <ele>2542.34</ele>
        <time>2016-02-06T11:24:17Z</time>
      </trkpt>
      <trkpt lat="44.91084" lon="6.71075">
        <ele>2545.71</ele>
        <time>2016-02-06T11:24:21Z</time>
      </trkpt>
      <trkpt lat="44.91085" lon="6.71075">
        <ele>2545.23</ele>
        <time>2016-02-06T11:24:22Z</time>
      </trkpt>
      <trkpt lat="44.91092" lon="6.7108">
        <ele>2541.86</ele>
        <time>2016-02-06T11:24:33Z</time>
      </trkpt>
      <trkpt lat="44.91093" lon="6.7108">
        <ele>2548.11</ele>
        <time>2016-02-06T11:24:35Z</time>
      </trkpt>
      <trkpt lat="44.91094" lon="6.71081">
        <ele>2542.82</ele>
        <time>2016-02-06T11:24:36Z</time>
      </trkpt>
      <trkpt lat="44.91095" lon="6.71081">
        <ele>2542.82</ele>
        <time>2016-02-06T11:24:37Z</time>
      </trkpt>
      <trkpt lat="44.91096" lon="6.71081">
        <ele>2544.75</ele>
        <time>2016-02-06T11:24:39Z</time>
      </trkpt>
      <trkpt lat="44.911" lon="6.71079">
        <ele>2544.27</ele>
        <time>2016-02-06T11:24:45Z</time>
      </trkpt>
      <trkpt lat="44.91102" lon="6.71076">
        <ele>2545.71</ele>
        <time>2016-02-06T11:24:50Z</time>
      </trkpt>
      <trkpt lat="44.91102" lon="6.71071">
        <ele>2544.27</ele>
        <time>2016-02-06T11:25:04Z</time>
      </trkpt>
      <trkpt lat="44.91101" lon="6.71071">
        <ele>2540.42</ele>
        <time>2016-02-06T11:25:10Z</time>
      </trkpt>
      <trkpt lat="44.91101" lon="6.7107">
        <ele>2540.42</ele>
        <time>2016-02-06T11:25:11Z</time>
      </trkpt>
      <trkpt lat="44.91101" lon="6.71071">
        <ele>2543.79</ele>
        <time>2016-02-06T11:25:18Z</time>
      </trkpt>
      <trkpt lat="44.91101" lon="6.71072">
        <ele>2545.23</ele>
        <time>2016-02-06T11:25:20Z</time>
      </trkpt>
      <trkpt lat="44.911" lon="6.71072">
        <ele>2541.86</ele>
        <time>2016-02-06T11:25:21Z</time>
      </trkpt>
      <trkpt lat="44.911" lon="6.71072">
        <ele>2540.9</ele>
        <time>2016-02-06T11:25:23Z</time>
      </trkpt>
      <trkpt lat="44.91103" lon="6.71071">
        <ele>2543.31</ele>
        <time>2016-02-06T11:25:29Z</time>
      </trkpt>
      <trkpt lat="44.91102" lon="6.71073">
        <ele>2539.94</ele>
        <time>2016-02-06T11:25:42Z</time>
      </trkpt>
      <trkpt lat="44.91101" lon="6.71071">
        <ele>2541.86</ele>
        <time>2016-02-06T11:25:51Z</time>
      </trkpt>
      <trkpt lat="44.91103" lon="6.71071">
        <ele>2543.31</ele>
        <time>2016-02-06T11:26:01Z</time>
      </trkpt>
      <trkpt lat="44.91103" lon="6.7107">
        <ele>2544.75</ele>
        <time>2016-02-06T11:26:15Z</time>
      </trkpt>
      <trkpt lat="44.91103" lon="6.71071">
        <ele>2544.75</ele>
        <time>2016-02-06T11:26:16Z</time>
      </trkpt>
      <trkpt lat="44.91102" lon="6.71071">
        <ele>2542.82</ele>
        <time>2016-02-06T11:26:19Z</time>
      </trkpt>
      <trkpt lat="44.91102" lon="6.71072">
        <ele>2544.27</ele>
        <time>2016-02-06T11:26:21Z</time>
      </trkpt>
      <trkpt lat="44.91103" lon="6.71073">
        <ele>2545.71</ele>
        <time>2016-02-06T11:26:28Z</time>
      </trkpt>
      <trkpt lat="44.91102" lon="6.71073">
        <ele>2543.79</ele>
        <time>2016-02-06T11:26:31Z</time>
      </trkpt>
      <trkpt lat="44.91102" lon="6.71073">
        <ele>2540.9</ele>
        <time>2016-02-06T11:26:34Z</time>
      </trkpt>
      <trkpt lat="44.91102" lon="6.71073">
        <ele>2540.9</ele>
        <time>2016-02-06T11:26:35Z</time>
      </trkpt>
      <trkpt lat="44.91101" lon="6.71073">
        <ele>2540.9</ele>
        <time>2016-02-06T11:26:58Z</time>
      </trkpt>
      <trkpt lat="44.91102" lon="6.71072">
        <ele>2540.42</ele>
        <time>2016-02-06T11:27:21Z</time>
      </trkpt>
      <trkpt lat="44.91104" lon="6.71071">
        <ele>2541.86</ele>
        <time>2016-02-06T11:27:54Z</time>
      </trkpt>
      <trkpt lat="44.91104" lon="6.7107">
        <ele>2542.34</ele>
        <time>2016-02-06T11:28:23Z</time>
      </trkpt>
      <trkpt lat="44.91103" lon="6.7107">
        <ele>2540.42</ele>
        <time>2016-02-06T11:28:52Z</time>
      </trkpt>
      <trkpt lat="44.91104" lon="6.71069">
        <ele>2540.9</ele>
        <time>2016-02-06T11:29:22Z</time>
      </trkpt>
      <trkpt lat="44.91103" lon="6.71069">
        <ele>2540.9</ele>
        <time>2016-02-06T11:29:57Z</time>
      </trkpt>
      <trkpt lat="44.91104" lon="6.71068">
        <ele>2541.38</ele>
        <time>2016-02-06T11:30:24Z</time>
      </trkpt>
      <trkpt lat="44.91101" lon="6.71071">
        <ele>2541.86</ele>
        <time>2016-02-06T11:30:46Z</time>
      </trkpt>
      <trkpt lat="44.91101" lon="6.71073">
        <ele>2540.42</ele>
        <time>2016-02-06T11:31:05Z</time>
      </trkpt>
      <trkpt lat="44.91101" lon="6.71071">
        <ele>2541.38</ele>
        <time>2016-02-06T11:31:24Z</time>
      </trkpt>
      <trkpt lat="44.911" lon="6.71074">
        <ele>2541.86</ele>
        <time>2016-02-06T11:31:51Z</time>
      </trkpt>
      <trkpt lat="44.91103" lon="6.71072">
        <ele>2541.86</ele>
        <time>2016-02-06T11:32:17Z</time>
      </trkpt>
      <trkpt lat="44.91103" lon="6.71071">
        <ele>2541.86</ele>
        <time>2016-02-06T11:32:45Z</time>
      </trkpt>
      <trkpt lat="44.91102" lon="6.71072">
        <ele>2540.9</ele>
        <time>2016-02-06T11:33:17Z</time>
      </trkpt>
      <trkpt lat="44.91104" lon="6.7107">
        <ele>2540.42</ele>
        <time>2016-02-06T11:33:50Z</time>
      </trkpt>
      <trkpt lat="44.91103" lon="6.7107">
        <ele>2541.86</ele>
        <time>2016-02-06T11:34:20Z</time>
      </trkpt>
      <trkpt lat="44.91104" lon="6.71069">
        <ele>2541.38</ele>
        <time>2016-02-06T11:34:56Z</time>
      </trkpt>
      <trkpt lat="44.91104" lon="6.71068">
        <ele>2539.94</ele>
        <time>2016-02-06T11:35:25Z</time>
      </trkpt>
      <trkpt lat="44.91102" lon="6.71072">
        <ele>2541.38</ele>
        <time>2016-02-06T11:35:58Z</time>
      </trkpt>
      <trkpt lat="44.91103" lon="6.71068">
        <ele>2541.86</ele>
        <time>2016-02-06T11:36:29Z</time>
      </trkpt>
      <trkpt lat="44.91103" lon="6.71071">
        <ele>2541.38</ele>
        <time>2016-02-06T11:36:55Z</time>
      </trkpt>
      <trkpt lat="44.91102" lon="6.71073">
        <ele>2542.34</ele>
        <time>2016-02-06T11:37:34Z</time>
      </trkpt>
      <trkpt lat="44.91101" lon="6.71075">
        <ele>2542.34</ele>
        <time>2016-02-06T11:38:06Z</time>
      </trkpt>
      <trkpt lat="44.91102" lon="6.71073">
        <ele>2541.86</ele>
        <time>2016-02-06T11:38:23Z</time>
      </trkpt>
      <trkpt lat="44.91104" lon="6.71071">
        <ele>2541.38</ele>
        <time>2016-02-06T11:38:58Z</time>
      </trkpt>
      <trkpt lat="44.91104" lon="6.7107">
        <ele>2541.86</ele>
        <time>2016-02-06T11:39:35Z</time>
      </trkpt>
      <trkpt lat="44.91102" lon="6.71073">
        <ele>2542.82</ele>
        <time>2016-02-06T11:39:58Z</time>
      </trkpt>
      <trkpt lat="44.91101" lon="6.71073">
        <ele>2542.34</ele>
        <time>2016-02-06T11:40:20Z</time>
      </trkpt>
      <trkpt lat="44.91101" lon="6.71072">
        <ele>2543.31</ele>
        <time>2016-02-06T11:40:39Z</time>
      </trkpt>
      <trkpt lat="44.91101" lon="6.71072">
        <ele>2543.31</ele>
        <time>2016-02-06T11:41:06Z</time>
      </trkpt>
      <trkpt lat="44.91101" lon="6.71073">
        <ele>2542.34</ele>
        <time>2016-02-06T11:41:23Z</time>
      </trkpt>
      <trkpt lat="44.91101" lon="6.71072">
        <ele>2542.34</ele>
        <time>2016-02-06T11:41:41Z</time>
      </trkpt>
      <trkpt lat="44.91101" lon="6.71072">
        <ele>2542.34</ele>
        <time>2016-02-06T11:42:01Z</time>
      </trkpt>
      <trkpt lat="44.91101" lon="6.71071">
        <ele>2542.34</ele>
        <time>2016-02-06T11:42:17Z</time>
      </trkpt>
      <trkpt lat="44.911" lon="6.71072">
        <ele>2542.82</ele>
        <time>2016-02-06T11:42:40Z</time>
      </trkpt>
      <trkpt lat="44.91101" lon="6.71072">
        <ele>2542.82</ele>
        <time>2016-02-06T11:42:57Z</time>
      </trkpt>
      <trkpt lat="44.91101" lon="6.71073">
        <ele>2542.34</ele>
        <time>2016-02-06T11:43:27Z</time>
      </trkpt>
      <trkpt lat="44.91103" lon="6.71071">
        <ele>2541.38</ele>
        <time>2016-02-06T11:43:55Z</time>
      </trkpt>
      <trkpt lat="44.91103" lon="6.7107">
        <ele>2541.86</ele>
        <time>2016-02-06T11:44:14Z</time>
      </trkpt>
      <trkpt lat="44.91102" lon="6.71072">
        <ele>2542.82</ele>
        <time>2016-02-06T11:44:36Z</time>
      </trkpt>
      <trkpt lat="44.91103" lon="6.71071">
        <ele>2541.86</ele>
        <time>2016-02-06T11:44:55Z</time>
      </trkpt>
      <trkpt lat="44.91103" lon="6.71071">
        <ele>2544.75</ele>
        <time>2016-02-06T11:44:59Z</time>
      </trkpt>
      <trkpt lat="44.91104" lon="6.71072">
        <ele>2542.82</ele>
        <time>2016-02-06T11:45:18Z</time>
      </trkpt>
      <trkpt lat="44.91098" lon="6.71072">
        <ele>2541.86</ele>
        <time>2016-02-06T11:45:34Z</time>
      </trkpt>
      <trkpt lat="44.91096" lon="6.71076">
        <ele>2540.42</ele>
        <time>2016-02-06T11:45:46Z</time>
      </trkpt>
      <trkpt lat="44.91095" lon="6.71077">
        <ele>2541.86</ele>
        <time>2016-02-06T11:45:58Z</time>
      </trkpt>
      <trkpt lat="44.91094" lon="6.7108">
        <ele>2541.38</ele>
        <time>2016-02-06T11:46:17Z</time>
      </trkpt>
      <trkpt lat="44.91094" lon="6.71082">
        <ele>2538.5</ele>
        <time>2016-02-06T11:46:30Z</time>
      </trkpt>
      <trkpt lat="44.91096" lon="6.71081">
        <ele>2541.86</ele>
        <time>2016-02-06T11:46:35Z</time>
      </trkpt>
      <trkpt lat="44.91096" lon="6.7108">
        <ele>2542.82</ele>
        <time>2016-02-06T11:46:37Z</time>
      </trkpt>
      <trkpt lat="44.91096" lon="6.71078">
        <ele>2545.23</ele>
        <time>2016-02-06T11:46:40Z</time>
      </trkpt>
      <trkpt lat="44.91097" lon="6.71076">
        <ele>2544.27</ele>
        <time>2016-02-06T11:46:49Z</time>
      </trkpt>
      <trkpt lat="44.91098" lon="6.71074">
        <ele>2542.82</ele>
        <time>2016-02-06T11:46:57Z</time>
      </trkpt>
      <trkpt lat="44.911" lon="6.71074">
        <ele>2545.71</ele>
        <time>2016-02-06T11:47:01Z</time>
      </trkpt>
      <trkpt lat="44.91099" lon="6.71074">
        <ele>2544.27</ele>
        <time>2016-02-06T11:47:05Z</time>
      </trkpt>
      <trkpt lat="44.91098" lon="6.71075">
        <ele>2542.82</ele>
        <time>2016-02-06T11:47:22Z</time>
      </trkpt>
      <trkpt lat="44.91101" lon="6.71072">
        <ele>2542.34</ele>
        <time>2016-02-06T11:47:37Z</time>
      </trkpt>
      <trkpt lat="44.91098" lon="6.71076">
        <ele>2541.86</ele>
        <time>2016-02-06T11:48:02Z</time>
      </trkpt>
      <trkpt lat="44.91098" lon="6.71076">
        <ele>2542.34</ele>
        <time>2016-02-06T11:48:06Z</time>
      </trkpt>
      <trkpt lat="44.91095" lon="6.71078">
        <ele>2541.38</ele>
        <time>2016-02-06T11:48:35Z</time>
      </trkpt>
      <trkpt lat="44.91095" lon="6.71078">
        <ele>2541.38</ele>
        <time>2016-02-06T11:48:36Z</time>
      </trkpt>
      <trkpt lat="44.91095" lon="6.71078">
        <ele>2543.79</ele>
        <time>2016-02-06T11:48:39Z</time>
      </trkpt>
      <trkpt lat="44.91096" lon="6.71077">
        <ele>2539.94</ele>
        <time>2016-02-06T11:48:49Z</time>
      </trkpt>
      <trkpt lat="44.91096" lon="6.71078">
        <ele>2543.79</ele>
        <time>2016-02-06T11:48:51Z</time>
      </trkpt>
      <trkpt lat="44.91096" lon="6.71078">
        <ele>2543.79</ele>
        <time>2016-02-06T11:48:52Z</time>
      </trkpt>
      <trkpt lat="44.91095" lon="6.71079">
        <ele>2540.42</ele>
        <time>2016-02-06T11:48:56Z</time>
      </trkpt>
      <trkpt lat="44.91096" lon="6.71077">
        <ele>2542.82</ele>
        <time>2016-02-06T11:48:58Z</time>
      </trkpt>
      <trkpt lat="44.911" lon="6.71075">
        <ele>2541.86</ele>
        <time>2016-02-06T11:49:21Z</time>
      </trkpt>
      <trkpt lat="44.91096" lon="6.71075">
        <ele>2540.9</ele>
        <time>2016-02-06T11:49:34Z</time>
      </trkpt>
      <trkpt lat="44.91098" lon="6.71073">
        <ele>2542.34</ele>
        <time>2016-02-06T11:49:36Z</time>
      </trkpt>
      <trkpt lat="44.911" lon="6.7107">
        <ele>2543.31</ele>
        <time>2016-02-06T11:49:55Z</time>
      </trkpt>
      <trkpt lat="44.911" lon="6.71068">
        <ele>2543.79</ele>
        <time>2016-02-06T11:50:11Z</time>
      </trkpt>
      <trkpt lat="44.911" lon="6.71069">
        <ele>2545.23</ele>
        <time>2016-02-06T11:50:41Z</time>
      </trkpt>
      <trkpt lat="44.911" lon="6.7107">
        <ele>2545.71</ele>
        <time>2016-02-06T11:50:51Z</time>
      </trkpt>
      <trkpt lat="44.911" lon="6.7107">
        <ele>2543.31</ele>
        <time>2016-02-06T11:50:54Z</time>
      </trkpt>
      <trkpt lat="44.911" lon="6.71069">
        <ele>2544.27</ele>
        <time>2016-02-06T11:51:00Z</time>
      </trkpt>
      <trkpt lat="44.91099" lon="6.7107">
        <ele>2542.82</ele>
        <time>2016-02-06T11:51:05Z</time>
      </trkpt>
      <trkpt lat="44.91099" lon="6.7107">
        <ele>2544.75</ele>
        <time>2016-02-06T11:51:12Z</time>
      </trkpt>
      <trkpt lat="44.91099" lon="6.71069">
        <ele>2541.38</ele>
        <time>2016-02-06T11:51:28Z</time>
      </trkpt>
      <trkpt lat="44.91097" lon="6.71071">
        <ele>2538.98</ele>
        <time>2016-02-06T11:51:46Z</time>
      </trkpt>
      <trkpt lat="44.91086" lon="6.7107">
        <ele>2538.02</ele>
        <time>2016-02-06T11:51:51Z</time>
      </trkpt>
      <trkpt lat="44.91064" lon="6.71055">
        <ele>2536.58</ele>
        <time>2016-02-06T11:52:02Z</time>
      </trkpt>
      <trkpt lat="44.91062" lon="6.71058">
        <ele>2535.61</ele>
        <time>2016-02-06T11:52:13Z</time>
      </trkpt>
      <trkpt lat="44.91059" lon="6.71059">
        <ele>2535.61</ele>
        <time>2016-02-06T11:52:30Z</time>
      </trkpt>
      <trkpt lat="44.91059" lon="6.7106">
        <ele>2535.13</ele>
        <time>2016-02-06T11:52:33Z</time>
      </trkpt>
      <trkpt lat="44.91049" lon="6.71067">
        <ele>2529.37</ele>
        <time>2016-02-06T11:52:39Z</time>
      </trkpt>
      <trkpt lat="44.9105" lon="6.71071">
        <ele>2531.29</ele>
        <time>2016-02-06T11:52:40Z</time>
      </trkpt>
      <trkpt lat="44.9105" lon="6.71079">
        <ele>2524.56</ele>
        <time>2016-02-06T11:52:42Z</time>
      </trkpt>
      <trkpt lat="44.91043" lon="6.71077">
        <ele>2519.75</ele>
        <time>2016-02-06T11:52:45Z</time>
      </trkpt>
      <trkpt lat="44.91043" lon="6.71079">
        <ele>2523.12</ele>
        <time>2016-02-06T11:52:46Z</time>
      </trkpt>
      <trkpt lat="44.91045" lon="6.71084">
        <ele>2524.56</ele>
        <time>2016-02-06T11:52:49Z</time>
      </trkpt>
      <trkpt lat="44.91046" lon="6.7109">
        <ele>2522.16</ele>
        <time>2016-02-06T11:52:57Z</time>
      </trkpt>
      <trkpt lat="44.91044" lon="6.71093">
        <ele>2519.75</ele>
        <time>2016-02-06T11:52:59Z</time>
      </trkpt>
      <trkpt lat="44.91042" lon="6.71093">
        <ele>2517.83</ele>
        <time>2016-02-06T11:53:00Z</time>
      </trkpt>
      <trkpt lat="44.91041" lon="6.71103">
        <ele>2517.83</ele>
        <time>2016-02-06T11:53:04Z</time>
      </trkpt>
      <trkpt lat="44.9105" lon="6.7113">
        <ele>2514.47</ele>
        <time>2016-02-06T11:53:12Z</time>
      </trkpt>
      <trkpt lat="44.91056" lon="6.71145">
        <ele>2514.47</ele>
        <time>2016-02-06T11:53:21Z</time>
      </trkpt>
      <trkpt lat="44.91062" lon="6.71156">
        <ele>2510.62</ele>
        <time>2016-02-06T11:53:38Z</time>
      </trkpt>
      <trkpt lat="44.91062" lon="6.71157">
        <ele>2512.06</ele>
        <time>2016-02-06T11:53:42Z</time>
      </trkpt>
      <trkpt lat="44.91064" lon="6.71159">
        <ele>2511.58</ele>
        <time>2016-02-06T11:53:57Z</time>
      </trkpt>
      <trkpt lat="44.91064" lon="6.7116">
        <ele>2511.58</ele>
        <time>2016-02-06T11:53:58Z</time>
      </trkpt>
      <trkpt lat="44.91064" lon="6.71166">
        <ele>2505.33</ele>
        <time>2016-02-06T11:54:02Z</time>
      </trkpt>
      <trkpt lat="44.91059" lon="6.71176">
        <ele>2499.08</ele>
        <time>2016-02-06T11:54:09Z</time>
      </trkpt>
      <trkpt lat="44.91058" lon="6.71176">
        <ele>2499.57</ele>
        <time>2016-02-06T11:54:10Z</time>
      </trkpt>
      <trkpt lat="44.91058" lon="6.71183">
        <ele>2499.57</ele>
        <time>2016-02-06T11:54:13Z</time>
      </trkpt>
      <trkpt lat="44.91061" lon="6.7119">
        <ele>2497.16</ele>
        <time>2016-02-06T11:54:16Z</time>
      </trkpt>
      <trkpt lat="44.91062" lon="6.71191">
        <ele>2497.64</ele>
        <time>2016-02-06T11:54:30Z</time>
      </trkpt>
      <trkpt lat="44.91059" lon="6.7119">
        <ele>2496.2</ele>
        <time>2016-02-06T11:54:50Z</time>
      </trkpt>
      <trkpt lat="44.91051" lon="6.71183">
        <ele>2495.24</ele>
        <time>2016-02-06T11:54:59Z</time>
      </trkpt>
      <trkpt lat="44.91044" lon="6.71179">
        <ele>2492.84</ele>
        <time>2016-02-06T11:55:03Z</time>
      </trkpt>
      <trkpt lat="44.91041" lon="6.71177">
        <ele>2494.28</ele>
        <time>2016-02-06T11:55:04Z</time>
      </trkpt>
      <trkpt lat="44.9102" lon="6.71161">
        <ele>2491.39</ele>
        <time>2016-02-06T11:55:14Z</time>
      </trkpt>
      <trkpt lat="44.91006" lon="6.71149">
        <ele>2488.99</ele>
        <time>2016-02-06T11:55:21Z</time>
      </trkpt>
      <trkpt lat="44.91003" lon="6.71144">
        <ele>2486.59</ele>
        <time>2016-02-06T11:55:23Z</time>
      </trkpt>
      <trkpt lat="44.91001" lon="6.71143">
        <ele>2486.59</ele>
        <time>2016-02-06T11:55:33Z</time>
      </trkpt>
      <trkpt lat="44.9099" lon="6.71117">
        <ele>2487.07</ele>
        <time>2016-02-06T11:55:43Z</time>
      </trkpt>
      <trkpt lat="44.90984" lon="6.711">
        <ele>2483.22</ele>
        <time>2016-02-06T11:55:47Z</time>
      </trkpt>
      <trkpt lat="44.90971" lon="6.71074">
        <ele>2480.82</ele>
        <time>2016-02-06T11:55:57Z</time>
      </trkpt>
      <trkpt lat="44.90967" lon="6.71068">
        <ele>2480.82</ele>
        <time>2016-02-06T11:56:08Z</time>
      </trkpt>
      <trkpt lat="44.90957" lon="6.71061">
        <ele>2478.9</ele>
        <time>2016-02-06T11:56:13Z</time>
      </trkpt>
      <trkpt lat="44.90942" lon="6.71053">
        <ele>2475.53</ele>
        <time>2016-02-06T11:56:22Z</time>
      </trkpt>
      <trkpt lat="44.90942" lon="6.71053">
        <ele>2475.05</ele>
        <time>2016-02-06T11:56:23Z</time>
      </trkpt>
      <trkpt lat="44.90941" lon="6.71052">
        <ele>2475.53</ele>
        <time>2016-02-06T11:56:25Z</time>
      </trkpt>
      <trkpt lat="44.90934" lon="6.71047">
        <ele>2473.61</ele>
        <time>2016-02-06T11:56:30Z</time>
      </trkpt>
      <trkpt lat="44.9093" lon="6.71044">
        <ele>2472.17</ele>
        <time>2016-02-06T11:56:33Z</time>
      </trkpt>
      <trkpt lat="44.90923" lon="6.71037">
        <ele>2472.17</ele>
        <time>2016-02-06T11:56:48Z</time>
      </trkpt>
      <trkpt lat="44.90909" lon="6.71013">
        <ele>2468.8</ele>
        <time>2016-02-06T11:56:55Z</time>
      </trkpt>
      <trkpt lat="44.90905" lon="6.7101">
        <ele>2468.32</ele>
        <time>2016-02-06T11:57:02Z</time>
      </trkpt>
      <trkpt lat="44.90904" lon="6.71011">
        <ele>2467.36</ele>
        <time>2016-02-06T11:57:25Z</time>
      </trkpt>
      <trkpt lat="44.90884" lon="6.70996">
        <ele>2464.96</ele>
        <time>2016-02-06T11:57:35Z</time>
      </trkpt>
      <trkpt lat="44.90883" lon="6.70994">
        <ele>2464</ele>
        <time>2016-02-06T11:57:37Z</time>
      </trkpt>
      <trkpt lat="44.90881" lon="6.70993">
        <ele>2464</ele>
        <time>2016-02-06T11:57:39Z</time>
      </trkpt>
      <trkpt lat="44.9086" lon="6.7097">
        <ele>2461.11</ele>
        <time>2016-02-06T11:57:51Z</time>
      </trkpt>
      <trkpt lat="44.90853" lon="6.70965">
        <ele>2460.15</ele>
        <time>2016-02-06T11:58:02Z</time>
      </trkpt>
      <trkpt lat="44.90838" lon="6.70942">
        <ele>2456.79</ele>
        <time>2016-02-06T11:58:13Z</time>
      </trkpt>
      <trkpt lat="44.90838" lon="6.70941">
        <ele>2455.82</ele>
        <time>2016-02-06T11:58:24Z</time>
      </trkpt>
      <trkpt lat="44.90831" lon="6.70919">
        <ele>2454.86</ele>
        <time>2016-02-06T11:58:36Z</time>
      </trkpt>
      <trkpt lat="44.90828" lon="6.70912">
        <ele>2454.38</ele>
        <time>2016-02-06T11:58:45Z</time>
      </trkpt>
      <trkpt lat="44.90828" lon="6.70911">
        <ele>2454.38</ele>
        <time>2016-02-06T11:58:48Z</time>
      </trkpt>
      <trkpt lat="44.90817" lon="6.70897">
        <ele>2452.94</ele>
        <time>2016-02-06T11:58:54Z</time>
      </trkpt>
      <trkpt lat="44.90794" lon="6.70882">
        <ele>2451.5</ele>
        <time>2016-02-06T11:59:06Z</time>
      </trkpt>
      <trkpt lat="44.9077" lon="6.70869">
        <ele>2450.54</ele>
        <time>2016-02-06T11:59:15Z</time>
      </trkpt>
      <trkpt lat="44.90749" lon="6.70853">
        <ele>2447.17</ele>
        <time>2016-02-06T11:59:23Z</time>
      </trkpt>
      <trkpt lat="44.90719" lon="6.70849">
        <ele>2444.77</ele>
        <time>2016-02-06T11:59:35Z</time>
      </trkpt>
      <trkpt lat="44.907" lon="6.70834">
        <ele>2443.81</ele>
        <time>2016-02-06T11:59:45Z</time>
      </trkpt>
      <trkpt lat="44.90688" lon="6.70822">
        <ele>2440.44</ele>
        <time>2016-02-06T11:59:53Z</time>
      </trkpt>
      <trkpt lat="44.90676" lon="6.70803">
        <ele>2437.08</ele>
        <time>2016-02-06T11:59:59Z</time>
      </trkpt>
      <trkpt lat="44.90675" lon="6.70799">
        <ele>2436.6</ele>
        <time>2016-02-06T12:00:01Z</time>
      </trkpt>
      <trkpt lat="44.90672" lon="6.70795">
        <ele>2436.12</ele>
        <time>2016-02-06T12:00:13Z</time>
      </trkpt>
      <trkpt lat="44.90671" lon="6.70795">
        <ele>2436.12</ele>
        <time>2016-02-06T12:00:15Z</time>
      </trkpt>
      <trkpt lat="44.90666" lon="6.70791">
        <ele>2435.64</ele>
        <time>2016-02-06T12:00:27Z</time>
      </trkpt>
      <trkpt lat="44.90666" lon="6.70791">
        <ele>2435.64</ele>
        <time>2016-02-06T12:00:29Z</time>
      </trkpt>
      <trkpt lat="44.90654" lon="6.70784">
        <ele>2432.27</ele>
        <time>2016-02-06T12:00:41Z</time>
      </trkpt>
      <trkpt lat="44.90652" lon="6.70781">
        <ele>2433.23</ele>
        <time>2016-02-06T12:00:51Z</time>
      </trkpt>
      <trkpt lat="44.90652" lon="6.70781">
        <ele>2432.75</ele>
        <time>2016-02-06T12:00:53Z</time>
      </trkpt>
      <trkpt lat="44.90631" lon="6.70767">
        <ele>2429.39</ele>
        <time>2016-02-06T12:01:04Z</time>
      </trkpt>
      <trkpt lat="44.90621" lon="6.70762">
        <ele>2428.91</ele>
        <time>2016-02-06T12:01:09Z</time>
      </trkpt>
      <trkpt lat="44.90613" lon="6.70769">
        <ele>2428.43</ele>
        <time>2016-02-06T12:01:13Z</time>
      </trkpt>
      <trkpt lat="44.90606" lon="6.70773">
        <ele>2426.02</ele>
        <time>2016-02-06T12:01:15Z</time>
      </trkpt>
      <trkpt lat="44.90598" lon="6.70774">
        <ele>2424.1</ele>
        <time>2016-02-06T12:01:21Z</time>
      </trkpt>
      <trkpt lat="44.90588" lon="6.70771">
        <ele>2424.58</ele>
        <time>2016-02-06T12:01:33Z</time>
      </trkpt>
      <trkpt lat="44.90589" lon="6.70769">
        <ele>2423.62</ele>
        <time>2016-02-06T12:01:37Z</time>
      </trkpt>
      <trkpt lat="44.90581" lon="6.70769">
        <ele>2420.74</ele>
        <time>2016-02-06T12:01:41Z</time>
      </trkpt>
      <trkpt lat="44.90554" lon="6.70761">
        <ele>2416.41</ele>
        <time>2016-02-06T12:01:50Z</time>
      </trkpt>
      <trkpt lat="44.90539" lon="6.70751">
        <ele>2414.49</ele>
        <time>2016-02-06T12:01:55Z</time>
      </trkpt>
      <trkpt lat="44.90532" lon="6.70747">
        <ele>2411.6</ele>
        <time>2016-02-06T12:01:57Z</time>
      </trkpt>
      <trkpt lat="44.90515" lon="6.7072">
        <ele>2411.12</ele>
        <time>2016-02-06T12:02:06Z</time>
      </trkpt>
      <trkpt lat="44.90506" lon="6.70708">
        <ele>2409.68</ele>
        <time>2016-02-06T12:02:10Z</time>
      </trkpt>
      <trkpt lat="44.90495" lon="6.70691">
        <ele>2406.32</ele>
        <time>2016-02-06T12:02:17Z</time>
      </trkpt>
      <trkpt lat="44.90493" lon="6.70689">
        <ele>2406.32</ele>
        <time>2016-02-06T12:02:18Z</time>
      </trkpt>
      <trkpt lat="44.90474" lon="6.70666">
        <ele>2403.43</ele>
        <time>2016-02-06T12:02:31Z</time>
      </trkpt>
      <trkpt lat="44.90474" lon="6.70664">
        <ele>2403.91</ele>
        <time>2016-02-06T12:02:35Z</time>
      </trkpt>
      <trkpt lat="44.90472" lon="6.70653">
        <ele>2402.95</ele>
        <time>2016-02-06T12:02:40Z</time>
      </trkpt>
      <trkpt lat="44.90469" lon="6.70637">
        <ele>2403.43</ele>
        <time>2016-02-06T12:02:54Z</time>
      </trkpt>
      <trkpt lat="44.90471" lon="6.70633">
        <ele>2402.47</ele>
        <time>2016-02-06T12:03:07Z</time>
      </trkpt>
      <trkpt lat="44.90474" lon="6.70629">
        <ele>2401.99</ele>
        <time>2016-02-06T12:03:21Z</time>
      </trkpt>
      <trkpt lat="44.90478" lon="6.70626">
        <ele>2401.51</ele>
        <time>2016-02-06T12:03:35Z</time>
      </trkpt>
      <trkpt lat="44.90482" lon="6.70623">
        <ele>2401.03</ele>
        <time>2016-02-06T12:03:56Z</time>
      </trkpt>
      <trkpt lat="44.90484" lon="6.70621">
        <ele>2400.55</ele>
        <time>2016-02-06T12:04:02Z</time>
      </trkpt>
      <trkpt lat="44.90493" lon="6.70608">
        <ele>2401.03</ele>
        <time>2016-02-06T12:04:11Z</time>
      </trkpt>
      <trkpt lat="44.90493" lon="6.70607">
        <ele>2400.55</ele>
        <time>2016-02-06T12:04:27Z</time>
      </trkpt>
      <trkpt lat="44.90492" lon="6.70608">
        <ele>2401.03</ele>
        <time>2016-02-06T12:04:48Z</time>
      </trkpt>
      <trkpt lat="44.90491" lon="6.70612">
        <ele>2398.63</ele>
        <time>2016-02-06T12:05:03Z</time>
      </trkpt>
      <trkpt lat="44.90491" lon="6.70613">
        <ele>2400.55</ele>
        <time>2016-02-06T12:05:15Z</time>
      </trkpt>
      <trkpt lat="44.90488" lon="6.70617">
        <ele>2400.07</ele>
        <time>2016-02-06T12:05:34Z</time>
      </trkpt>
      <trkpt lat="44.9049" lon="6.70616">
        <ele>2400.07</ele>
        <time>2016-02-06T12:06:01Z</time>
      </trkpt>
      <trkpt lat="44.90489" lon="6.70618">
        <ele>2401.03</ele>
        <time>2016-02-06T12:06:20Z</time>
      </trkpt>
      <trkpt lat="44.90489" lon="6.70617">
        <ele>2400.55</ele>
        <time>2016-02-06T12:06:40Z</time>
      </trkpt>
      <trkpt lat="44.90487" lon="6.70616">
        <ele>2399.59</ele>
        <time>2016-02-06T12:06:49Z</time>
      </trkpt>
      <trkpt lat="44.90485" lon="6.70616">
        <ele>2399.59</ele>
        <time>2016-02-06T12:06:51Z</time>
      </trkpt>
      <trkpt lat="44.90473" lon="6.70615">
        <ele>2397.67</ele>
        <time>2016-02-06T12:06:57Z</time>
      </trkpt>
      <trkpt lat="44.90469" lon="6.70617">
        <ele>2397.18</ele>
        <time>2016-02-06T12:06:59Z</time>
      </trkpt>
      <trkpt lat="44.90462" lon="6.70621">
        <ele>2395.26</ele>
        <time>2016-02-06T12:07:02Z</time>
      </trkpt>
      <trkpt lat="44.9046" lon="6.70624">
        <ele>2393.82</ele>
        <time>2016-02-06T12:07:04Z</time>
      </trkpt>
      <trkpt lat="44.90457" lon="6.70637">
        <ele>2389.49</ele>
        <time>2016-02-06T12:07:17Z</time>
      </trkpt>
      <trkpt lat="44.90456" lon="6.70637">
        <ele>2389.01</ele>
        <time>2016-02-06T12:07:18Z</time>
      </trkpt>
      <trkpt lat="44.90457" lon="6.70637">
        <ele>2392.38</ele>
        <time>2016-02-06T12:07:19Z</time>
      </trkpt>
      <trkpt lat="44.90456" lon="6.70637">
        <ele>2391.42</ele>
        <time>2016-02-06T12:07:20Z</time>
      </trkpt>
      <trkpt lat="44.90456" lon="6.70639">
        <ele>2392.38</ele>
        <time>2016-02-06T12:07:24Z</time>
      </trkpt>
      <trkpt lat="44.90455" lon="6.70649">
        <ele>2389.49</ele>
        <time>2016-02-06T12:07:27Z</time>
      </trkpt>
      <trkpt lat="44.90454" lon="6.70666">
        <ele>2386.13</ele>
        <time>2016-02-06T12:07:30Z</time>
      </trkpt>
      <trkpt lat="44.90456" lon="6.70676">
        <ele>2387.09</ele>
        <time>2016-02-06T12:07:32Z</time>
      </trkpt>
      <trkpt lat="44.90462" lon="6.70698">
        <ele>2385.17</ele>
        <time>2016-02-06T12:07:38Z</time>
      </trkpt>
      <trkpt lat="44.90465" lon="6.70712">
        <ele>2385.65</ele>
        <time>2016-02-06T12:07:48Z</time>
      </trkpt>
      <trkpt lat="44.90473" lon="6.70736">
        <ele>2384.21</ele>
        <time>2016-02-06T12:07:51Z</time>
      </trkpt>
      <trkpt lat="44.90476" lon="6.7076">
        <ele>2379.88</ele>
        <time>2016-02-06T12:07:54Z</time>
      </trkpt>
      <trkpt lat="44.90477" lon="6.70786">
        <ele>2378.44</ele>
        <time>2016-02-06T12:07:57Z</time>
      </trkpt>
      <trkpt lat="44.90477" lon="6.70793">
        <ele>2378.92</ele>
        <time>2016-02-06T12:07:58Z</time>
      </trkpt>
      <trkpt lat="44.90486" lon="6.70826">
        <ele>2378.44</ele>
        <time>2016-02-06T12:08:07Z</time>
      </trkpt>
      <trkpt lat="44.90485" lon="6.70826">
        <ele>2380.36</ele>
        <time>2016-02-06T12:08:28Z</time>
      </trkpt>
      <trkpt lat="44.90486" lon="6.70826">
        <ele>2380.36</ele>
        <time>2016-02-06T12:08:37Z</time>
      </trkpt>
      <trkpt lat="44.90494" lon="6.70837">
        <ele>2377.48</ele>
        <time>2016-02-06T12:08:41Z</time>
      </trkpt>
      <trkpt lat="44.90499" lon="6.70855">
        <ele>2372.19</ele>
        <time>2016-02-06T12:08:44Z</time>
      </trkpt>
      <trkpt lat="44.90503" lon="6.70871">
        <ele>2367.38</ele>
        <time>2016-02-06T12:08:46Z</time>
      </trkpt>
      <trkpt lat="44.90505" lon="6.70879">
        <ele>2365.46</ele>
        <time>2016-02-06T12:08:47Z</time>
      </trkpt>
      <trkpt lat="44.9052" lon="6.70908">
        <ele>2357.77</ele>
        <time>2016-02-06T12:08:51Z</time>
      </trkpt>
      <trkpt lat="44.90536" lon="6.70928">
        <ele>2352.96</ele>
        <time>2016-02-06T12:08:55Z</time>
      </trkpt>
      <trkpt lat="44.90545" lon="6.70937">
        <ele>2352</ele>
        <time>2016-02-06T12:08:57Z</time>
      </trkpt>
      <trkpt lat="44.90552" lon="6.70949">
        <ele>2352</ele>
        <time>2016-02-06T12:09:00Z</time>
      </trkpt>
      <trkpt lat="44.90563" lon="6.70974">
        <ele>2347.68</ele>
        <time>2016-02-06T12:09:07Z</time>
      </trkpt>
      <trkpt lat="44.9057" lon="6.70987">
        <ele>2344.31</ele>
        <time>2016-02-06T12:09:11Z</time>
      </trkpt>
      <trkpt lat="44.90577" lon="6.70997">
        <ele>2339.99</ele>
        <time>2016-02-06T12:09:15Z</time>
      </trkpt>
      <trkpt lat="44.90578" lon="6.71002">
        <ele>2338.54</ele>
        <time>2016-02-06T12:09:16Z</time>
      </trkpt>
      <trkpt lat="44.90584" lon="6.71004">
        <ele>2337.1</ele>
        <time>2016-02-06T12:09:19Z</time>
      </trkpt>
      <trkpt lat="44.90591" lon="6.71009">
        <ele>2333.26</ele>
        <time>2016-02-06T12:09:22Z</time>
      </trkpt>
      <trkpt lat="44.90594" lon="6.71006">
        <ele>2332.78</ele>
        <time>2016-02-06T12:09:31Z</time>
      </trkpt>
      <trkpt lat="44.90596" lon="6.71005">
        <ele>2332.3</ele>
        <time>2016-02-06T12:09:50Z</time>
      </trkpt>
      <trkpt lat="44.90595" lon="6.71005">
        <ele>2332.3</ele>
        <time>2016-02-06T12:10:12Z</time>
      </trkpt>
      <trkpt lat="44.90595" lon="6.71008">
        <ele>2332.78</ele>
        <time>2016-02-06T12:10:26Z</time>
      </trkpt>
      <trkpt lat="44.90594" lon="6.71006">
        <ele>2332.3</ele>
        <time>2016-02-06T12:10:37Z</time>
      </trkpt>
      <trkpt lat="44.90594" lon="6.71005">
        <ele>2332.3</ele>
        <time>2016-02-06T12:10:51Z</time>
      </trkpt>
      <trkpt lat="44.90592" lon="6.71007">
        <ele>2331.81</ele>
        <time>2016-02-06T12:11:14Z</time>
      </trkpt>
      <trkpt lat="44.9059" lon="6.71008">
        <ele>2331.81</ele>
        <time>2016-02-06T12:11:42Z</time>
      </trkpt>
      <trkpt lat="44.90591" lon="6.71008">
        <ele>2332.3</ele>
        <time>2016-02-06T12:12:13Z</time>
      </trkpt>
      <trkpt lat="44.90592" lon="6.71007">
        <ele>2331.81</ele>
        <time>2016-02-06T12:12:39Z</time>
      </trkpt>
      <trkpt lat="44.90594" lon="6.71008">
        <ele>2331.81</ele>
        <time>2016-02-06T12:13:10Z</time>
      </trkpt>
      <trkpt lat="44.90593" lon="6.7101">
        <ele>2332.3</ele>
        <time>2016-02-06T12:13:33Z</time>
      </trkpt>
      <trkpt lat="44.90595" lon="6.71005">
        <ele>2332.3</ele>
        <time>2016-02-06T12:13:58Z</time>
      </trkpt>
      <trkpt lat="44.90595" lon="6.71005">
        <ele>2331.81</ele>
        <time>2016-02-06T12:14:26Z</time>
      </trkpt>
      <trkpt lat="44.90596" lon="6.71006">
        <ele>2331.81</ele>
        <time>2016-02-06T12:14:50Z</time>
      </trkpt>
      <trkpt lat="44.90594" lon="6.71007">
        <ele>2331.81</ele>
        <time>2016-02-06T12:15:22Z</time>
      </trkpt>
      <trkpt lat="44.90597" lon="6.71009">
        <ele>2331.81</ele>
        <time>2016-02-06T12:16:00Z</time>
      </trkpt>
      <trkpt lat="44.90596" lon="6.71009">
        <ele>2331.81</ele>
        <time>2016-02-06T12:16:36Z</time>
      </trkpt>
      <trkpt lat="44.90597" lon="6.71007">
        <ele>2331.33</ele>
        <time>2016-02-06T12:17:07Z</time>
      </trkpt>
      <trkpt lat="44.90596" lon="6.71006">
        <ele>2331.33</ele>
        <time>2016-02-06T12:17:46Z</time>
      </trkpt>
      <trkpt lat="44.90595" lon="6.71004">
        <ele>2331.81</ele>
        <time>2016-02-06T12:18:12Z</time>
      </trkpt>
      <trkpt lat="44.90595" lon="6.71005">
        <ele>2331.33</ele>
        <time>2016-02-06T12:18:43Z</time>
      </trkpt>
      <trkpt lat="44.90595" lon="6.71006">
        <ele>2330.85</ele>
        <time>2016-02-06T12:19:21Z</time>
      </trkpt>
      <trkpt lat="44.90595" lon="6.71006">
        <ele>2330.85</ele>
        <time>2016-02-06T12:19:59Z</time>
      </trkpt>
      <trkpt lat="44.90595" lon="6.71006">
        <ele>2330.85</ele>
        <time>2016-02-06T12:20:26Z</time>
      </trkpt>
      <trkpt lat="44.90596" lon="6.71008">
        <ele>2330.37</ele>
        <time>2016-02-06T12:21:04Z</time>
      </trkpt>
      <trkpt lat="44.90595" lon="6.71008">
        <ele>2330.37</ele>
        <time>2016-02-06T12:21:39Z</time>
      </trkpt>
      <trkpt lat="44.90595" lon="6.71009">
        <ele>2330.85</ele>
        <time>2016-02-06T12:22:20Z</time>
      </trkpt>
      <trkpt lat="44.90594" lon="6.71008">
        <ele>2330.85</ele>
        <time>2016-02-06T12:22:52Z</time>
      </trkpt>
      <trkpt lat="44.90594" lon="6.71008">
        <ele>2330.37</ele>
        <time>2016-02-06T12:23:29Z</time>
      </trkpt>
      <trkpt lat="44.90595" lon="6.71009">
        <ele>2330.37</ele>
        <time>2016-02-06T12:23:59Z</time>
      </trkpt>
      <trkpt lat="44.90594" lon="6.71008">
        <ele>2330.85</ele>
        <time>2016-02-06T12:24:32Z</time>
      </trkpt>
      <trkpt lat="44.90595" lon="6.71008">
        <ele>2329.89</ele>
        <time>2016-02-06T12:25:08Z</time>
      </trkpt>
      <trkpt lat="44.90596" lon="6.71007">
        <ele>2329.41</ele>
        <time>2016-02-06T12:25:38Z</time>
      </trkpt>
      <trkpt lat="44.90595" lon="6.71007">
        <ele>2329.89</ele>
        <time>2016-02-06T12:26:08Z</time>
      </trkpt>
      <trkpt lat="44.90595" lon="6.71008">
        <ele>2329.89</ele>
        <time>2016-02-06T12:26:42Z</time>
      </trkpt>
      <trkpt lat="44.90595" lon="6.71007">
        <ele>2330.37</ele>
        <time>2016-02-06T12:27:24Z</time>
      </trkpt>
      <trkpt lat="44.90594" lon="6.71006">
        <ele>2330.37</ele>
        <time>2016-02-06T12:27:51Z</time>
      </trkpt>
      <trkpt lat="44.90594" lon="6.71005">
        <ele>2330.85</ele>
        <time>2016-02-06T12:28:27Z</time>
      </trkpt>
      <trkpt lat="44.90594" lon="6.71005">
        <ele>2330.85</ele>
        <time>2016-02-06T12:28:56Z</time>
      </trkpt>
      <trkpt lat="44.90594" lon="6.71006">
        <ele>2330.85</ele>
        <time>2016-02-06T12:29:29Z</time>
      </trkpt>
      <trkpt lat="44.90594" lon="6.71005">
        <ele>2330.37</ele>
        <time>2016-02-06T12:29:57Z</time>
      </trkpt>
      <trkpt lat="44.90594" lon="6.71003">
        <ele>2329.89</ele>
        <time>2016-02-06T12:30:27Z</time>
      </trkpt>
      <trkpt lat="44.90594" lon="6.71004">
        <ele>2329.89</ele>
        <time>2016-02-06T12:30:56Z</time>
      </trkpt>
      <trkpt lat="44.90594" lon="6.71004">
        <ele>2330.37</ele>
        <time>2016-02-06T12:31:20Z</time>
      </trkpt>
      <trkpt lat="44.90594" lon="6.71002">
        <ele>2329.89</ele>
        <time>2016-02-06T12:31:52Z</time>
      </trkpt>
      <trkpt lat="44.90594" lon="6.71003">
        <ele>2329.89</ele>
        <time>2016-02-06T12:32:20Z</time>
      </trkpt>
      <trkpt lat="44.90593" lon="6.71003">
        <ele>2329.89</ele>
        <time>2016-02-06T12:32:50Z</time>
      </trkpt>
      <trkpt lat="44.90593" lon="6.71002">
        <ele>2329.89</ele>
        <time>2016-02-06T12:33:23Z</time>
      </trkpt>
      <trkpt lat="44.90593" lon="6.71003">
        <ele>2330.85</ele>
        <time>2016-02-06T12:33:55Z</time>
      </trkpt>
      <trkpt lat="44.90594" lon="6.71004">
        <ele>2330.85</ele>
        <time>2016-02-06T12:34:25Z</time>
      </trkpt>
      <trkpt lat="44.90595" lon="6.71004">
        <ele>2330.37</ele>
        <time>2016-02-06T12:35:00Z</time>
      </trkpt>
      <trkpt lat="44.90596" lon="6.71004">
        <ele>2330.37</ele>
        <time>2016-02-06T12:35:35Z</time>
      </trkpt>
      <trkpt lat="44.90595" lon="6.71006">
        <ele>2330.85</ele>
        <time>2016-02-06T12:36:09Z</time>
      </trkpt>
      <trkpt lat="44.90595" lon="6.71006">
        <ele>2330.37</ele>
        <time>2016-02-06T12:36:41Z</time>
      </trkpt>
      <trkpt lat="44.90595" lon="6.71004">
        <ele>2330.37</ele>
        <time>2016-02-06T12:37:07Z</time>
      </trkpt>
      <trkpt lat="44.90595" lon="6.71004">
        <ele>2330.85</ele>
        <time>2016-02-06T12:37:39Z</time>
      </trkpt>
      <trkpt lat="44.90594" lon="6.71004">
        <ele>2330.85</ele>
        <time>2016-02-06T12:38:12Z</time>
      </trkpt>
      <trkpt lat="44.90595" lon="6.71004">
        <ele>2330.85</ele>
        <time>2016-02-06T12:38:51Z</time>
      </trkpt>
      <trkpt lat="44.90595" lon="6.71005">
        <ele>2331.33</ele>
        <time>2016-02-06T12:39:21Z</time>
      </trkpt>
      <trkpt lat="44.90594" lon="6.71005">
        <ele>2331.33</ele>
        <time>2016-02-06T12:39:52Z</time>
      </trkpt>
      <trkpt lat="44.90594" lon="6.71005">
        <ele>2331.81</ele>
        <time>2016-02-06T12:40:27Z</time>
      </trkpt>
      <trkpt lat="44.90595" lon="6.71003">
        <ele>2331.81</ele>
        <time>2016-02-06T12:40:59Z</time>
      </trkpt>
      <trkpt lat="44.90594" lon="6.71003">
        <ele>2332.3</ele>
        <time>2016-02-06T12:41:23Z</time>
      </trkpt>
      <trkpt lat="44.90594" lon="6.71004">
        <ele>2331.33</ele>
        <time>2016-02-06T12:42:01Z</time>
      </trkpt>
      <trkpt lat="44.90595" lon="6.71004">
        <ele>2330.37</ele>
        <time>2016-02-06T12:42:12Z</time>
      </trkpt>
      <trkpt lat="44.90595" lon="6.71004">
        <ele>2331.33</ele>
        <time>2016-02-06T12:42:46Z</time>
      </trkpt>
      <trkpt lat="44.90595" lon="6.71004">
        <ele>2331.33</ele>
        <time>2016-02-06T12:43:13Z</time>
      </trkpt>
      <trkpt lat="44.90595" lon="6.71003">
        <ele>2331.33</ele>
        <time>2016-02-06T12:43:43Z</time>
      </trkpt>
      <trkpt lat="44.90595" lon="6.71004">
        <ele>2331.81</ele>
        <time>2016-02-06T12:44:07Z</time>
      </trkpt>
      <trkpt lat="44.90595" lon="6.71004">
        <ele>2330.85</ele>
        <time>2016-02-06T12:44:32Z</time>
      </trkpt>
      <trkpt lat="44.90595" lon="6.71004">
        <ele>2331.33</ele>
        <time>2016-02-06T12:45:03Z</time>
      </trkpt>
      <trkpt lat="44.90594" lon="6.71003">
        <ele>2331.81</ele>
        <time>2016-02-06T12:45:27Z</time>
      </trkpt>
      <trkpt lat="44.90593" lon="6.71003">
        <ele>2331.81</ele>
        <time>2016-02-06T12:45:52Z</time>
      </trkpt>
      <trkpt lat="44.90593" lon="6.71002">
        <ele>2331.81</ele>
        <time>2016-02-06T12:46:25Z</time>
      </trkpt>
      <trkpt lat="44.90594" lon="6.71002">
        <ele>2331.33</ele>
        <time>2016-02-06T12:46:52Z</time>
      </trkpt>
      <trkpt lat="44.90594" lon="6.71003">
        <ele>2331.81</ele>
        <time>2016-02-06T12:47:27Z</time>
      </trkpt>
      <trkpt lat="44.90594" lon="6.71004">
        <ele>2331.81</ele>
        <time>2016-02-06T12:47:54Z</time>
      </trkpt>
      <trkpt lat="44.90592" lon="6.71004">
        <ele>2331.33</ele>
        <time>2016-02-06T12:48:19Z</time>
      </trkpt>
      <trkpt lat="44.90593" lon="6.71003">
        <ele>2332.78</ele>
        <time>2016-02-06T12:48:45Z</time>
      </trkpt>
      <trkpt lat="44.90594" lon="6.71003">
        <ele>2331.33</ele>
        <time>2016-02-06T12:49:15Z</time>
      </trkpt>
      <trkpt lat="44.90594" lon="6.71003">
        <ele>2331.81</ele>
        <time>2016-02-06T12:49:46Z</time>
      </trkpt>
      <trkpt lat="44.90594" lon="6.71003">
        <ele>2330.85</ele>
        <time>2016-02-06T12:50:16Z</time>
      </trkpt>
      <trkpt lat="44.90595" lon="6.71003">
        <ele>2331.33</ele>
        <time>2016-02-06T12:50:58Z</time>
      </trkpt>
      <trkpt lat="44.90595" lon="6.71003">
        <ele>2331.33</ele>
        <time>2016-02-06T12:51:26Z</time>
      </trkpt>
      <trkpt lat="44.90597" lon="6.71003">
        <ele>2331.81</ele>
        <time>2016-02-06T12:51:52Z</time>
      </trkpt>
      <trkpt lat="44.90597" lon="6.71002">
        <ele>2330.85</ele>
        <time>2016-02-06T12:52:23Z</time>
      </trkpt>
      <trkpt lat="44.90597" lon="6.71002">
        <ele>2330.85</ele>
        <time>2016-02-06T12:52:44Z</time>
      </trkpt>
      <trkpt lat="44.90597" lon="6.71001">
        <ele>2330.85</ele>
        <time>2016-02-06T12:53:22Z</time>
      </trkpt>
      <trkpt lat="44.90596" lon="6.71002">
        <ele>2331.33</ele>
        <time>2016-02-06T12:53:54Z</time>
      </trkpt>
      <trkpt lat="44.90595" lon="6.71003">
        <ele>2331.33</ele>
        <time>2016-02-06T12:54:28Z</time>
      </trkpt>
      <trkpt lat="44.90595" lon="6.71003">
        <ele>2331.81</ele>
        <time>2016-02-06T12:54:59Z</time>
      </trkpt>
      <trkpt lat="44.90595" lon="6.71002">
        <ele>2332.3</ele>
        <time>2016-02-06T12:55:34Z</time>
      </trkpt>
      <trkpt lat="44.90594" lon="6.71004">
        <ele>2331.33</ele>
        <time>2016-02-06T12:56:08Z</time>
      </trkpt>
      <trkpt lat="44.90594" lon="6.71005">
        <ele>2331.81</ele>
        <time>2016-02-06T12:56:43Z</time>
      </trkpt>
      <trkpt lat="44.90594" lon="6.71005">
        <ele>2331.81</ele>
        <time>2016-02-06T12:57:25Z</time>
      </trkpt>
      <trkpt lat="44.90594" lon="6.71004">
        <ele>2331.81</ele>
        <time>2016-02-06T12:57:59Z</time>
      </trkpt>
      <trkpt lat="44.90596" lon="6.71005">
        <ele>2330.85</ele>
        <time>2016-02-06T12:58:41Z</time>
      </trkpt>
      <trkpt lat="44.90596" lon="6.71004">
        <ele>2331.33</ele>
        <time>2016-02-06T12:59:25Z</time>
      </trkpt>
      <trkpt lat="44.90595" lon="6.71004">
        <ele>2331.81</ele>
        <time>2016-02-06T13:00:04Z</time>
      </trkpt>
      <trkpt lat="44.90595" lon="6.71004">
        <ele>2331.81</ele>
        <time>2016-02-06T13:00:48Z</time>
      </trkpt>
      <trkpt lat="44.90594" lon="6.71005">
        <ele>2331.81</ele>
        <time>2016-02-06T13:01:22Z</time>
      </trkpt>
      <trkpt lat="44.90595" lon="6.71005">
        <ele>2331.81</ele>
        <time>2016-02-06T13:02:01Z</time>
      </trkpt>
      <trkpt lat="44.90593" lon="6.71005">
        <ele>2331.81</ele>
        <time>2016-02-06T13:02:45Z</time>
      </trkpt>
      <trkpt lat="44.90593" lon="6.71004">
        <ele>2332.3</ele>
        <time>2016-02-06T13:03:20Z</time>
      </trkpt>
      <trkpt lat="44.90594" lon="6.71004">
        <ele>2332.3</ele>
        <time>2016-02-06T13:04:01Z</time>
      </trkpt>
      <trkpt lat="44.90593" lon="6.71004">
        <ele>2330.85</ele>
        <time>2016-02-06T13:04:36Z</time>
      </trkpt>
      <trkpt lat="44.90594" lon="6.71005">
        <ele>2332.3</ele>
        <time>2016-02-06T13:05:02Z</time>
      </trkpt>
      <trkpt lat="44.90593" lon="6.71004">
        <ele>2331.81</ele>
        <time>2016-02-06T13:05:43Z</time>
      </trkpt>
      <trkpt lat="44.90594" lon="6.71004">
        <ele>2332.3</ele>
        <time>2016-02-06T13:06:17Z</time>
      </trkpt>
      <trkpt lat="44.90591" lon="6.71007">
        <ele>2332.3</ele>
        <time>2016-02-06T13:06:52Z</time>
      </trkpt>
      <trkpt lat="44.90592" lon="6.71005">
        <ele>2332.78</ele>
        <time>2016-02-06T13:07:09Z</time>
      </trkpt>
      <trkpt lat="44.90592" lon="6.71003">
        <ele>2332.3</ele>
        <time>2016-02-06T13:07:31Z</time>
      </trkpt>
      <trkpt lat="44.90592" lon="6.71003">
        <ele>2333.26</ele>
        <time>2016-02-06T13:07:49Z</time>
      </trkpt>
      <trkpt lat="44.90591" lon="6.71003">
        <ele>2333.26</ele>
        <time>2016-02-06T13:08:04Z</time>
      </trkpt>
      <trkpt lat="44.90592" lon="6.71004">
        <ele>2332.78</ele>
        <time>2016-02-06T13:08:16Z</time>
      </trkpt>
      <trkpt lat="44.90593" lon="6.71006">
        <ele>2332.78</ele>
        <time>2016-02-06T13:08:29Z</time>
      </trkpt>
      <trkpt lat="44.90594" lon="6.71007">
        <ele>2333.26</ele>
        <time>2016-02-06T13:08:49Z</time>
      </trkpt>
      <trkpt lat="44.90595" lon="6.71007">
        <ele>2332.78</ele>
        <time>2016-02-06T13:09:13Z</time>
      </trkpt>
      <trkpt lat="44.90595" lon="6.71007">
        <ele>2332.78</ele>
        <time>2016-02-06T13:09:27Z</time>
      </trkpt>
      <trkpt lat="44.90594" lon="6.71007">
        <ele>2333.74</ele>
        <time>2016-02-06T13:09:46Z</time>
      </trkpt>
      <trkpt lat="44.90594" lon="6.71006">
        <ele>2334.7</ele>
        <time>2016-02-06T13:10:13Z</time>
      </trkpt>
      <trkpt lat="44.90595" lon="6.71008">
        <ele>2334.22</ele>
        <time>2016-02-06T13:10:36Z</time>
      </trkpt>
      <trkpt lat="44.90595" lon="6.71008">
        <ele>2333.26</ele>
        <time>2016-02-06T13:10:54Z</time>
      </trkpt>
      <trkpt lat="44.90593" lon="6.71015">
        <ele>2332.78</ele>
        <time>2016-02-06T13:11:10Z</time>
      </trkpt>
      <trkpt lat="44.90583" lon="6.71042">
        <ele>2327.49</ele>
        <time>2016-02-06T13:11:16Z</time>
      </trkpt>
      <trkpt lat="44.9058" lon="6.71055">
        <ele>2325.57</ele>
        <time>2016-02-06T13:11:18Z</time>
      </trkpt>
      <trkpt lat="44.90567" lon="6.71085">
        <ele>2321.72</ele>
        <time>2016-02-06T13:11:22Z</time>
      </trkpt>
      <trkpt lat="44.90558" lon="6.71117">
        <ele>2319.32</ele>
        <time>2016-02-06T13:11:26Z</time>
      </trkpt>
      <trkpt lat="44.90553" lon="6.71143">
        <ele>2316.91</ele>
        <time>2016-02-06T13:11:30Z</time>
      </trkpt>
      <trkpt lat="44.90549" lon="6.71167">
        <ele>2316.91</ele>
        <time>2016-02-06T13:11:36Z</time>
      </trkpt>
      <trkpt lat="44.90551" lon="6.71187">
        <ele>2312.11</ele>
        <time>2016-02-06T13:11:39Z</time>
      </trkpt>
      <trkpt lat="44.90552" lon="6.71216">
        <ele>2308.74</ele>
        <time>2016-02-06T13:11:42Z</time>
      </trkpt>
      <trkpt lat="44.90556" lon="6.71237">
        <ele>2306.82</ele>
        <time>2016-02-06T13:11:45Z</time>
      </trkpt>
      <trkpt lat="44.90561" lon="6.71255">
        <ele>2305.38</ele>
        <time>2016-02-06T13:11:48Z</time>
      </trkpt>
      <trkpt lat="44.90567" lon="6.71263">
        <ele>2304.42</ele>
        <time>2016-02-06T13:11:50Z</time>
      </trkpt>
      <trkpt lat="44.90574" lon="6.71277">
        <ele>2302.49</ele>
        <time>2016-02-06T13:11:56Z</time>
      </trkpt>
      <trkpt lat="44.90575" lon="6.71274">
        <ele>2303.46</ele>
        <time>2016-02-06T13:12:20Z</time>
      </trkpt>
      <trkpt lat="44.90576" lon="6.71275">
        <ele>2302.98</ele>
        <time>2016-02-06T13:12:45Z</time>
      </trkpt>
      <trkpt lat="44.90577" lon="6.71276">
        <ele>2302.98</ele>
        <time>2016-02-06T13:13:06Z</time>
      </trkpt>
      <trkpt lat="44.90576" lon="6.71276">
        <ele>2302.49</ele>
        <time>2016-02-06T13:13:24Z</time>
      </trkpt>
      <trkpt lat="44.90576" lon="6.71278">
        <ele>2302.98</ele>
        <time>2016-02-06T13:13:31Z</time>
      </trkpt>
      <trkpt lat="44.90577" lon="6.71288">
        <ele>2302.49</ele>
        <time>2016-02-06T13:13:35Z</time>
      </trkpt>
      <trkpt lat="44.90582" lon="6.71298">
        <ele>2301.53</ele>
        <time>2016-02-06T13:13:38Z</time>
      </trkpt>
      <trkpt lat="44.90587" lon="6.71314">
        <ele>2299.13</ele>
        <time>2016-02-06T13:13:41Z</time>
      </trkpt>
      <trkpt lat="44.90591" lon="6.71327">
        <ele>2298.17</ele>
        <time>2016-02-06T13:13:43Z</time>
      </trkpt>
      <trkpt lat="44.90597" lon="6.71347">
        <ele>2295.77</ele>
        <time>2016-02-06T13:13:46Z</time>
      </trkpt>
      <trkpt lat="44.9061" lon="6.71373">
        <ele>2293.36</ele>
        <time>2016-02-06T13:13:51Z</time>
      </trkpt>
      <trkpt lat="44.9062" lon="6.71396">
        <ele>2290.48</ele>
        <time>2016-02-06T13:13:56Z</time>
      </trkpt>
      <trkpt lat="44.90619" lon="6.71415">
        <ele>2289.04</ele>
        <time>2016-02-06T13:14:01Z</time>
      </trkpt>
      <trkpt lat="44.90627" lon="6.71437">
        <ele>2285.67</ele>
        <time>2016-02-06T13:14:05Z</time>
      </trkpt>
      <trkpt lat="44.90639" lon="6.71462">
        <ele>2279.9</ele>
        <time>2016-02-06T13:14:09Z</time>
      </trkpt>
      <trkpt lat="44.90648" lon="6.71482">
        <ele>2276.06</ele>
        <time>2016-02-06T13:14:12Z</time>
      </trkpt>
      <trkpt lat="44.90659" lon="6.71502">
        <ele>2271.73</ele>
        <time>2016-02-06T13:14:15Z</time>
      </trkpt>
      <trkpt lat="44.90663" lon="6.71519">
        <ele>2267.89</ele>
        <time>2016-02-06T13:14:17Z</time>
      </trkpt>
      <trkpt lat="44.90681" lon="6.71523">
        <ele>2265.96</ele>
        <time>2016-02-06T13:14:22Z</time>
      </trkpt>
      <trkpt lat="44.90694" lon="6.71536">
        <ele>2262.6</ele>
        <time>2016-02-06T13:14:25Z</time>
      </trkpt>
      <trkpt lat="44.90713" lon="6.71551">
        <ele>2258.27</ele>
        <time>2016-02-06T13:14:28Z</time>
      </trkpt>
      <trkpt lat="44.90745" lon="6.71576">
        <ele>2253.95</ele>
        <time>2016-02-06T13:14:33Z</time>
      </trkpt>
      <trkpt lat="44.90771" lon="6.71611">
        <ele>2250.1</ele>
        <time>2016-02-06T13:14:38Z</time>
      </trkpt>
      <trkpt lat="44.9078" lon="6.71625">
        <ele>2248.66</ele>
        <time>2016-02-06T13:14:40Z</time>
      </trkpt>
      <trkpt lat="44.90784" lon="6.7166">
        <ele>2244.33</ele>
        <time>2016-02-06T13:14:44Z</time>
      </trkpt>
      <trkpt lat="44.90785" lon="6.71676">
        <ele>2243.37</ele>
        <time>2016-02-06T13:14:46Z</time>
      </trkpt>
      <trkpt lat="44.90796" lon="6.71702">
        <ele>2241.45</ele>
        <time>2016-02-06T13:14:52Z</time>
      </trkpt>
      <trkpt lat="44.90794" lon="6.71702">
        <ele>2241.93</ele>
        <time>2016-02-06T13:14:53Z</time>
      </trkpt>
      <trkpt lat="44.90794" lon="6.71697">
        <ele>2242.41</ele>
        <time>2016-02-06T13:15:05Z</time>
      </trkpt>
      <trkpt lat="44.90794" lon="6.71697">
        <ele>2242.41</ele>
        <time>2016-02-06T13:15:06Z</time>
      </trkpt>
      <trkpt lat="44.90794" lon="6.71699">
        <ele>2241.93</ele>
        <time>2016-02-06T13:15:25Z</time>
      </trkpt>
      <trkpt lat="44.90793" lon="6.717">
        <ele>2241.45</ele>
        <time>2016-02-06T13:15:27Z</time>
      </trkpt>
      <trkpt lat="44.90787" lon="6.71707">
        <ele>2240.01</ele>
        <time>2016-02-06T13:15:31Z</time>
      </trkpt>
      <trkpt lat="44.90771" lon="6.71715">
        <ele>2236.16</ele>
        <time>2016-02-06T13:15:35Z</time>
      </trkpt>
      <trkpt lat="44.9074" lon="6.71727">
        <ele>2234.24</ele>
        <time>2016-02-06T13:15:44Z</time>
      </trkpt>
      <trkpt lat="44.90735" lon="6.71748">
        <ele>2230.88</ele>
        <time>2016-02-06T13:15:50Z</time>
      </trkpt>
      <trkpt lat="44.90735" lon="6.71759">
        <ele>2230.88</ele>
        <time>2016-02-06T13:15:55Z</time>
      </trkpt>
      <trkpt lat="44.90734" lon="6.71758">
        <ele>2230.4</ele>
        <time>2016-02-06T13:16:10Z</time>
      </trkpt>
      <trkpt lat="44.90731" lon="6.71762">
        <ele>2228.47</ele>
        <time>2016-02-06T13:16:13Z</time>
      </trkpt>
      <trkpt lat="44.90721" lon="6.71773">
        <ele>2225.59</ele>
        <time>2016-02-06T13:16:19Z</time>
      </trkpt>
      <trkpt lat="44.90719" lon="6.71777">
        <ele>2223.67</ele>
        <time>2016-02-06T13:16:20Z</time>
      </trkpt>
      <trkpt lat="44.90713" lon="6.71781">
        <ele>2222.22</ele>
        <time>2016-02-06T13:16:22Z</time>
      </trkpt>
      <trkpt lat="44.90705" lon="6.71792">
        <ele>2216.94</ele>
        <time>2016-02-06T13:16:25Z</time>
      </trkpt>
      <trkpt lat="44.90698" lon="6.71816">
        <ele>2212.61</ele>
        <time>2016-02-06T13:16:30Z</time>
      </trkpt>
      <trkpt lat="44.90706" lon="6.71833">
        <ele>2212.61</ele>
        <time>2016-02-06T13:16:35Z</time>
      </trkpt>
      <trkpt lat="44.90709" lon="6.71832">
        <ele>2212.61</ele>
        <time>2016-02-06T13:16:44Z</time>
      </trkpt>
      <trkpt lat="44.90708" lon="6.71833">
        <ele>2212.61</ele>
        <time>2016-02-06T13:17:05Z</time>
      </trkpt>
      <trkpt lat="44.90709" lon="6.71835">
        <ele>2211.65</ele>
        <time>2016-02-06T13:17:09Z</time>
      </trkpt>
      <trkpt lat="44.90706" lon="6.71846">
        <ele>2207.81</ele>
        <time>2016-02-06T13:17:12Z</time>
      </trkpt>
      <trkpt lat="44.90695" lon="6.71863">
        <ele>2202.52</ele>
        <time>2016-02-06T13:17:16Z</time>
      </trkpt>
      <trkpt lat="44.90693" lon="6.71866">
        <ele>2202.52</ele>
        <time>2016-02-06T13:17:17Z</time>
      </trkpt>
      <trkpt lat="44.9069" lon="6.71867">
        <ele>2203</ele>
        <time>2016-02-06T13:17:18Z</time>
      </trkpt>
      <trkpt lat="44.90684" lon="6.7187">
        <ele>2199.63</ele>
        <time>2016-02-06T13:17:22Z</time>
      </trkpt>
      <trkpt lat="44.90685" lon="6.71873">
        <ele>2198.67</ele>
        <time>2016-02-06T13:17:26Z</time>
      </trkpt>
      <trkpt lat="44.90688" lon="6.71881">
        <ele>2198.19</ele>
        <time>2016-02-06T13:17:30Z</time>
      </trkpt>
      <trkpt lat="44.90685" lon="6.71895">
        <ele>2193.39</ele>
        <time>2016-02-06T13:17:33Z</time>
      </trkpt>
      <trkpt lat="44.90686" lon="6.71899">
        <ele>2194.83</ele>
        <time>2016-02-06T13:17:34Z</time>
      </trkpt>
      <trkpt lat="44.90693" lon="6.71895">
        <ele>2195.31</ele>
        <time>2016-02-06T13:17:42Z</time>
      </trkpt>
      <trkpt lat="44.90694" lon="6.71898">
        <ele>2194.83</ele>
        <time>2016-02-06T13:18:01Z</time>
      </trkpt>
      <trkpt lat="44.90699" lon="6.71907">
        <ele>2193.87</ele>
        <time>2016-02-06T13:18:05Z</time>
      </trkpt>
      <trkpt lat="44.90708" lon="6.71937">
        <ele>2189.06</ele>
        <time>2016-02-06T13:18:09Z</time>
      </trkpt>
      <trkpt lat="44.90724" lon="6.71956">
        <ele>2186.66</ele>
        <time>2016-02-06T13:18:12Z</time>
      </trkpt>
      <trkpt lat="44.90748" lon="6.71968">
        <ele>2184.25</ele>
        <time>2016-02-06T13:18:16Z</time>
      </trkpt>
      <trkpt lat="44.90756" lon="6.71979">
        <ele>2182.81</ele>
        <time>2016-02-06T13:18:18Z</time>
      </trkpt>
      <trkpt lat="44.90777" lon="6.7201">
        <ele>2178.48</ele>
        <time>2016-02-06T13:18:25Z</time>
      </trkpt>
      <trkpt lat="44.90778" lon="6.72016">
        <ele>2177.52</ele>
        <time>2016-02-06T13:18:39Z</time>
      </trkpt>
      <trkpt lat="44.90777" lon="6.72013">
        <ele>2177.52</ele>
        <time>2016-02-06T13:19:03Z</time>
      </trkpt>
      <trkpt lat="44.90779" lon="6.72015">
        <ele>2178</ele>
        <time>2016-02-06T13:19:27Z</time>
      </trkpt>
      <trkpt lat="44.90781" lon="6.72016">
        <ele>2177.52</ele>
        <time>2016-02-06T13:19:28Z</time>
      </trkpt>
      <trkpt lat="44.90786" lon="6.72028">
        <ele>2174.64</ele>
        <time>2016-02-06T13:19:37Z</time>
      </trkpt>
      <trkpt lat="44.90794" lon="6.72038">
        <ele>2172.72</ele>
        <time>2016-02-06T13:19:45Z</time>
      </trkpt>
      <trkpt lat="44.90793" lon="6.72037">
        <ele>2173.2</ele>
        <time>2016-02-06T13:20:05Z</time>
      </trkpt>
      <trkpt lat="44.90793" lon="6.72039">
        <ele>2172.24</ele>
        <time>2016-02-06T13:20:18Z</time>
      </trkpt>
      <trkpt lat="44.90804" lon="6.72043">
        <ele>2171.27</ele>
        <time>2016-02-06T13:20:24Z</time>
      </trkpt>
      <trkpt lat="44.90813" lon="6.72045">
        <ele>2170.31</ele>
        <time>2016-02-06T13:20:28Z</time>
      </trkpt>
      <trkpt lat="44.90812" lon="6.72056">
        <ele>2168.39</ele>
        <time>2016-02-06T13:20:33Z</time>
      </trkpt>
      <trkpt lat="44.90805" lon="6.72063">
        <ele>2167.91</ele>
        <time>2016-02-06T13:20:37Z</time>
      </trkpt>
      <trkpt lat="44.9081" lon="6.72074">
        <ele>2164.55</ele>
        <time>2016-02-06T13:20:42Z</time>
      </trkpt>
      <trkpt lat="44.90812" lon="6.72075">
        <ele>2164.06</ele>
        <time>2016-02-06T13:20:43Z</time>
      </trkpt>
      <trkpt lat="44.90817" lon="6.72075">
        <ele>2163.58</ele>
        <time>2016-02-06T13:20:45Z</time>
      </trkpt>
      <trkpt lat="44.90821" lon="6.72076">
        <ele>2164.06</ele>
        <time>2016-02-06T13:20:59Z</time>
      </trkpt>
      <trkpt lat="44.90821" lon="6.72076">
        <ele>2164.06</ele>
        <time>2016-02-06T13:21:00Z</time>
      </trkpt>
      <trkpt lat="44.90821" lon="6.72085">
        <ele>2162.62</ele>
        <time>2016-02-06T13:21:05Z</time>
      </trkpt>
      <trkpt lat="44.90817" lon="6.7209">
        <ele>2161.66</ele>
        <time>2016-02-06T13:21:07Z</time>
      </trkpt>
      <trkpt lat="44.90824" lon="6.72101">
        <ele>2159.26</ele>
        <time>2016-02-06T13:21:11Z</time>
      </trkpt>
      <trkpt lat="44.90829" lon="6.72096">
        <ele>2159.74</ele>
        <time>2016-02-06T13:21:24Z</time>
      </trkpt>
      <trkpt lat="44.9083" lon="6.72098">
        <ele>2159.74</ele>
        <time>2016-02-06T13:21:30Z</time>
      </trkpt>
      <trkpt lat="44.90833" lon="6.72102">
        <ele>2157.82</ele>
        <time>2016-02-06T13:21:32Z</time>
      </trkpt>
      <trkpt lat="44.90847" lon="6.72107">
        <ele>2155.41</ele>
        <time>2016-02-06T13:21:35Z</time>
      </trkpt>
      <trkpt lat="44.90855" lon="6.72121">
        <ele>2153.01</ele>
        <time>2016-02-06T13:21:38Z</time>
      </trkpt>
      <trkpt lat="44.90866" lon="6.7213">
        <ele>2151.09</ele>
        <time>2016-02-06T13:21:41Z</time>
      </trkpt>
      <trkpt lat="44.90865" lon="6.72141">
        <ele>2148.68</ele>
        <time>2016-02-06T13:21:45Z</time>
      </trkpt>
      <trkpt lat="44.90866" lon="6.72142">
        <ele>2148.68</ele>
        <time>2016-02-06T13:22:05Z</time>
      </trkpt>
      <trkpt lat="44.90866" lon="6.72143">
        <ele>2148.68</ele>
        <time>2016-02-06T13:22:06Z</time>
      </trkpt>
      <trkpt lat="44.90869" lon="6.72154">
        <ele>2146.28</ele>
        <time>2016-02-06T13:22:12Z</time>
      </trkpt>
      <trkpt lat="44.90893" lon="6.72146">
        <ele>2143.4</ele>
        <time>2016-02-06T13:22:21Z</time>
      </trkpt>
      <trkpt lat="44.90904" lon="6.72156">
        <ele>2138.59</ele>
        <time>2016-02-06T13:22:24Z</time>
      </trkpt>
      <trkpt lat="44.90907" lon="6.72163">
        <ele>2136.19</ele>
        <time>2016-02-06T13:22:25Z</time>
      </trkpt>
      <trkpt lat="44.90918" lon="6.72176">
        <ele>2136.19</ele>
        <time>2016-02-06T13:22:28Z</time>
      </trkpt>
      <trkpt lat="44.9092" lon="6.72182">
        <ele>2133.3</ele>
        <time>2016-02-06T13:22:29Z</time>
      </trkpt>
      <trkpt lat="44.90925" lon="6.72189">
        <ele>2131.86</ele>
        <time>2016-02-06T13:22:31Z</time>
      </trkpt>
      <trkpt lat="44.90951" lon="6.72181">
        <ele>2129.94</ele>
        <time>2016-02-06T13:22:39Z</time>
      </trkpt>
      <trkpt lat="44.90954" lon="6.72183">
        <ele>2129.46</ele>
        <time>2016-02-06T13:22:40Z</time>
      </trkpt>
      <trkpt lat="44.90955" lon="6.72185">
        <ele>2128.98</ele>
        <time>2016-02-06T13:22:41Z</time>
      </trkpt>
      <trkpt lat="44.90941" lon="6.722">
        <ele>2127.53</ele>
        <time>2016-02-06T13:22:45Z</time>
      </trkpt>
      <trkpt lat="44.90941" lon="6.72209">
        <ele>2126.09</ele>
        <time>2016-02-06T13:22:47Z</time>
      </trkpt>
      <trkpt lat="44.90942" lon="6.72213">
        <ele>2125.13</ele>
        <time>2016-02-06T13:22:48Z</time>
      </trkpt>
      <trkpt lat="44.90953" lon="6.72208">
        <ele>2125.61</ele>
        <time>2016-02-06T13:22:57Z</time>
      </trkpt>
      <trkpt lat="44.90959" lon="6.72238">
        <ele>2120.81</ele>
        <time>2016-02-06T13:23:05Z</time>
      </trkpt>
      <trkpt lat="44.90963" lon="6.72249">
        <ele>2119.84</ele>
        <time>2016-02-06T13:23:07Z</time>
      </trkpt>
      <trkpt lat="44.90961" lon="6.72259">
        <ele>2117.92</ele>
        <time>2016-02-06T13:23:09Z</time>
      </trkpt>
      <trkpt lat="44.90968" lon="6.72261">
        <ele>2116</ele>
        <time>2016-02-06T13:23:13Z</time>
      </trkpt>
      <trkpt lat="44.9097" lon="6.72256">
        <ele>2116</ele>
        <time>2016-02-06T13:23:27Z</time>
      </trkpt>
      <trkpt lat="44.9097" lon="6.72256">
        <ele>2116.48</ele>
        <time>2016-02-06T13:23:48Z</time>
      </trkpt>
      <trkpt lat="44.90972" lon="6.72255">
        <ele>2116.96</ele>
        <time>2016-02-06T13:24:11Z</time>
      </trkpt>
      <trkpt lat="44.90977" lon="6.72255">
        <ele>2116</ele>
        <time>2016-02-06T13:24:40Z</time>
      </trkpt>
      <trkpt lat="44.90977" lon="6.72255">
        <ele>2116</ele>
        <time>2016-02-06T13:24:41Z</time>
      </trkpt>
      <trkpt lat="44.90984" lon="6.72256">
        <ele>2114.56</ele>
        <time>2016-02-06T13:24:45Z</time>
      </trkpt>
      <trkpt lat="44.90991" lon="6.72254">
        <ele>2113.6</ele>
        <time>2016-02-06T13:24:47Z</time>
      </trkpt>
      <trkpt lat="44.90998" lon="6.72253">
        <ele>2112.63</ele>
        <time>2016-02-06T13:24:49Z</time>
      </trkpt>
      <trkpt lat="44.91006" lon="6.72264">
        <ele>2108.79</ele>
        <time>2016-02-06T13:24:52Z</time>
      </trkpt>
      <trkpt lat="44.91011" lon="6.72271">
        <ele>2107.83</ele>
        <time>2016-02-06T13:24:53Z</time>
      </trkpt>
      <trkpt lat="44.9102" lon="6.72281">
        <ele>2104.94</ele>
        <time>2016-02-06T13:24:55Z</time>
      </trkpt>
      <trkpt lat="44.91028" lon="6.72287">
        <ele>2103.02</ele>
        <time>2016-02-06T13:24:56Z</time>
      </trkpt>
      <trkpt lat="44.91035" lon="6.72291">
        <ele>2102.06</ele>
        <time>2016-02-06T13:24:57Z</time>
      </trkpt>
      <trkpt lat="44.9104" lon="6.72294">
        <ele>2100.62</ele>
        <time>2016-02-06T13:24:58Z</time>
      </trkpt>
      <trkpt lat="44.91055" lon="6.72297">
        <ele>2099.18</ele>
        <time>2016-02-06T13:25:00Z</time>
      </trkpt>
      <trkpt lat="44.91094" lon="6.72283">
        <ele>2098.7</ele>
        <time>2016-02-06T13:25:06Z</time>
      </trkpt>
      <trkpt lat="44.91108" lon="6.72286">
        <ele>2097.25</ele>
        <time>2016-02-06T13:25:09Z</time>
      </trkpt>
      <trkpt lat="44.91113" lon="6.72289">
        <ele>2096.29</ele>
        <time>2016-02-06T13:25:10Z</time>
      </trkpt>
      <trkpt lat="44.91134" lon="6.72299">
        <ele>2097.25</ele>
        <time>2016-02-06T13:25:16Z</time>
      </trkpt>
      <trkpt lat="44.91141" lon="6.72302">
        <ele>2097.73</ele>
        <time>2016-02-06T13:25:24Z</time>
      </trkpt>
      <trkpt lat="44.91146" lon="6.72304">
        <ele>2095.81</ele>
        <time>2016-02-06T13:25:40Z</time>
      </trkpt>
      <trkpt lat="44.91155" lon="6.72311">
        <ele>2094.85</ele>
        <time>2016-02-06T13:25:45Z</time>
      </trkpt>
      <trkpt lat="44.9116" lon="6.72311">
        <ele>2094.37</ele>
        <time>2016-02-06T13:25:47Z</time>
      </trkpt>
      <trkpt lat="44.91176" lon="6.72317">
        <ele>2091.97</ele>
        <time>2016-02-06T13:25:52Z</time>
      </trkpt>
      <trkpt lat="44.91207" lon="6.72331">
        <ele>2088.6</ele>
        <time>2016-02-06T13:25:59Z</time>
      </trkpt>
      <trkpt lat="44.91222" lon="6.72339">
        <ele>2086.2</ele>
        <time>2016-02-06T13:26:02Z</time>
      </trkpt>
      <trkpt lat="44.91236" lon="6.72349">
        <ele>2082.35</ele>
        <time>2016-02-06T13:26:05Z</time>
      </trkpt>
      <trkpt lat="44.91247" lon="6.72355">
        <ele>2081.87</ele>
        <time>2016-02-06T13:26:07Z</time>
      </trkpt>
      <trkpt lat="44.91269" lon="6.72371">
        <ele>2077.07</ele>
        <time>2016-02-06T13:26:11Z</time>
      </trkpt>
      <trkpt lat="44.91279" lon="6.72379">
        <ele>2076.1</ele>
        <time>2016-02-06T13:26:13Z</time>
      </trkpt>
      <trkpt lat="44.91297" lon="6.72392">
        <ele>2072.26</ele>
        <time>2016-02-06T13:26:16Z</time>
      </trkpt>
      <trkpt lat="44.91303" lon="6.72396">
        <ele>2070.82</ele>
        <time>2016-02-06T13:26:17Z</time>
      </trkpt>
      <trkpt lat="44.91326" lon="6.72414">
        <ele>2067.93</ele>
        <time>2016-02-06T13:26:21Z</time>
      </trkpt>
      <trkpt lat="44.9135" lon="6.72421">
        <ele>2065.05</ele>
        <time>2016-02-06T13:26:24Z</time>
      </trkpt>
      <trkpt lat="44.91425" lon="6.72433">
        <ele>2062.17</ele>
        <time>2016-02-06T13:26:39Z</time>
      </trkpt>
      <trkpt lat="44.91441" lon="6.72436">
        <ele>2059.28</ele>
        <time>2016-02-06T13:26:42Z</time>
      </trkpt>
      <trkpt lat="44.9146" lon="6.72442">
        <ele>2054.96</ele>
        <time>2016-02-06T13:26:45Z</time>
      </trkpt>
      <trkpt lat="44.91485" lon="6.72456">
        <ele>2052.07</ele>
        <time>2016-02-06T13:26:49Z</time>
      </trkpt>
      <trkpt lat="44.91511" lon="6.72475">
        <ele>2048.23</ele>
        <time>2016-02-06T13:26:53Z</time>
      </trkpt>
      <trkpt lat="44.91532" lon="6.72485">
        <ele>2045.34</ele>
        <time>2016-02-06T13:26:56Z</time>
      </trkpt>
      <trkpt lat="44.9154" lon="6.72486">
        <ele>2044.86</ele>
        <time>2016-02-06T13:26:57Z</time>
      </trkpt>
      <trkpt lat="44.91563" lon="6.72481">
        <ele>2042.46</ele>
        <time>2016-02-06T13:27:00Z</time>
      </trkpt>
      <trkpt lat="44.91579" lon="6.7248">
        <ele>2039.09</ele>
        <time>2016-02-06T13:27:02Z</time>
      </trkpt>
      <trkpt lat="44.91595" lon="6.72476">
        <ele>2038.13</ele>
        <time>2016-02-06T13:27:04Z</time>
      </trkpt>
      <trkpt lat="44.9161" lon="6.72477">
        <ele>2034.77</ele>
        <time>2016-02-06T13:27:06Z</time>
      </trkpt>
      <trkpt lat="44.91618" lon="6.72476">
        <ele>2034.29</ele>
        <time>2016-02-06T13:27:07Z</time>
      </trkpt>
      <trkpt lat="44.91648" lon="6.72468">
        <ele>2029.96</ele>
        <time>2016-02-06T13:27:11Z</time>
      </trkpt>
      <trkpt lat="44.91656" lon="6.72465">
        <ele>2029.96</ele>
        <time>2016-02-06T13:27:12Z</time>
      </trkpt>
      <trkpt lat="44.91675" lon="6.72458">
        <ele>2026.6</ele>
        <time>2016-02-06T13:27:14Z</time>
      </trkpt>
      <trkpt lat="44.91703" lon="6.7245">
        <ele>2023.23</ele>
        <time>2016-02-06T13:27:17Z</time>
      </trkpt>
      <trkpt lat="44.91728" lon="6.72444">
        <ele>2020.83</ele>
        <time>2016-02-06T13:27:20Z</time>
      </trkpt>
      <trkpt lat="44.91758" lon="6.7244">
        <ele>2019.39</ele>
        <time>2016-02-06T13:27:24Z</time>
      </trkpt>
      <trkpt lat="44.91795" lon="6.72436">
        <ele>2015.54</ele>
        <time>2016-02-06T13:27:29Z</time>
      </trkpt>
      <trkpt lat="44.91814" lon="6.72432">
        <ele>2014.1</ele>
        <time>2016-02-06T13:27:32Z</time>
      </trkpt>
      <trkpt lat="44.91831" lon="6.72427">
        <ele>2012.18</ele>
        <time>2016-02-06T13:27:35Z</time>
      </trkpt>
      <trkpt lat="44.91861" lon="6.72422">
        <ele>2009.29</ele>
        <time>2016-02-06T13:27:40Z</time>
      </trkpt>
      <trkpt lat="44.91873" lon="6.7242">
        <ele>2007.37</ele>
        <time>2016-02-06T13:27:42Z</time>
      </trkpt>
      <trkpt lat="44.91904" lon="6.72413">
        <ele>2006.89</ele>
        <time>2016-02-06T13:27:47Z</time>
      </trkpt>
      <trkpt lat="44.91927" lon="6.72409">
        <ele>2005.45</ele>
        <time>2016-02-06T13:27:51Z</time>
      </trkpt>
      <trkpt lat="44.91947" lon="6.72407">
        <ele>2004.01</ele>
        <time>2016-02-06T13:27:58Z</time>
      </trkpt>
      <trkpt lat="44.91943" lon="6.72406">
        <ele>2004.01</ele>
        <time>2016-02-06T13:28:21Z</time>
      </trkpt>
      <trkpt lat="44.91941" lon="6.72404">
        <ele>2004.01</ele>
        <time>2016-02-06T13:28:47Z</time>
      </trkpt>
      <trkpt lat="44.91938" lon="6.72402">
        <ele>2004.01</ele>
        <time>2016-02-06T13:29:11Z</time>
      </trkpt>
      <trkpt lat="44.91936" lon="6.724">
        <ele>2004.01</ele>
        <time>2016-02-06T13:29:34Z</time>
      </trkpt>
      <trkpt lat="44.91938" lon="6.72402">
        <ele>2004.49</ele>
        <time>2016-02-06T13:29:51Z</time>
      </trkpt>
      <trkpt lat="44.91938" lon="6.72402">
        <ele>2004.49</ele>
        <time>2016-02-06T13:30:18Z</time>
      </trkpt>
      <trkpt lat="44.9194" lon="6.72404">
        <ele>2004.01</ele>
        <time>2016-02-06T13:30:42Z</time>
      </trkpt>
      <trkpt lat="44.9194" lon="6.72405">
        <ele>2004.01</ele>
        <time>2016-02-06T13:31:02Z</time>
      </trkpt>
      <trkpt lat="44.91941" lon="6.72406">
        <ele>2004.01</ele>
        <time>2016-02-06T13:31:26Z</time>
      </trkpt>
      <trkpt lat="44.91942" lon="6.72407">
        <ele>2004.01</ele>
        <time>2016-02-06T13:31:44Z</time>
      </trkpt>
      <trkpt lat="44.91943" lon="6.72407">
        <ele>2004.01</ele>
        <time>2016-02-06T13:32:04Z</time>
      </trkpt>
      <trkpt lat="44.91943" lon="6.72408">
        <ele>2004.01</ele>
        <time>2016-02-06T13:32:26Z</time>
      </trkpt>
      <trkpt lat="44.91944" lon="6.72407">
        <ele>2004.01</ele>
        <time>2016-02-06T13:32:46Z</time>
      </trkpt>
      <trkpt lat="44.91948" lon="6.72406">
        <ele>2003.52</ele>
        <time>2016-02-06T13:33:07Z</time>
      </trkpt>
      <trkpt lat="44.91953" lon="6.72402">
        <ele>2003.52</ele>
        <time>2016-02-06T13:33:11Z</time>
      </trkpt>
      <trkpt lat="44.91969" lon="6.72394">
        <ele>2001.6</ele>
        <time>2016-02-06T13:33:16Z</time>
      </trkpt>
      <trkpt lat="44.91977" lon="6.72391">
        <ele>2001.12</ele>
        <time>2016-02-06T13:33:18Z</time>
      </trkpt>
      <trkpt lat="44.91986" lon="6.72386">
        <ele>2000.16</ele>
        <time>2016-02-06T13:33:20Z</time>
      </trkpt>
      <trkpt lat="44.92019" lon="6.72371">
        <ele>1996.8</ele>
        <time>2016-02-06T13:33:27Z</time>
      </trkpt>
      <trkpt lat="44.92037" lon="6.72363">
        <ele>1993.91</ele>
        <time>2016-02-06T13:33:31Z</time>
      </trkpt>
      <trkpt lat="44.92047" lon="6.72358">
        <ele>1992.95</ele>
        <time>2016-02-06T13:33:33Z</time>
      </trkpt>
      <trkpt lat="44.92075" lon="6.72347">
        <ele>1988.14</ele>
        <time>2016-02-06T13:33:37Z</time>
      </trkpt>
      <trkpt lat="44.92095" lon="6.72329">
        <ele>1986.22</ele>
        <time>2016-02-06T13:33:40Z</time>
      </trkpt>
      <trkpt lat="44.92103" lon="6.72324">
        <ele>1984.78</ele>
        <time>2016-02-06T13:33:41Z</time>
      </trkpt>
      <trkpt lat="44.92121" lon="6.72312">
        <ele>1982.86</ele>
        <time>2016-02-06T13:33:44Z</time>
      </trkpt>
      <trkpt lat="44.92131" lon="6.72305">
        <ele>1983.34</ele>
        <time>2016-02-06T13:33:46Z</time>
      </trkpt>
      <trkpt lat="44.92161" lon="6.72293">
        <ele>1980.45</ele>
        <time>2016-02-06T13:33:51Z</time>
      </trkpt>
      <trkpt lat="44.92191" lon="6.72272">
        <ele>1976.13</ele>
        <time>2016-02-06T13:33:56Z</time>
      </trkpt>
      <trkpt lat="44.92202" lon="6.72262">
        <ele>1974.69</ele>
        <time>2016-02-06T13:33:58Z</time>
      </trkpt>
      <trkpt lat="44.92226" lon="6.72243">
        <ele>1971.32</ele>
        <time>2016-02-06T13:34:03Z</time>
      </trkpt>
      <trkpt lat="44.9224" lon="6.72233">
        <ele>1968.44</ele>
        <time>2016-02-06T13:34:06Z</time>
      </trkpt>
      <trkpt lat="44.9225" lon="6.72224">
        <ele>1966.99</ele>
        <time>2016-02-06T13:34:08Z</time>
      </trkpt>
      <trkpt lat="44.9226" lon="6.72217">
        <ele>1964.59</ele>
        <time>2016-02-06T13:34:10Z</time>
      </trkpt>
      <trkpt lat="44.92268" lon="6.72207">
        <ele>1964.11</ele>
        <time>2016-02-06T13:34:12Z</time>
      </trkpt>
      <trkpt lat="44.92293" lon="6.72189">
        <ele>1960.27</ele>
        <time>2016-02-06T13:34:19Z</time>
      </trkpt>
      <trkpt lat="44.92293" lon="6.72189">
        <ele>1959.78</ele>
        <time>2016-02-06T13:34:38Z</time>
      </trkpt>
      <trkpt lat="44.92295" lon="6.7219">
        <ele>1959.78</ele>
        <time>2016-02-06T13:35:04Z</time>
      </trkpt>
      <trkpt lat="44.92299" lon="6.72186">
        <ele>1958.82</ele>
        <time>2016-02-06T13:35:27Z</time>
      </trkpt>
      <trkpt lat="44.92296" lon="6.72183">
        <ele>1958.34</ele>
        <time>2016-02-06T13:35:42Z</time>
      </trkpt>
      <trkpt lat="44.92315" lon="6.72173">
        <ele>1954.5</ele>
        <time>2016-02-06T13:35:48Z</time>
      </trkpt>
      <trkpt lat="44.92325" lon="6.72165">
        <ele>1953.06</ele>
        <time>2016-02-06T13:35:50Z</time>
      </trkpt>
      <trkpt lat="44.92358" lon="6.72169">
        <ele>1945.36</ele>
        <time>2016-02-06T13:35:55Z</time>
      </trkpt>
      <trkpt lat="44.92368" lon="6.72165">
        <ele>1943.92</ele>
        <time>2016-02-06T13:35:57Z</time>
      </trkpt>
      <trkpt lat="44.92383" lon="6.72162">
        <ele>1940.56</ele>
        <time>2016-02-06T13:36:00Z</time>
      </trkpt>
      <trkpt lat="44.92404" lon="6.72166">
        <ele>1935.27</ele>
        <time>2016-02-06T13:36:04Z</time>
      </trkpt>
      <trkpt lat="44.92425" lon="6.72156">
        <ele>1929.98</ele>
        <time>2016-02-06T13:36:08Z</time>
      </trkpt>
      <trkpt lat="44.9244" lon="6.72156">
        <ele>1925.18</ele>
        <time>2016-02-06T13:36:11Z</time>
      </trkpt>
      <trkpt lat="44.92467" lon="6.72154">
        <ele>1922.77</ele>
        <time>2016-02-06T13:36:16Z</time>
      </trkpt>
      <trkpt lat="44.92484" lon="6.72153">
        <ele>1920.37</ele>
        <time>2016-02-06T13:36:19Z</time>
      </trkpt>
      <trkpt lat="44.92499" lon="6.72154">
        <ele>1917.01</ele>
        <time>2016-02-06T13:36:22Z</time>
      </trkpt>
      <trkpt lat="44.92504" lon="6.72154">
        <ele>1916.53</ele>
        <time>2016-02-06T13:36:23Z</time>
      </trkpt>
      <trkpt lat="44.92519" lon="6.72157">
        <ele>1914.12</ele>
        <time>2016-02-06T13:36:26Z</time>
      </trkpt>
      <trkpt lat="44.92533" lon="6.72151">
        <ele>1910.76</ele>
        <time>2016-02-06T13:36:29Z</time>
      </trkpt>
      <trkpt lat="44.92549" lon="6.72138">
        <ele>1906.43</ele>
        <time>2016-02-06T13:36:33Z</time>
      </trkpt>
      <trkpt lat="44.92563" lon="6.72125">
        <ele>1901.63</ele>
        <time>2016-02-06T13:36:36Z</time>
      </trkpt>
      <trkpt lat="44.92577" lon="6.72108">
        <ele>1895.86</ele>
        <time>2016-02-06T13:36:39Z</time>
      </trkpt>
      <trkpt lat="44.92589" lon="6.72085">
        <ele>1892.01</ele>
        <time>2016-02-06T13:36:42Z</time>
      </trkpt>
      <trkpt lat="44.92592" lon="6.72078">
        <ele>1892.97</ele>
        <time>2016-02-06T13:36:43Z</time>
      </trkpt>
      <trkpt lat="44.92599" lon="6.72066">
        <ele>1895.38</ele>
        <time>2016-02-06T13:36:49Z</time>
      </trkpt>
      <trkpt lat="44.92599" lon="6.72065">
        <ele>1893.45</ele>
        <time>2016-02-06T13:36:52Z</time>
      </trkpt>
      <trkpt lat="44.926" lon="6.72065">
        <ele>1894.9</ele>
        <time>2016-02-06T13:37:01Z</time>
      </trkpt>
      <trkpt lat="44.926" lon="6.72065">
        <ele>1894.42</ele>
        <time>2016-02-06T13:37:30Z</time>
      </trkpt>
      <trkpt lat="44.926" lon="6.72065">
        <ele>1893.93</ele>
        <time>2016-02-06T13:37:34Z</time>
      </trkpt>
      <trkpt lat="44.926" lon="6.72065">
        <ele>1893.93</ele>
        <time>2016-02-06T13:38:00Z</time>
      </trkpt>
      <trkpt lat="44.926" lon="6.72066">
        <ele>1894.42</ele>
        <time>2016-02-06T13:38:23Z</time>
      </trkpt>
      <trkpt lat="44.926" lon="6.72066">
        <ele>1894.42</ele>
        <time>2016-02-06T13:38:24Z</time>
      </trkpt>
      <trkpt lat="44.92602" lon="6.72065">
        <ele>1892.01</ele>
        <time>2016-02-06T13:38:40Z</time>
      </trkpt>
      <trkpt lat="44.92601" lon="6.72066">
        <ele>1892.97</ele>
        <time>2016-02-06T13:39:02Z</time>
      </trkpt>
      <trkpt lat="44.92601" lon="6.72067">
        <ele>1893.45</ele>
        <time>2016-02-06T13:39:26Z</time>
      </trkpt>
      <trkpt lat="44.92601" lon="6.72067">
        <ele>1893.45</ele>
        <time>2016-02-06T13:39:50Z</time>
      </trkpt>
      <trkpt lat="44.92601" lon="6.72067">
        <ele>1893.45</ele>
        <time>2016-02-06T13:40:17Z</time>
      </trkpt>
      <trkpt lat="44.92602" lon="6.72064">
        <ele>1893.93</ele>
        <time>2016-02-06T13:40:24Z</time>
      </trkpt>
      <trkpt lat="44.92612" lon="6.7206">
        <ele>1890.57</ele>
        <time>2016-02-06T13:40:28Z</time>
      </trkpt>
      <trkpt lat="44.92629" lon="6.72058">
        <ele>1887.69</ele>
        <time>2016-02-06T13:40:32Z</time>
      </trkpt>
      <trkpt lat="44.92643" lon="6.72062">
        <ele>1884.8</ele>
        <time>2016-02-06T13:40:35Z</time>
      </trkpt>
      <trkpt lat="44.92653" lon="6.72065">
        <ele>1882.4</ele>
        <time>2016-02-06T13:40:37Z</time>
      </trkpt>
      <trkpt lat="44.92676" lon="6.72064">
        <ele>1877.11</ele>
        <time>2016-02-06T13:40:41Z</time>
      </trkpt>
      <trkpt lat="44.92701" lon="6.72069">
        <ele>1872.79</ele>
        <time>2016-02-06T13:40:46Z</time>
      </trkpt>
      <trkpt lat="44.92739" lon="6.72084">
        <ele>1869.42</ele>
        <time>2016-02-06T13:40:56Z</time>
      </trkpt>
      <trkpt lat="44.92755" lon="6.72086">
        <ele>1866.06</ele>
        <time>2016-02-06T13:41:00Z</time>
      </trkpt>
      <trkpt lat="44.92764" lon="6.72088">
        <ele>1865.09</ele>
        <time>2016-02-06T13:41:02Z</time>
      </trkpt>
      <trkpt lat="44.92795" lon="6.72089">
        <ele>1864.61</ele>
        <time>2016-02-06T13:41:10Z</time>
      </trkpt>
      <trkpt lat="44.92797" lon="6.72086">
        <ele>1867.98</ele>
        <time>2016-02-06T13:41:13Z</time>
      </trkpt>
      <trkpt lat="44.92796" lon="6.72087">
        <ele>1867.5</ele>
        <time>2016-02-06T13:41:31Z</time>
      </trkpt>
      <trkpt lat="44.92798" lon="6.72086">
        <ele>1867.02</ele>
        <time>2016-02-06T13:41:45Z</time>
      </trkpt>
      <trkpt lat="44.9281" lon="6.72078">
        <ele>1861.73</ele>
        <time>2016-02-06T13:41:50Z</time>
      </trkpt>
      <trkpt lat="44.92835" lon="6.72061">
        <ele>1857.89</ele>
        <time>2016-02-06T13:41:57Z</time>
      </trkpt>
      <trkpt lat="44.92847" lon="6.72056">
        <ele>1855.96</ele>
        <time>2016-02-06T13:41:59Z</time>
      </trkpt>
      <trkpt lat="44.92865" lon="6.72032">
        <ele>1857.89</ele>
        <time>2016-02-06T13:42:05Z</time>
      </trkpt>
      <trkpt lat="44.92877" lon="6.72015">
        <ele>1855.96</ele>
        <time>2016-02-06T13:42:11Z</time>
      </trkpt>
      <trkpt lat="44.92885" lon="6.72009">
        <ele>1855.48</ele>
        <time>2016-02-06T13:42:20Z</time>
      </trkpt>
      <trkpt lat="44.92888" lon="6.7201">
        <ele>1856.44</ele>
        <time>2016-02-06T13:42:31Z</time>
      </trkpt>
      <trkpt lat="44.92889" lon="6.72012">
        <ele>1855.48</ele>
        <time>2016-02-06T13:42:50Z</time>
      </trkpt>
      <trkpt lat="44.92889" lon="6.7201">
        <ele>1855.48</ele>
        <time>2016-02-06T13:43:09Z</time>
      </trkpt>
      <trkpt lat="44.92888" lon="6.72011">
        <ele>1855.48</ele>
        <time>2016-02-06T13:43:32Z</time>
      </trkpt>
      <trkpt lat="44.92888" lon="6.7201">
        <ele>1855.48</ele>
        <time>2016-02-06T13:43:50Z</time>
      </trkpt>
      <trkpt lat="44.92888" lon="6.72004">
        <ele>1855.48</ele>
        <time>2016-02-06T13:44:09Z</time>
      </trkpt>
      <trkpt lat="44.92884" lon="6.71978">
        <ele>1855</ele>
        <time>2016-02-06T13:44:28Z</time>
      </trkpt>
      <trkpt lat="44.92883" lon="6.71977">
        <ele>1855.48</ele>
        <time>2016-02-06T13:44:33Z</time>
      </trkpt>
      <trkpt lat="44.92884" lon="6.7198">
        <ele>1855</ele>
        <time>2016-02-06T13:44:46Z</time>
      </trkpt>
      <trkpt lat="44.92884" lon="6.71979">
        <ele>1854.04</ele>
        <time>2016-02-06T13:45:09Z</time>
      </trkpt>
      <trkpt lat="44.92884" lon="6.7198">
        <ele>1854.52</ele>
        <time>2016-02-06T13:45:49Z</time>
      </trkpt>
      <trkpt lat="44.92885" lon="6.7198">
        <ele>1855</ele>
        <time>2016-02-06T13:46:12Z</time>
      </trkpt>
      <trkpt lat="44.92884" lon="6.71981">
        <ele>1855</ele>
        <time>2016-02-06T13:46:25Z</time>
      </trkpt>
    </trkseg>
  </trk>
</gpx>